Darstellungsparameter: Aktuell verwendete Einstellungen:
Skalierung der Graphiken ... ?
xyx+y,   Skalierungsfaktor:      Skalierung: Modus: x, Faktor: 1
Darstellungszeitraum ... ?
Vom - - bis: - -   Zeitraum: 03.03.2015 - 31.03.2015
Min/Max/Avg-Anzeige ... ?
Zeige MMA aktuell
Zeige MMA Monat
Zeige MMA alles
Zeige --A aktuell
Zeige --A Monat
Zeige --A alles
Keine MMA-Anzeige
MMA:
Average (ber die Originaldaten)
MMA-Basis: 03.03.2015 - 31.03.2015
Quicknavigation für Darstellung... ?
Tage:      1T, 2T, 3T, 5T -1T -2T -3T -5T +1T +2T +3T +5T
Wochen: 1W, 2W, 3W -1W -2W -3W +1W +2W +3W
Monate: 1M, 3M, 6M -1M -3M -6M +1M +3M +6M
Jahre:    1J, 3J, 5J, 10J -1J -3J -5J -10J +1J +3J +5J +10J
Nutze für die Darstellung ... ?
Originaldaten oder Mittelwerte auf ...
Stundenbasis Tagesbasis Wochenbasis
Monatsbasis Jahresbasis      Datenbasis: Original-Daten
Darstellen als:
Statistik (Auto) Statistik J:M      Darstellung:
Zur Graphik,    zurück zur Übersicht aller Sensoren.
 
Tabellarische Datenbersicht: ?
 
Sensor: Nr:Datum:Temp:Feuchte:
Aussen-T/F 1 03-03-2015 00:06:17 1.6 C 91 %
2 03-03-2015 00:18:17 1.7 C 90 %
3 03-03-2015 00:30:17 2 C 88 %
4 03-03-2015 00:42:17 2.1 C 86 %
5 03-03-2015 00:54:17 2.1 C 84 %
6 03-03-2015 01:06:17 2.4 C 82 %
7 03-03-2015 01:18:17 2.2 C 79 %
8 03-03-2015 01:30:17 2 C 79 %
9 03-03-2015 01:42:17 2.7 C 77 %
10 03-03-2015 01:54:17 2.6 C 73 %
11 03-03-2015 02:06:17 2.7 C 73 %
12 03-03-2015 02:18:17 2.5 C 73 %
13 03-03-2015 02:30:17 2.1 C 73 %
14 03-03-2015 02:42:17 1.7 C 77 %
15 03-03-2015 02:54:17 1.8 C 78 %
16 03-03-2015 03:06:18 2 C 76 %
17 03-03-2015 03:18:18 1.8 C 77 %
18 03-03-2015 03:30:18 1.5 C 78 %
19 03-03-2015 03:42:18 1.4 C 79 %
20 03-03-2015 03:54:18 1.1 C 80 %
21 03-03-2015 04:06:18 0.9 C 83 %
22 03-03-2015 04:18:18 1.3 C 84 %
23 03-03-2015 04:30:18 1.4 C 83 %
24 03-03-2015 04:42:18 1.4 C 82 %
25 03-03-2015 04:54:18 1.3 C 82 %
Sensor: Nr:Datum:Temp:Feuchte:
Aussen-T/F 26 03-03-2015 05:06:18 1.6 C 82 %
27 03-03-2015 05:18:18 1.9 C 81 %
28 03-03-2015 05:30:18 2.2 C 78 %
29 03-03-2015 05:42:18 2.2 C 78 %
30 03-03-2015 05:54:18 2.4 C 76 %
31 03-03-2015 06:06:18 2.3 C 76 %
32 03-03-2015 06:18:18 2.2 C 75 %
33 03-03-2015 06:30:18 2 C 76 %
34 03-03-2015 06:42:18 2 C 76 %
35 03-03-2015 06:54:18 1.8 C 77 %
36 03-03-2015 07:06:18 1.8 C 77 %
37 03-03-2015 07:18:16 2 C 77 %
38 03-03-2015 07:30:16 2.2 C 76 %
39 03-03-2015 07:42:16 2.1 C 75 %
40 03-03-2015 07:54:16 2.3 C 75 %
41 03-03-2015 08:06:17 2 C 75 %
42 03-03-2015 08:18:17 2 C 76 %
43 03-03-2015 08:30:17 1.9 C 78 %
44 03-03-2015 08:42:17 1.9 C 79 %
45 03-03-2015 08:54:16 2 C 79 %
46 03-03-2015 09:06:16 2.4 C 78 %
47 03-03-2015 09:18:17 2.6 C 77 %
48 03-03-2015 09:30:17 3 C 74 %
49 03-03-2015 09:42:17 3 C 74 %
50 03-03-2015 09:54:17 3.9 C 72 %
Sensor: Nr:Datum:Temp:Feuchte:
Aussen-T/F 51 03-03-2015 10:06:17 4.3 C 67 %
52 03-03-2015 10:18:16 4.8 C 65 %
53 03-03-2015 10:30:16 5.8 C 62 %
54 03-03-2015 10:42:16 5.7 C 60 %
55 03-03-2015 10:54:17 6.5 C 59 %
56 03-03-2015 11:06:17 7 C 57 %
57 03-03-2015 11:18:17 6.8 C 54 %
58 03-03-2015 11:30:16 6.8 C 53 %
59 03-03-2015 11:42:16 7.1 C 52 %
60 03-03-2015 11:54:17 7.5 C 51 %
61 03-03-2015 12:06:17 8 C 50 %
62 03-03-2015 12:18:16 8 C 49 %
63 03-03-2015 12:30:17 8.1 C 49 %
64 03-03-2015 12:42:17 8.1 C 49 %
65 03-03-2015 12:54:16 8.7 C 47 %
66 03-03-2015 13:06:17 9 C 46 %
67 03-03-2015 13:18:16 8.5 C 47 %
68 03-03-2015 13:30:17 8.7 C 46 %
69 03-03-2015 13:42:17 9.1 C 45 %
70 03-03-2015 13:54:17 9.2 C 45 %
71 03-03-2015 14:06:16 10.1 C 42 %
72 03-03-2015 14:18:16 10.5 C 42 %
73 03-03-2015 14:30:17 10.5 C 42 %
74 03-03-2015 14:42:17 10.2 C 43 %
75 03-03-2015 14:54:16 9.7 C 43 %
Sensor: Nr:Datum:Temp:Feuchte:
Aussen-T/F 76 03-03-2015 15:06:17 10.3 C 42 %
77 03-03-2015 15:18:16 10.1 C 43 %
78 03-03-2015 15:30:16 10.2 C 42 %
79 03-03-2015 15:42:16 10.2 C 42 %
80 03-03-2015 15:54:16 10.3 C 42 %
81 03-03-2015 16:06:16 10.1 C 41 %
82 03-03-2015 16:18:17 10.7 C 41 %
83 03-03-2015 16:30:16 10 C 42 %
84 03-03-2015 16:42:16 9.5 C 44 %
85 03-03-2015 16:54:16 9.1 C 46 %
86 03-03-2015 17:06:16 9.1 C 47 %
87 03-03-2015 17:18:16 8.9 C 49 %
88 03-03-2015 17:30:16 8.6 C 49 %
89 03-03-2015 17:42:16 8.5 C 49 %
90 03-03-2015 17:54:16 8.4 C 48 %
91 03-03-2015 18:06:16 8.5 C 47 %
92 03-03-2015 18:18:16 8.3 C 50 %
93 03-03-2015 18:30:16 7.8 C 54 %
94 03-03-2015 18:42:16 6.4 C 69 %
95 03-03-2015 18:54:16 6.2 C 74 %
96 03-03-2015 19:06:16 5.8 C 78 %
97 03-03-2015 19:18:15 5.3 C 80 %
98 03-03-2015 19:30:16 5.1 C 82 %
99 03-03-2015 19:42:16 5 C 84 %
100 03-03-2015 19:54:16 4.9 C 86 %
Sensor: Nr:Datum:Temp:Feuchte:
Aussen-T/F 101 03-03-2015 20:06:16 4.9 C 87 %
102 03-03-2015 20:18:16 4.9 C 88 %
103 03-03-2015 20:30:16 5 C 86 %
104 03-03-2015 20:42:16 5 C 85 %
105 03-03-2015 20:54:16 4.9 C 86 %
106 03-03-2015 21:06:16 5.1 C 84 %
107 03-03-2015 21:18:16 5.1 C 84 %
108 03-03-2015 21:30:16 5.2 C 83 %
109 03-03-2015 21:42:16 5.2 C 80 %
110 03-03-2015 21:54:16 5.1 C 79 %
111 03-03-2015 22:06:16 5.1 C 79 %
112 03-03-2015 22:18:16 5 C 79 %
113 03-03-2015 22:30:16 4.1 C 79 %
114 03-03-2015 22:42:16 3.9 C 81 %
115 03-03-2015 22:54:16 3.5 C 83 %
116 03-03-2015 23:06:15 3.4 C 85 %
117 03-03-2015 23:18:15 3.5 C 85 %
118 03-03-2015 23:30:16 3.5 C 85 %
119 03-03-2015 23:42:16 3.3 C 84 %
120 03-03-2015 23:54:15 3 C 85 %
121 04-03-2015 00:06:16 3.1 C 86 %
122 04-03-2015 00:18:16 3.2 C 86 %
123 04-03-2015 00:30:15 3.3 C 86 %
124 04-03-2015 00:42:15 3.3 C 87 %
125 04-03-2015 00:54:15 3.2 C 86 %
Sensor: Nr:Datum:Temp:Feuchte:
Aussen-T/F 126 04-03-2015 01:06:16 3.6 C 85 %
127 04-03-2015 01:18:15 3.4 C 83 %
128 04-03-2015 01:30:16 3.2 C 82 %
129 04-03-2015 01:42:16 3.2 C 83 %
130 04-03-2015 01:54:16 3.1 C 84 %
131 04-03-2015 02:06:15 3.3 C 84 %
132 04-03-2015 02:18:16 3.1 C 83 %
133 04-03-2015 02:30:15 2.8 C 84 %
134 04-03-2015 02:42:15 2.7 C 86 %
135 04-03-2015 02:54:17 2.8 C 87 %
136 04-03-2015 03:06:17 2.8 C 87 %
137 04-03-2015 03:18:17 2.6 C 87 %
138 04-03-2015 03:30:17 2.6 C 88 %
139 04-03-2015 03:42:17 2.6 C 89 %
140 04-03-2015 03:54:17 2.4 C 90 %
141 04-03-2015 04:06:17 2.1 C 91 %
142 04-03-2015 04:18:17 1.9 C 92 %
143 04-03-2015 04:30:17 1.7 C 92 %
144 04-03-2015 04:42:17 1.5 C 93 %
145 04-03-2015 04:54:17 1.4 C 93 %
146 04-03-2015 05:06:17 1.5 C 93 %
147 04-03-2015 05:18:17 1.1 C 93 %
148 04-03-2015 05:30:17 1 C 93 %
149 04-03-2015 05:42:17 0.8 C 94 %
150 04-03-2015 05:54:17 0.8 C 94 %
Sensor: Nr:Datum:Temp:Feuchte:
Aussen-T/F 151 04-03-2015 06:06:17 0.9 C 95 %
152 04-03-2015 06:18:17 1.1 C 94 %
153 04-03-2015 06:30:17 1 C 95 %
154 04-03-2015 06:42:17 1.2 C 95 %
155 04-03-2015 06:54:17 0.8 C 95 %
156 04-03-2015 07:06:17 0.6 C 95 %
157 04-03-2015 07:18:17 1.1 C 95 %
158 04-03-2015 07:30:17 1.2 C 95 %
159 04-03-2015 07:42:17 1.1 C 95 %
160 04-03-2015 07:54:17 1.2 C 95 %
161 04-03-2015 08:06:17 1.1 C 95 %
162 04-03-2015 08:18:17 1.4 C 95 %
163 04-03-2015 08:30:17 1.9 C 94 %
164 04-03-2015 08:42:17 2.5 C 92 %
165 04-03-2015 08:54:17 2.6 C 88 %
166 04-03-2015 09:06:17 2.8 C 84 %
167 04-03-2015 09:18:17 2.9 C 80 %
168 04-03-2015 09:30:17 3 C 76 %
169 04-03-2015 09:42:17 3.1 C 75 %
170 04-03-2015 09:54:17 3.1 C 74 %
171 04-03-2015 10:06:17 3.4 C 73 %
172 04-03-2015 10:18:17 3.6 C 72 %
173 04-03-2015 10:30:17 4.1 C 70 %
174 04-03-2015 10:42:17 4.1 C 69 %
175 04-03-2015 10:54:17 4.9 C 67 %
Sensor: Nr:Datum:Temp:Feuchte:
Aussen-T/F 176 04-03-2015 11:06:17 4.9 C 66 %
177 04-03-2015 11:18:17 5.4 C 66 %
178 04-03-2015 11:30:17 5.6 C 64 %
179 04-03-2015 11:42:17 5.5 C 62 %
180 04-03-2015 11:54:17 5.4 C 61 %
181 04-03-2015 12:06:17 5.5 C 61 %
182 04-03-2015 12:18:17 5.8 C 59 %
183 04-03-2015 12:30:17 6.1 C 58 %
184 04-03-2015 12:42:17 6.3 C 57 %
185 04-03-2015 12:54:17 6.4 C 56 %
186 04-03-2015 13:06:17 6.7 C 56 %
187 04-03-2015 13:18:17 7.2 C 53 %
188 04-03-2015 13:30:17 7.7 C 50 %
189 04-03-2015 13:42:17 7.4 C 49 %
190 04-03-2015 13:54:17 7.4 C 49 %
191 04-03-2015 14:06:17 7.4 C 50 %
192 04-03-2015 14:18:17 7.4 C 49 %
193 04-03-2015 14:30:17 7.6 C 49 %
194 04-03-2015 14:42:17 7.7 C 48 %
195 04-03-2015 14:54:17 7.7 C 47 %
196 04-03-2015 15:06:17 7.4 C 48 %
197 04-03-2015 15:18:16 7.3 C 48 %
198 04-03-2015 15:30:17 7.2 C 47 %
199 04-03-2015 15:42:17 7.3 C 47 %
200 04-03-2015 15:54:17 7 C 50 %
Sensor: Nr:Datum:Temp:Feuchte:
Aussen-T/F 201 04-03-2015 16:06:17 7.4 C 49 %
202 04-03-2015 16:18:17 7.7 C 48 %
203 04-03-2015 16:30:17 6.9 C 50 %
204 04-03-2015 16:42:17 7.4 C 50 %
205 04-03-2015 16:54:17 7.2 C 49 %
206 04-03-2015 17:06:17 6.8 C 51 %
207 04-03-2015 17:18:17 6.5 C 53 %
208 04-03-2015 17:30:17 6 C 57 %
209 04-03-2015 17:42:17 4.4 C 66 %
210 04-03-2015 17:54:17 4.6 C 75 %
211 04-03-2015 18:06:17 4.3 C 78 %
212 04-03-2015 18:18:17 4.1 C 80 %
213 04-03-2015 18:30:18 4.2 C 81 %
214 04-03-2015 18:42:18 4.2 C 81 %
215 04-03-2015 18:54:17 3.9 C 81 %
216 04-03-2015 19:06:17 3.5 C 81 %
217 04-03-2015 19:18:17 3.4 C 82 %
218 04-03-2015 19:30:17 3.3 C 83 %
219 04-03-2015 19:42:18 2.9 C 84 %
220 04-03-2015 19:54:17 3.2 C 83 %
221 04-03-2015 20:06:17 3.1 C 83 %
222 04-03-2015 20:18:17 3.1 C 83 %
223 04-03-2015 20:30:17 3.1 C 82 %
224 04-03-2015 20:42:17 3.3 C 81 %
225 04-03-2015 20:54:17 3.7 C 79 %
Sensor: Nr:Datum:Temp:Feuchte:
Aussen-T/F 226 04-03-2015 21:06:17 4 C 74 %
227 04-03-2015 21:18:16 4.1 C 72 %
228 04-03-2015 21:30:17 4.1 C 70 %
229 04-03-2015 21:42:17 4.3 C 70 %
230 04-03-2015 21:54:17 4.3 C 69 %
231 04-03-2015 22:06:17 4.3 C 69 %
232 04-03-2015 22:18:17 4.3 C 72 %
233 04-03-2015 22:30:17 3.8 C 77 %
234 04-03-2015 22:42:17 3.6 C 79 %
235 04-03-2015 22:54:17 3.8 C 81 %
236 04-03-2015 23:06:17 3.8 C 81 %
237 04-03-2015 23:18:17 4.1 C 80 %
238 04-03-2015 23:30:17 4.2 C 79 %
239 04-03-2015 23:42:17 4.3 C 78 %
240 04-03-2015 23:54:17 4.3 C 77 %
241 05-03-2015 00:06:17 4.3 C 76 %
242 05-03-2015 00:18:17 4.2 C 75 %
243 05-03-2015 00:30:17 4.3 C 75 %
244 05-03-2015 00:42:17 4.3 C 74 %
245 05-03-2015 00:54:18 4 C 74 %
246 05-03-2015 01:06:17 3.7 C 76 %
247 05-03-2015 01:18:17 3.5 C 77 %
248 05-03-2015 01:30:17 3.4 C 77 %
249 05-03-2015 01:42:17 3.9 C 77 %
250 05-03-2015 01:54:17 3.9 C 76 %
Sensor: Nr:Datum:Temp:Feuchte:
Aussen-T/F 251 05-03-2015 02:06:17 4 C 76 %
252 05-03-2015 02:18:17 4 C 76 %
253 05-03-2015 02:30:17 3.7 C 77 %
254 05-03-2015 02:42:17 3.6 C 77 %
255 05-03-2015 02:54:17 3.6 C 77 %
256 05-03-2015 03:06:17 3.4 C 77 %
257 05-03-2015 03:18:17 3.4 C 78 %
258 05-03-2015 03:30:17 3 C 78 %
259 05-03-2015 03:42:17 3.1 C 79 %
260 05-03-2015 03:54:17 3.1 C 79 %
261 05-03-2015 04:06:17 2.9 C 80 %
262 05-03-2015 04:18:17 2.7 C 80 %
263 05-03-2015 04:30:17 2.5 C 80 %
264 05-03-2015 04:42:17 2.6 C 81 %
265 05-03-2015 04:54:17 2.9 C 82 %
266 05-03-2015 05:06:17 2.7 C 82 %
267 05-03-2015 05:18:17 3.2 C 81 %
268 05-03-2015 05:30:18 3.2 C 79 %
269 05-03-2015 05:42:18 3.1 C 79 %
270 05-03-2015 05:54:17 2.9 C 81 %
271 05-03-2015 06:06:17 2.7 C 82 %
272 05-03-2015 06:18:17 2.7 C 82 %
273 05-03-2015 06:30:17 2.5 C 83 %
274 05-03-2015 06:42:17 2.4 C 83 %
275 05-03-2015 06:54:17 2.3 C 84 %
Sensor: Nr:Datum:Temp:Feuchte:
Aussen-T/F 276 05-03-2015 07:06:18 2 C 84 %
277 05-03-2015 07:18:17 1.4 C 84 %
278 05-03-2015 07:30:17 2.1 C 85 %
279 05-03-2015 07:42:17 2 C 86 %
280 05-03-2015 07:54:17 2.2 C 87 %
281 05-03-2015 08:06:17 2.3 C 87 %
282 05-03-2015 08:18:17 2.4 C 87 %
283 05-03-2015 08:30:17 2.8 C 87 %
284 05-03-2015 08:42:17 2.9 C 87 %
285 05-03-2015 08:54:17 2.8 C 86 %
286 05-03-2015 09:06:17 3.3 C 85 %
287 05-03-2015 09:18:17 3.9 C 83 %
288 05-03-2015 09:30:17 4.4 C 79 %
289 05-03-2015 09:42:17 4.4 C 75 %
290 05-03-2015 09:54:17 4.5 C 74 %
291 05-03-2015 10:06:17 4.8 C 73 %
292 05-03-2015 10:18:17 5 C 71 %
293 05-03-2015 10:30:17 5 C 70 %
294 05-03-2015 10:42:17 5.2 C 69 %
295 05-03-2015 10:54:17 5.4 C 69 %
296 05-03-2015 11:06:17 5.6 C 68 %
297 05-03-2015 11:18:17 5.6 C 66 %
298 05-03-2015 11:30:17 5.6 C 67 %
299 05-03-2015 11:42:17 5.6 C 66 %
300 05-03-2015 11:54:17 6 C 65 %
Sensor: Nr:Datum:Temp:Feuchte:
Aussen-T/F 301 05-03-2015 12:06:17 6.4 C 63 %
302 05-03-2015 12:18:17 6.3 C 63 %
303 05-03-2015 12:30:17 6.6 C 63 %
304 05-03-2015 12:42:17 6.7 C 60 %
305 05-03-2015 12:54:16 6.7 C 60 %
306 05-03-2015 13:06:17 7.3 C 57 %
307 05-03-2015 13:18:17 7.3 C 57 %
308 05-03-2015 13:30:17 7.6 C 57 %
309 05-03-2015 13:42:17 7.6 C 56 %
310 05-03-2015 13:54:17 7.8 C 55 %
311 05-03-2015 14:06:17 7.4 C 54 %
312 05-03-2015 14:18:17 7.3 C 55 %
313 05-03-2015 14:30:17 7.5 C 53 %
314 05-03-2015 14:42:17 7.3 C 53 %
315 05-03-2015 14:54:17 7.7 C 54 %
316 05-03-2015 15:06:17 7.9 C 50 %
317 05-03-2015 15:18:17 8 C 50 %
318 05-03-2015 15:30:17 8.1 C 50 %
319 05-03-2015 15:42:17 8.1 C 49 %
320 05-03-2015 15:54:17 8.5 C 49 %
321 05-03-2015 16:06:17 8.8 C 48 %
322 05-03-2015 16:18:17 8.1 C 48 %
323 05-03-2015 16:30:17 7.7 C 50 %
324 05-03-2015 16:42:17 8.2 C 50 %
325 05-03-2015 16:54:17 9.2 C 47 %
Sensor: Nr:Datum:Temp:Feuchte:
Aussen-T/F 326 05-03-2015 17:06:17 8.1 C 48 %
327 05-03-2015 17:18:17 7.3 C 51 %
328 05-03-2015 17:30:17 7.1 C 52 %
329 05-03-2015 17:42:17 6.9 C 54 %
330 05-03-2015 17:54:17 6.5 C 55 %
331 05-03-2015 18:06:17 6.1 C 60 %
332 05-03-2015 18:18:17 5.9 C 64 %
333 05-03-2015 18:30:17 5.6 C 66 %
334 05-03-2015 18:42:17 5.5 C 68 %
335 05-03-2015 18:54:17 5.3 C 69 %
336 05-03-2015 19:06:17 5.3 C 69 %
337 05-03-2015 19:18:17 5.3 C 69 %
338 05-03-2015 19:30:17 5.2 C 70 %
339 05-03-2015 19:42:17 5.1 C 71 %
340 05-03-2015 19:54:17 5.1 C 72 %
341 05-03-2015 20:06:17 5.2 C 73 %
342 05-03-2015 20:18:17 5.1 C 73 %
343 05-03-2015 20:30:17 4.8 C 75 %
344 05-03-2015 20:42:17 4.8 C 76 %
345 05-03-2015 20:54:17 4.7 C 77 %
346 05-03-2015 21:06:17 4.4 C 77 %
347 05-03-2015 21:18:17 4 C 77 %
348 05-03-2015 21:30:17 4.1 C 78 %
349 05-03-2015 21:42:17 4.1 C 78 %
350 05-03-2015 21:54:17 4 C 78 %
Sensor: Nr:Datum:Temp:Feuchte:
Aussen-T/F 351 05-03-2015 22:06:17 3.6 C 79 %
352 05-03-2015 22:18:17 3.4 C 79 %
353 05-03-2015 22:30:17 3.1 C 79 %
354 05-03-2015 22:42:17 2.8 C 81 %
355 05-03-2015 22:54:17 2.8 C 82 %
356 05-03-2015 23:06:17 2.5 C 83 %
357 05-03-2015 23:18:17 2.2 C 84 %
358 05-03-2015 23:30:17 1.9 C 85 %
359 05-03-2015 23:42:17 1.9 C 86 %
360 05-03-2015 23:54:17 1.8 C 86 %
361 06-03-2015 00:06:17 1.8 C 87 %
362 06-03-2015 00:18:17 1.3 C 86 %
363 06-03-2015 00:30:17 1.2 C 86 %
364 06-03-2015 00:42:17 0.9 C 87 %
365 06-03-2015 00:54:17 0.8 C 88 %
366 06-03-2015 01:06:17 1 C 88 %
367 06-03-2015 01:18:17 0.7 C 89 %
368 06-03-2015 01:30:17 0.9 C 89 %
369 06-03-2015 01:42:17 0.7 C 89 %
370 06-03-2015 01:54:17 0.5 C 89 %
371 06-03-2015 02:06:17 0.7 C 89 %
372 06-03-2015 02:18:17 0.3 C 90 %
373 06-03-2015 02:30:17 0.2 C 90 %
374 06-03-2015 02:42:17 0.3 C 90 %
375 06-03-2015 02:54:17 0.3 C 90 %
Sensor: Nr:Datum:Temp:Feuchte:
Aussen-T/F 376 06-03-2015 03:06:17 0.5 C 91 %
377 06-03-2015 03:18:17 1.1 C 91 %
378 06-03-2015 03:30:17 1.1 C 91 %
379 06-03-2015 03:42:17 0.8 C 91 %
380 06-03-2015 03:54:17 0.3 C 91 %
381 06-03-2015 04:06:17 -0.1 C 90 %
382 06-03-2015 04:18:17 -0.1 C 91 %
383 06-03-2015 04:30:17 0 C 91 %
384 06-03-2015 04:42:17 -0.4 C 91 %
385 06-03-2015 04:54:17 -0.4 C 91 %
386 06-03-2015 05:06:17 -0.6 C 92 %
387 06-03-2015 05:18:17 -0.6 C 92 %
388 06-03-2015 05:30:17 -0.7 C 92 %
389 06-03-2015 05:42:17 -0.6 C 92 %
390 06-03-2015 05:54:17 -0.7 C 93 %
391 06-03-2015 06:06:17 -1 C 93 %
392 06-03-2015 06:18:17 -1.1 C 93 %
393 06-03-2015 06:30:17 -0.8 C 93 %
394 06-03-2015 06:42:17 -1 C 93 %
395 06-03-2015 06:54:17 -1.2 C 93 %
396 06-03-2015 07:06:17 -1.1 C 93 %
397 06-03-2015 07:18:17 -0.9 C 94 %
398 06-03-2015 07:30:17 -0.7 C 94 %
399 06-03-2015 07:42:17 -0.7 C 94 %
400 06-03-2015 07:54:17 -0.4 C 94 %
Sensor: Nr:Datum:Temp:Feuchte:
Aussen-T/F 401 06-03-2015 08:06:17 -0.6 C 94 %
402 06-03-2015 08:18:17 -0.4 C 94 %
403 06-03-2015 08:30:17 -0.3 C 94 %
404 06-03-2015 08:42:17 -0.1 C 94 %
405 06-03-2015 08:54:17 0 C 94 %
406 06-03-2015 09:06:17 0.4 C 95 %
407 06-03-2015 09:18:17 0.7 C 95 %
408 06-03-2015 09:30:17 1.1 C 94 %
409 06-03-2015 09:42:17 1.5 C 94 %
410 06-03-2015 09:54:17 1.7 C 93 %
411 06-03-2015 10:06:17 1.9 C 93 %
412 06-03-2015 10:18:17 2.6 C 91 %
413 06-03-2015 10:30:17 3.9 C 89 %
414 06-03-2015 10:42:17 5.3 C 81 %
415 06-03-2015 10:54:17 5.6 C 72 %
416 06-03-2015 11:06:17 5.9 C 68 %
417 06-03-2015 11:18:17 6.4 C 66 %
418 06-03-2015 11:30:17 6.9 C 64 %
419 06-03-2015 11:42:17 7.5 C 61 %
420 06-03-2015 11:54:17 8.2 C 56 %
421 06-03-2015 12:06:17 8.6 C 55 %
422 06-03-2015 12:18:17 8.9 C 54 %
423 06-03-2015 12:30:17 9 C 49 %
424 06-03-2015 12:42:17 8.8 C 47 %
425 06-03-2015 12:54:17 8.6 C 48 %
Sensor: Nr:Datum:Temp:Feuchte:
Aussen-T/F 426 06-03-2015 13:06:17 8.7 C 48 %
427 06-03-2015 13:18:17 8.8 C 49 %
428 06-03-2015 13:30:17 8.6 C 53 %
429 06-03-2015 13:42:17 8.8 C 51 %
430 06-03-2015 13:54:17 9 C 50 %
431 06-03-2015 14:06:17 9.1 C 49 %
432 06-03-2015 14:18:17 9.3 C 49 %
433 06-03-2015 14:30:17 9.2 C 47 %
434 06-03-2015 14:42:17 9.6 C 46 %
435 06-03-2015 14:54:17 9.7 C 46 %
436 06-03-2015 15:06:17 9.8 C 46 %
437 06-03-2015 15:18:17 9.6 C 46 %
438 06-03-2015 15:30:18 9.5 C 45 %
439 06-03-2015 15:42:18 9.3 C 47 %
440 06-03-2015 15:54:17 9.4 C 47 %
441 06-03-2015 16:06:17 9.5 C 45 %
442 06-03-2015 16:18:17 9.4 C 45 %
443 06-03-2015 16:30:17 9.5 C 46 %
444 06-03-2015 16:42:17 9.7 C 47 %
445 06-03-2015 16:54:17 9.6 C 45 %
446 06-03-2015 17:06:17 9.5 C 48 %
447 06-03-2015 17:18:17 9.7 C 49 %
448 06-03-2015 17:30:17 10.1 C 47 %
449 06-03-2015 17:42:17 8.4 C 54 %
450 06-03-2015 17:54:17 8 C 58 %
Sensor: Nr:Datum:Temp:Feuchte:
Aussen-T/F 451 06-03-2015 18:06:17 7.5 C 60 %
452 06-03-2015 18:18:17 6.7 C 64 %
453 06-03-2015 18:30:17 5.9 C 67 %
454 06-03-2015 18:42:17 5.6 C 69 %
455 06-03-2015 18:54:17 5.2 C 69 %
456 06-03-2015 19:06:17 4.8 C 71 %
457 06-03-2015 19:18:17 4.9 C 71 %
458 06-03-2015 19:30:17 4.6 C 72 %
459 06-03-2015 19:42:17 4.9 C 73 %
460 06-03-2015 19:54:17 4.8 C 72 %
461 06-03-2015 20:06:17 4.5 C 71 %
462 06-03-2015 20:18:17 4.2 C 72 %
463 06-03-2015 20:30:17 4 C 73 %
464 06-03-2015 20:42:17 3.6 C 75 %
465 06-03-2015 20:54:17 3.4 C 77 %
466 06-03-2015 21:06:17 3.3 C 78 %
467 06-03-2015 21:18:17 3.3 C 78 %
468 06-03-2015 21:30:17 2.7 C 78 %
469 06-03-2015 21:42:17 2.3 C 79 %
470 06-03-2015 21:54:17 2 C 80 %
471 06-03-2015 22:06:17 1.8 C 81 %
472 06-03-2015 22:18:17 1.6 C 82 %
473 06-03-2015 22:30:17 1.3 C 83 %
474 06-03-2015 22:42:17 1.2 C 84 %
475 06-03-2015 22:54:17 1.2 C 84 %
Sensor: Nr:Datum:Temp:Feuchte:
Aussen-T/F 476 06-03-2015 23:06:17 0.9 C 85 %
477 06-03-2015 23:18:17 1 C 85 %
478 06-03-2015 23:30:17 0.7 C 86 %
479 06-03-2015 23:42:17 0.6 C 86 %
480 06-03-2015 23:54:17 0.5 C 87 %
481 07-03-2015 00:06:17 0.5 C 87 %
482 07-03-2015 00:18:17 0.6 C 88 %
483 07-03-2015 00:30:17 0.4 C 87 %
484 07-03-2015 00:42:17 0.2 C 87 %
485 07-03-2015 00:54:17 0.2 C 88 %
486 07-03-2015 01:06:17 0.1 C 88 %
487 07-03-2015 01:18:17 0 C 89 %
488 07-03-2015 01:30:17 0 C 89 %
489 07-03-2015 01:42:17 -0.3 C 89 %
490 07-03-2015 01:54:17 -0.3 C 89 %
491 07-03-2015 02:06:17 -0.3 C 89 %
492 07-03-2015 02:18:17 -0.3 C 90 %
493 07-03-2015 02:30:17 -0.3 C 90 %
494 07-03-2015 02:42:17 -0.4 C 91 %
495 07-03-2015 02:54:17 -0.6 C 91 %
496 07-03-2015 03:06:17 -0.6 C 91 %
497 07-03-2015 03:18:17 -0.3 C 91 %
498 07-03-2015 03:30:17 -0.4 C 91 %
499 07-03-2015 03:42:17 -0.7 C 91 %
500 07-03-2015 03:54:17 -0.9 C 91 %
Sensor: Nr:Datum:Temp:Feuchte:
Aussen-T/F 501 07-03-2015 04:06:17 -0.9 C 91 %
502 07-03-2015 04:18:17 -0.9 C 91 %
503 07-03-2015 04:30:17 -0.9 C 92 %
504 07-03-2015 04:42:17 -0.9 C 92 %
505 07-03-2015 04:54:17 -0.9 C 92 %
506 07-03-2015 05:06:17 -1.2 C 92 %
507 07-03-2015 05:18:17 -1.3 C 92 %
508 07-03-2015 05:30:17 -1.1 C 92 %
509 07-03-2015 05:42:17 -1.3 C 92 %
510 07-03-2015 05:54:17 -1.3 C 92 %
511 07-03-2015 06:06:17 -1.1 C 93 %
512 07-03-2015 06:18:17 -0.8 C 93 %
513 07-03-2015 06:30:17 -1.1 C 93 %
514 07-03-2015 06:42:17 -0.9 C 93 %
515 07-03-2015 06:54:17 -0.9 C 93 %
516 07-03-2015 07:06:17 -1.1 C 93 %
517 07-03-2015 07:18:17 -0.9 C 93 %
518 07-03-2015 07:30:17 -0.9 C 93 %
519 07-03-2015 07:42:17 -0.7 C 93 %
520 07-03-2015 07:54:17 -0.5 C 94 %
521 07-03-2015 08:06:17 -0.1 C 94 %
522 07-03-2015 08:18:17 0.2 C 94 %
523 07-03-2015 08:30:17 0.5 C 94 %
524 07-03-2015 08:42:17 0.7 C 94 %
525 07-03-2015 08:54:17 1 C 93 %
Sensor: Nr:Datum:Temp:Feuchte:
Aussen-T/F 526 07-03-2015 09:06:17 1.3 C 92 %
527 07-03-2015 09:18:17 1.8 C 91 %
528 07-03-2015 09:30:17 2.1 C 89 %
529 07-03-2015 09:42:17 2.3 C 86 %
530 07-03-2015 09:54:17 2.5 C 84 %
531 07-03-2015 10:06:17 2.7 C 81 %
532 07-03-2015 10:18:17 3.4 C 79 %
533 07-03-2015 10:30:17 4.2 C 75 %
534 07-03-2015 10:42:17 4.5 C 72 %
535 07-03-2015 10:54:17 4.6 C 69 %
536 07-03-2015 11:06:17 5.1 C 67 %
537 07-03-2015 11:18:17 5.2 C 67 %
538 07-03-2015 11:30:17 5.3 C 67 %
539 07-03-2015 11:42:18 5.7 C 66 %
540 07-03-2015 11:54:17 6.2 C 64 %
541 07-03-2015 12:06:17 6.9 C 64 %
542 07-03-2015 12:18:17 7.6 C 62 %
543 07-03-2015 12:30:17 8.1 C 59 %
544 07-03-2015 12:42:17 8.4 C 58 %
545 07-03-2015 12:54:17 8.9 C 57 %
546 07-03-2015 13:06:17 9.2 C 54 %
547 07-03-2015 13:18:17 9.6 C 51 %
548 07-03-2015 13:30:17 10.1 C 50 %
549 07-03-2015 13:42:17 10.4 C 48 %
550 07-03-2015 13:54:17 10.7 C 45 %
Sensor: Nr:Datum:Temp:Feuchte:
Aussen-T/F 551 07-03-2015 14:06:17 11.2 C 43 %
552 07-03-2015 14:18:17 12 C 39 %
553 07-03-2015 14:30:17 12.7 C 39 %
554 07-03-2015 14:42:17 12.8 C 40 %
555 07-03-2015 14:54:17 12.8 C 41 %
556 07-03-2015 15:06:17 12.9 C 39 %
557 07-03-2015 15:18:17 13 C 41 %
558 07-03-2015 15:30:17 12.9 C 40 %
559 07-03-2015 15:42:17 12.7 C 41 %
560 07-03-2015 15:54:17 12.7 C 40 %
561 07-03-2015 16:06:17 12.2 C 41 %
562 07-03-2015 16:18:17 12.1 C 43 %
563 07-03-2015 16:30:17 11.9 C 43 %
564 07-03-2015 16:42:17 11.9 C 41 %
565 07-03-2015 16:54:17 11.7 C 43 %
566 07-03-2015 17:06:17 11.4 C 43 %
567 07-03-2015 17:18:17 10.8 C 45 %
568 07-03-2015 17:30:17 10.5 C 46 %
569 07-03-2015 17:42:17 10.5 C 46 %
570 07-03-2015 17:54:17 11.3 C 46 %
571 07-03-2015 18:06:17 10.8 C 46 %
572 07-03-2015 18:18:17 9.5 C 49 %
573 07-03-2015 18:30:17 8.8 C 52 %
574 07-03-2015 18:42:17 8.7 C 52 %
575 07-03-2015 18:54:17 8.5 C 52 %
Sensor: Nr:Datum:Temp:Feuchte:
Aussen-T/F 576 07-03-2015 19:06:17 8.2 C 53 %
577 07-03-2015 19:18:17 8.1 C 54 %
578 07-03-2015 19:30:17 7.8 C 55 %
579 07-03-2015 19:42:17 7.3 C 57 %
580 07-03-2015 19:54:17 7 C 58 %
581 07-03-2015 20:06:17 6.6 C 61 %
582 07-03-2015 20:18:17 5.6 C 65 %
583 07-03-2015 20:30:17 5.3 C 67 %
584 07-03-2015 20:42:18 4.9 C 70 %
585 07-03-2015 20:54:17 4.7 C 72 %
586 07-03-2015 21:06:17 4.4 C 73 %
587 07-03-2015 21:18:17 4.3 C 74 %
588 07-03-2015 21:30:17 4.2 C 76 %
589 07-03-2015 21:42:17 4 C 76 %
590 07-03-2015 21:54:17 3.8 C 77 %
591 07-03-2015 22:06:17 3.6 C 78 %
592 07-03-2015 22:18:17 3.1 C 77 %
593 07-03-2015 22:30:17 2.7 C 78 %
594 07-03-2015 22:42:17 2.6 C 79 %
595 07-03-2015 22:54:17 2.5 C 80 %
596 07-03-2015 23:06:17 2.5 C 80 %
597 07-03-2015 23:18:17 2.2 C 81 %
598 07-03-2015 23:30:17 2.3 C 82 %
599 07-03-2015 23:42:17 2.1 C 82 %
600 07-03-2015 23:54:17 1.8 C 83 %
Sensor: Nr:Datum:Temp:Feuchte:
Aussen-T/F 601 08-03-2015 00:06:17 1.7 C 84 %
602 08-03-2015 00:18:17 1.7 C 84 %
603 08-03-2015 00:30:17 1.5 C 85 %
604 08-03-2015 00:42:17 1.4 C 85 %
605 08-03-2015 00:54:17 1.6 C 86 %
606 08-03-2015 01:06:17 1.3 C 86 %
607 08-03-2015 01:18:17 1.3 C 87 %
608 08-03-2015 01:30:17 1 C 87 %
609 08-03-2015 01:42:17 1.1 C 87 %
610 08-03-2015 01:54:17 0.9 C 88 %
611 08-03-2015 02:06:17 1.2 C 88 %
612 08-03-2015 02:18:16 1.3 C 89 %
613 08-03-2015 02:30:17 1.3 C 89 %
614 08-03-2015 02:42:17 0.9 C 89 %
615 08-03-2015 02:54:17 0.7 C 89 %
616 08-03-2015 03:06:17 0.5 C 89 %
617 08-03-2015 03:18:17 0.5 C 89 %
618 08-03-2015 03:30:17 0.2 C 89 %
619 08-03-2015 03:42:17 0.1 C 89 %
620 08-03-2015 03:54:17 0 C 89 %
621 08-03-2015 04:06:17 -0.1 C 90 %
622 08-03-2015 04:18:17 -0.1 C 90 %
623 08-03-2015 04:30:17 -0.3 C 90 %
624 08-03-2015 04:42:17 -0.4 C 91 %
625 08-03-2015 04:54:17 -0.4 C 91 %
Sensor: Nr:Datum:Temp:Feuchte:
Aussen-T/F 626 08-03-2015 05:06:17 -0.3 C 92 %
627 08-03-2015 05:18:17 -0.6 C 91 %
628 08-03-2015 05:30:17 -0.6 C 91 %
629 08-03-2015 05:42:17 -0.9 C 91 %
630 08-03-2015 05:54:17 -0.6 C 92 %
631 08-03-2015 06:06:17 -0.8 C 92 %
632 08-03-2015 06:18:17 -0.9 C 92 %
633 08-03-2015 06:30:17 -0.8 C 92 %
634 08-03-2015 06:42:17 -0.9 C 93 %
635 08-03-2015 06:54:17 -0.9 C 93 %
636 08-03-2015 07:06:17 -1 C 93 %
637 08-03-2015 07:18:17 -1 C 93 %
638 08-03-2015 07:30:17 -0.9 C 93 %
639 08-03-2015 07:42:17 -0.9 C 93 %
640 08-03-2015 07:54:17 -0.9 C 93 %
641 08-03-2015 08:06:17 -0.7 C 93 %
642 08-03-2015 08:18:17 -0.6 C 94 %
643 08-03-2015 08:30:17 -0.6 C 94 %
644 08-03-2015 08:42:17 -0.4 C 94 %
645 08-03-2015 08:54:17 0 C 94 %
646 08-03-2015 09:06:17 0.1 C 94 %
647 08-03-2015 09:18:17 0.3 C 94 %
648 08-03-2015 09:30:17 0.5 C 94 %
649 08-03-2015 09:42:17 0.8 C 95 %
650 08-03-2015 09:54:17 1.3 C 94 %
Sensor: Nr:Datum:Temp:Feuchte:
Aussen-T/F 651 08-03-2015 10:06:16 1.5 C 94 %
652 08-03-2015 10:18:17 2.2 C 93 %
653 08-03-2015 10:30:17 3 C 92 %
654 08-03-2015 10:42:17 3.6 C 90 %
655 08-03-2015 10:54:17 4.2 C 87 %
656 08-03-2015 11:06:17 4.9 C 84 %
657 08-03-2015 11:18:17 5.6 C 80 %
658 08-03-2015 11:30:17 6.2 C 76 %
659 08-03-2015 11:42:18 6.9 C 76 %
660 08-03-2015 11:54:17 7.1 C 73 %
661 08-03-2015 12:06:17 7.7 C 68 %
662 08-03-2015 12:18:18 8.5 C 67 %
663 08-03-2015 12:30:17 9.2 C 64 %
664 08-03-2015 12:42:17 9.8 C 63 %
665 08-03-2015 12:54:17 10.2 C 61 %
666 08-03-2015 13:06:17 10.7 C 60 %
667 08-03-2015 13:18:17 11.1 C 59 %
668 08-03-2015 13:30:17 11.7 C 60 %
669 08-03-2015 13:42:17 12.3 C 50 %
670 08-03-2015 13:54:17 13.4 C 42 %
671 08-03-2015 14:06:17 13.6 C 49 %
672 08-03-2015 14:18:17 13.8 C 44 %
673 08-03-2015 14:30:17 14.1 C 44 %
674 08-03-2015 14:42:17 14.2 C 41 %
675 08-03-2015 14:54:17 14.5 C 42 %
Sensor: Nr:Datum:Temp:Feuchte:
Aussen-T/F 676 08-03-2015 15:06:18 14.4 C 45 %
677 08-03-2015 15:18:17 14.9 C 42 %
678 08-03-2015 15:30:17 15.1 C 39 %
679 08-03-2015 15:42:17 15 C 40 %
680 08-03-2015 15:54:17 15 C 41 %
681 08-03-2015 16:06:17 15.1 C 40 %
682 08-03-2015 16:18:17 15.3 C 40 %
683 08-03-2015 16:30:17 15.2 C 40 %
684 08-03-2015 16:42:17 14.9 C 44 %
685 08-03-2015 16:54:17 14.8 C 41 %
686 08-03-2015 17:06:17 14.4 C 42 %
687 08-03-2015 17:18:17 13.6 C 45 %
688 08-03-2015 17:30:17 13 C 45 %
689 08-03-2015 17:42:17 11.8 C 50 %
690 08-03-2015 17:54:17 11.3 C 51 %
691 08-03-2015 18:06:17 10.3 C 55 %
692 08-03-2015 18:18:17 9.6 C 58 %
693 08-03-2015 18:30:17 9.2 C 59 %
694 08-03-2015 18:42:17 8.9 C 62 %
695 08-03-2015 18:54:17 8.5 C 63 %
696 08-03-2015 19:06:17 8.3 C 63 %
697 08-03-2015 19:18:17 7.9 C 64 %
698 08-03-2015 19:30:17 7.5 C 65 %
699 08-03-2015 19:42:17 6.9 C 66 %
700 08-03-2015 19:54:17 6.6 C 67 %
Sensor: Nr:Datum:Temp:Feuchte:
Aussen-T/F 701 08-03-2015 20:06:17 6.5 C 68 %
702 08-03-2015 20:18:17 6.5 C 69 %
703 08-03-2015 20:30:17 6.4 C 70 %
704 08-03-2015 20:42:17 6.3 C 71 %
705 08-03-2015 20:54:17 6.2 C 71 %
706 08-03-2015 21:06:17 5.8 C 71 %
707 08-03-2015 21:18:17 5.9 C 72 %
708 08-03-2015 21:30:17 5.6 C 72 %
709 08-03-2015 21:42:17 5.7 C 73 %
710 08-03-2015 21:54:17 5.5 C 72 %
711 08-03-2015 22:06:17 5.3 C 73 %
712 08-03-2015 22:18:16 5 C 73 %
713 08-03-2015 22:30:17 4.9 C 74 %
714 08-03-2015 22:42:17 4.8 C 75 %
715 08-03-2015 22:54:17 4.2 C 75 %
716 08-03-2015 23:06:17 3.9 C 76 %
717 08-03-2015 23:18:17 3.7 C 78 %
718 08-03-2015 23:30:16 4.1 C 79 %
719 08-03-2015 23:42:17 4.1 C 79 %
720 08-03-2015 23:54:17 3.8 C 80 %
721 09-03-2015 00:06:17 3.6 C 81 %
722 09-03-2015 00:18:17 3.6 C 81 %
723 09-03-2015 00:30:17 3.6 C 81 %
724 09-03-2015 00:42:17 3.8 C 82 %
725 09-03-2015 00:54:17 3.9 C 81 %
Sensor: Nr:Datum:Temp:Feuchte:
Aussen-T/F 726 09-03-2015 01:06:17 3.3 C 80 %
727 09-03-2015 01:18:17 3 C 81 %
728 09-03-2015 01:30:17 2.7 C 83 %
729 09-03-2015 01:42:17 2.7 C 84 %
730 09-03-2015 01:54:17 2.8 C 85 %
731 09-03-2015 02:06:17 2.8 C 86 %
732 09-03-2015 02:18:17 2.5 C 85 %
733 09-03-2015 02:30:17 2.4 C 86 %
734 09-03-2015 02:42:17 2.8 C 87 %
735 09-03-2015 02:54:17 2.8 C 87 %
736 09-03-2015 03:06:17 3.3 C 87 %
737 09-03-2015 03:18:17 3.2 C 87 %
738 09-03-2015 03:30:17 3.3 C 87 %
739 09-03-2015 03:42:17 3.3 C 87 %
740 09-03-2015 03:54:17 3 C 86 %
741 09-03-2015 04:06:17 2.4 C 86 %
742 09-03-2015 04:18:17 2.3 C 87 %
743 09-03-2015 04:30:17 2.5 C 88 %
744 09-03-2015 04:42:17 3 C 88 %
745 09-03-2015 04:54:17 3.2 C 89 %
746 09-03-2015 05:06:17 3.4 C 89 %
747 09-03-2015 05:18:17 3.6 C 89 %
748 09-03-2015 05:30:17 3.7 C 89 %
749 09-03-2015 05:42:17 4 C 87 %
750 09-03-2015 05:54:17 4 C 87 %
Sensor: Nr:Datum:Temp:Feuchte:
Aussen-T/F 751 09-03-2015 06:06:17 4 C 86 %
752 09-03-2015 06:18:17 4.1 C 85 %
753 09-03-2015 06:30:17 4.1 C 85 %
754 09-03-2015 06:42:17 4.2 C 84 %
755 09-03-2015 06:54:17 4.2 C 84 %
756 09-03-2015 07:06:17 4.3 C 84 %
757 09-03-2015 07:18:17 4.4 C 84 %
758 09-03-2015 07:30:17 4.5 C 84 %
759 09-03-2015 07:42:17 4.6 C 83 %
760 09-03-2015 07:54:17 4.7 C 83 %
761 09-03-2015 08:06:17 5 C 81 %
762 09-03-2015 08:18:17 5.2 C 81 %
763 09-03-2015 08:30:17 5.4 C 80 %
764 09-03-2015 08:42:17 5.6 C 79 %
765 09-03-2015 08:54:17 5.8 C 78 %
766 09-03-2015 09:06:17 6 C 76 %
767 09-03-2015 09:18:17 6.5 C 75 %
768 09-03-2015 09:30:17 6.9 C 74 %
769 09-03-2015 09:42:17 7.2 C 72 %
770 09-03-2015 09:54:17 7.5 C 72 %
771 09-03-2015 10:06:17 7.5 C 70 %
772 09-03-2015 10:18:17 7.9 C 70 %
773 09-03-2015 10:30:17 8.2 C 68 %
774 09-03-2015 10:42:17 8.4 C 69 %
775 09-03-2015 10:54:17 8.7 C 69 %
Sensor: Nr:Datum:Temp:Feuchte:
Aussen-T/F 776 09-03-2015 11:06:17 9.1 C 67 %
777 09-03-2015 11:18:17 9.5 C 66 %
778 09-03-2015 11:30:18 9.9 C 66 %
779 09-03-2015 11:42:18 10.2 C 65 %
780 09-03-2015 11:54:17 10.5 C 64 %
781 09-03-2015 12:06:17 10.6 C 62 %
782 09-03-2015 12:18:17 10.9 C 61 %
783 09-03-2015 12:30:17 11.1 C 59 %
784 09-03-2015 12:42:17 11.3 C 59 %
785 09-03-2015 12:54:17 11.4 C 59 %
786 09-03-2015 13:06:17 11.6 C 59 %
787 09-03-2015 13:18:16 11.8 C 58 %
788 09-03-2015 13:30:17 12.1 C 56 %
789 09-03-2015 13:42:17 12.8 C 54 %
790 09-03-2015 13:54:16 13.1 C 51 %
791 09-03-2015 14:06:17 13.2 C 51 %
792 09-03-2015 14:18:17 13.1 C 51 %
793 09-03-2015 14:30:17 13.3 C 51 %
794 09-03-2015 14:42:17 13.5 C 50 %
795 09-03-2015 14:54:17 13.7 C 50 %
796 09-03-2015 15:06:17 13.8 C 50 %
797 09-03-2015 15:18:17 13.9 C 50 %
798 09-03-2015 15:30:17 14.2 C 48 %
799 09-03-2015 15:42:17 14.2 C 48 %
800 09-03-2015 15:54:17 14.4 C 48 %
Sensor: Nr:Datum:Temp:Feuchte:
Aussen-T/F 801 09-03-2015 16:06:17 14.7 C 48 %
802 09-03-2015 16:18:17 14.8 C 47 %
803 09-03-2015 16:30:17 15 C 47 %
804 09-03-2015 16:42:17 15 C 46 %
805 09-03-2015 16:54:17 15.5 C 45 %
806 09-03-2015 17:06:17 14.4 C 48 %
807 09-03-2015 17:18:17 13.3 C 53 %
808 09-03-2015 17:30:17 12.3 C 56 %
809 09-03-2015 17:42:17 11.3 C 61 %
810 09-03-2015 17:54:17 10.6 C 64 %
811 09-03-2015 18:06:17 10 C 66 %
812 09-03-2015 18:18:17 9.7 C 68 %
813 09-03-2015 18:30:17 9.3 C 69 %
814 09-03-2015 18:42:17 9 C 70 %
815 09-03-2015 18:54:17 8.8 C 71 %
816 09-03-2015 19:06:17 8.4 C 71 %
817 09-03-2015 19:18:17 8.1 C 72 %
818 09-03-2015 19:30:17 7.7 C 75 %
819 09-03-2015 19:42:17 7.6 C 76 %
820 09-03-2015 19:54:17 7.2 C 76 %
821 09-03-2015 20:06:17 6.9 C 78 %
822 09-03-2015 20:18:17 6.8 C 79 %
823 09-03-2015 20:30:17 6.5 C 79 %
824 09-03-2015 20:42:17 6.2 C 80 %
825 09-03-2015 20:54:17 6 C 80 %
Sensor: Nr:Datum:Temp:Feuchte:
Aussen-T/F 826 09-03-2015 21:06:17 5.8 C 82 %
827 09-03-2015 21:18:17 5.4 C 82 %
828 09-03-2015 21:30:17 5.3 C 83 %
829 09-03-2015 21:42:17 5.1 C 84 %
830 09-03-2015 21:54:17 5.4 C 86 %
831 09-03-2015 22:06:17 4.9 C 86 %
832 09-03-2015 22:18:17 4.7 C 86 %
833 09-03-2015 22:30:17 4.3 C 87 %
834 09-03-2015 22:42:17 4.4 C 87 %
835 09-03-2015 22:54:17 4.1 C 88 %
836 09-03-2015 23:06:17 3.8 C 89 %
837 09-03-2015 23:18:17 3.6 C 89 %
838 09-03-2015 23:30:17 3.5 C 90 %
839 09-03-2015 23:42:17 3.7 C 91 %
840 09-03-2015 23:54:17 3.3 C 91 %
841 10-03-2015 00:06:17 3.4 C 91 %
842 10-03-2015 00:18:17 3.4 C 92 %
843 10-03-2015 00:30:17 3.1 C 91 %
844 10-03-2015 00:42:17 3 C 92 %
845 10-03-2015 00:54:17 3.4 C 92 %
846 10-03-2015 01:06:17 3.6 C 93 %
847 10-03-2015 01:18:17 3.6 C 93 %
848 10-03-2015 01:30:17 2.9 C 94 %
849 10-03-2015 01:42:17 2.9 C 94 %
850 10-03-2015 01:54:17 2.8 C 94 %
Sensor: Nr:Datum:Temp:Feuchte:
Aussen-T/F 851 10-03-2015 02:06:17 2.8 C 94 %
852 10-03-2015 02:18:17 2.8 C 94 %
853 10-03-2015 02:30:17 2.5 C 94 %
854 10-03-2015 02:42:17 2.6 C 94 %
855 10-03-2015 02:54:17 2.6 C 95 %
856 10-03-2015 03:06:17 3.1 C 94 %
857 10-03-2015 03:18:17 2.8 C 95 %
858 10-03-2015 03:30:17 2.6 C 95 %
859 10-03-2015 03:42:17 2.3 C 95 %
860 10-03-2015 03:54:17 2 C 95 %
861 10-03-2015 04:06:17 2.1 C 95 %
862 10-03-2015 04:18:17 1.9 C 95 %
863 10-03-2015 04:30:17 1.5 C 95 %
864 10-03-2015 04:42:17 1.3 C 95 %
865 10-03-2015 04:54:17 1.8 C 95 %
866 10-03-2015 05:06:17 2 C 95 %
867 10-03-2015 05:18:17 1.8 C 95 %
868 10-03-2015 05:30:17 1.4 C 95 %
869 10-03-2015 05:42:17 1.7 C 95 %
870 10-03-2015 05:54:17 2.2 C 95 %
871 10-03-2015 06:06:17 2.6 C 95 %
872 10-03-2015 06:18:17 2.8 C 95 %
873 10-03-2015 06:30:17 3 C 95 %
874 10-03-2015 06:42:17 3.1 C 95 %
875 10-03-2015 06:54:17 3.2 C 95 %
Sensor: Nr:Datum:Temp:Feuchte:
Aussen-T/F 876 10-03-2015 07:06:17 3.3 C 95 %
877 10-03-2015 07:18:17 3.5 C 95 %
878 10-03-2015 07:30:17 3.6 C 95 %
879 10-03-2015 07:42:17 3.8 C 95 %
880 10-03-2015 07:54:17 4 C 95 %
881 10-03-2015 08:06:17 4.1 C 95 %
882 10-03-2015 08:18:17 4.2 C 95 %
883 10-03-2015 08:30:17 4.2 C 95 %
884 10-03-2015 08:42:17 4.3 C 95 %
885 10-03-2015 08:54:17 4.4 C 95 %
886 10-03-2015 09:06:17 4.5 C 95 %
887 10-03-2015 09:18:17 4.6 C 94 %
888 10-03-2015 09:30:17 4.8 C 94 %
889 10-03-2015 09:42:17 4.9 C 94 %
890 10-03-2015 09:54:17 4.9 C 94 %
891 10-03-2015 10:06:17 5.2 C 93 %
892 10-03-2015 10:18:17 5.3 C 93 %
893 10-03-2015 10:30:17 5.5 C 93 %
894 10-03-2015 10:42:17 5.6 C 93 %
895 10-03-2015 10:54:17 5.6 C 93 %
896 10-03-2015 11:06:17 5.6 C 93 %
897 10-03-2015 11:18:17 5.7 C 93 %
898 10-03-2015 11:30:17 5.9 C 93 %
899 10-03-2015 11:42:17 6.1 C 92 %
900 10-03-2015 11:54:17 6.2 C 93 %
Sensor: Nr:Datum:Temp:Feuchte:
Aussen-T/F 901 10-03-2015 12:06:17 6.2 C 93 %
902 10-03-2015 12:18:17 6.2 C 93 %
903 10-03-2015 12:30:17 6.4 C 93 %
904 10-03-2015 12:42:17 6.7 C 93 %
905 10-03-2015 12:54:17 6.8 C 93 %
906 10-03-2015 13:06:17 7.1 C 92 %
907 10-03-2015 13:18:17 7.1 C 92 %
908 10-03-2015 13:30:17 7.3 C 93 %
909 10-03-2015 13:42:18 7.6 C 93 %
910 10-03-2015 13:54:17 7.8 C 93 %
911 10-03-2015 14:06:17 8 C 92 %
912 10-03-2015 14:18:17 8.1 C 92 %
913 10-03-2015 14:30:17 8.1 C 92 %
914 10-03-2015 14:42:17 7.9 C 93 %
915 10-03-2015 14:54:17 8.1 C 92 %
916 10-03-2015 15:06:17 8.2 C 92 %
917 10-03-2015 15:18:17 8.5 C 92 %
918 10-03-2015 15:30:17 8.6 C 93 %
919 10-03-2015 15:42:17 8.6 C 93 %
920 10-03-2015 15:54:17 8.6 C 93 %
921 10-03-2015 16:06:17 8.4 C 93 %
922 10-03-2015 16:18:17 8.6 C 93 %
923 10-03-2015 16:30:17 8.7 C 93 %
924 10-03-2015 16:42:17 8.9 C 93 %
925 10-03-2015 16:54:17 9 C 92 %
Sensor: Nr:Datum:Temp:Feuchte:
Aussen-T/F 926 10-03-2015 17:06:17 9.1 C 93 %
927 10-03-2015 17:18:17 9.1 C 92 %
928 10-03-2015 17:30:17 9 C 92 %
929 10-03-2015 17:42:17 9 C 92 %
930 10-03-2015 17:54:17 9.1 C 92 %
931 10-03-2015 18:06:17 8.5 C 92 %
932 10-03-2015 18:18:17 7.8 C 92 %
933 10-03-2015 18:30:17 7.5 C 92 %
934 10-03-2015 18:42:17 7.1 C 92 %
935 10-03-2015 18:54:17 6.8 C 93 %
936 10-03-2015 19:06:17 6.8 C 93 %
937 10-03-2015 19:18:17 7 C 93 %
938 10-03-2015 19:30:17 6.4 C 94 %
939 10-03-2015 19:42:17 5.7 C 94 %
940 10-03-2015 19:54:17 5.9 C 94 %
941 10-03-2015 20:06:17 5.9 C 95 %
942 10-03-2015 20:18:17 5.8 C 95 %
943 10-03-2015 20:30:17 6.2 C 94 %
944 10-03-2015 20:42:17 5.3 C 95 %
945 10-03-2015 20:54:17 5 C 95 %
946 10-03-2015 21:06:17 5.2 C 95 %
947 10-03-2015 21:18:16 4.9 C 95 %
948 10-03-2015 21:30:17 4.8 C 95 %
949 10-03-2015 21:42:17 5 C 95 %
950 10-03-2015 21:54:17 5.5 C 95 %
Sensor: Nr:Datum:Temp:Feuchte:
Aussen-T/F 951 10-03-2015 22:06:17 5.7 C 95 %
952 10-03-2015 22:18:17 5.8 C 95 %
953 10-03-2015 22:30:17 5.8 C 95 %
954 10-03-2015 22:42:17 5.9 C 95 %
955 10-03-2015 22:54:17 5.9 C 95 %
956 10-03-2015 23:06:17 5.9 C 95 %
957 10-03-2015 23:18:17 5.9 C 95 %
958 10-03-2015 23:30:17 5.9 C 95 %
959 10-03-2015 23:42:17 5.8 C 95 %
960 10-03-2015 23:54:17 5.1 C 95 %
961 11-03-2015 00:06:17 5.4 C 95 %
962 11-03-2015 00:18:17 5.2 C 95 %
963 11-03-2015 00:30:17 5.2 C 95 %
964 11-03-2015 00:42:17 4.8 C 95 %
965 11-03-2015 00:54:17 3.5 C 95 %
966 11-03-2015 01:06:17 3.6 C 95 %
967 11-03-2015 01:18:17 3.3 C 95 %
968 11-03-2015 01:30:17 3 C 95 %
969 11-03-2015 01:42:17 2.6 C 95 %
970 11-03-2015 01:54:17 2.9 C 95 %
971 11-03-2015 02:06:17 2.6 C 95 %
972 11-03-2015 02:18:17 2.3 C 95 %
973 11-03-2015 02:30:17 2.2 C 95 %
974 11-03-2015 02:42:17 2 C 95 %
975 11-03-2015 02:54:17 1.8 C 95 %
Sensor: Nr:Datum:Temp:Feuchte:
Aussen-T/F 976 11-03-2015 03:06:17 1.5 C 95 %
977 11-03-2015 03:18:17 1.3 C 95 %
978 11-03-2015 03:30:17 1.6 C 95 %
979 11-03-2015 03:42:17 1.8 C 95 %
980 11-03-2015 03:54:17 1.6 C 95 %
981 11-03-2015 04:06:17 1.1 C 95 %
982 11-03-2015 04:18:17 0.8 C 95 %
983 11-03-2015 04:30:17 1 C 95 %
984 11-03-2015 04:42:17 0.6 C 95 %
985 11-03-2015 04:54:17 0.6 C 95 %
986 11-03-2015 05:06:17 0.6 C 95 %
987 11-03-2015 05:18:17 1.1 C 95 %
988 11-03-2015 05:30:17 1.4 C 95 %
989 11-03-2015 05:42:17 1.6 C 95 %
990 11-03-2015 05:54:17 1.9 C 95 %
991 11-03-2015 06:06:17 1.8 C 95 %
992 11-03-2015 06:18:17 2.1 C 95 %
993 11-03-2015 06:30:17 2.2 C 95 %
994 11-03-2015 06:42:17 2.2 C 95 %
995 11-03-2015 06:54:17 2.1 C 95 %
996 11-03-2015 07:06:17 2.1 C 95 %
997 11-03-2015 07:18:17 2.1 C 95 %
998 11-03-2015 07:30:17 2.1 C 95 %
999 11-03-2015 07:42:17 2.1 C 95 %
1000 11-03-2015 07:54:17 2.1 C 95 %
Sensor: Nr:Datum:Temp:Feuchte:
Aussen-T/F 1001 11-03-2015 08:06:17 2.2 C 95 %
1002 11-03-2015 08:18:17 2.3 C 95 %
1003 11-03-2015 08:30:17 2.2 C 95 %
1004 11-03-2015 08:42:17 2.2 C 95 %
1005 11-03-2015 08:54:17 2.5 C 95 %
1006 11-03-2015 09:06:17 2.5 C 95 %
1007 11-03-2015 09:18:17 2.5 C 95 %
1008 11-03-2015 09:30:17 2.7 C 95 %
1009 11-03-2015 09:42:17 3 C 95 %
1010 11-03-2015 09:54:17 3.2 C 95 %
1011 11-03-2015 10:06:17 3.5 C 95 %
1012 11-03-2015 10:18:17 3.8 C 95 %
1013 11-03-2015 10:30:17 3.9 C 94 %
1014 11-03-2015 10:42:17 4.3 C 91 %
1015 11-03-2015 10:54:17 4.2 C 89 %
1016 11-03-2015 11:06:17 4.1 C 85 %
1017 11-03-2015 11:18:17 4 C 82 %
1018 11-03-2015 11:30:17 3.8 C 81 %
1019 11-03-2015 11:42:17 4 C 80 %
1020 11-03-2015 11:54:17 4.3 C 78 %
1021 11-03-2015 12:06:17 4.7 C 76 %
1022 11-03-2015 12:18:17 4.9 C 72 %
1023 11-03-2015 12:30:17 5.3 C 69 %
1024 11-03-2015 12:42:17 5.7 C 66 %
1025 11-03-2015 12:54:17 6.1 C 65 %
Sensor: Nr:Datum:Temp:Feuchte:
Aussen-T/F 1026 11-03-2015 13:06:17 6.2 C 60 %
1027 11-03-2015 13:18:17 6.5 C 59 %
1028 11-03-2015 13:30:17 6.9 C 59 %
1029 11-03-2015 13:42:17 7.3 C 56 %
1030 11-03-2015 13:54:17 7.5 C 54 %
1031 11-03-2015 14:06:17 7.6 C 53 %
1032 11-03-2015 14:18:17 7.8 C 52 %
1033 11-03-2015 14:30:18 8 C 50 %
1034 11-03-2015 14:42:18 8.2 C 49 %
1035 11-03-2015 14:54:17 8.4 C 50 %
1036 11-03-2015 15:06:17 8.6 C 47 %
1037 11-03-2015 15:18:17 8.8 C 45 %
1038 11-03-2015 15:30:17 9.2 C 45 %
1039 11-03-2015 15:42:17 9.4 C 42 %
1040 11-03-2015 15:54:17 9.6 C 41 %
1041 11-03-2015 16:06:17 9.9 C 40 %
1042 11-03-2015 16:18:17 10.1 C 44 %
1043 11-03-2015 16:30:17 10.1 C 40 %
1044 11-03-2015 16:42:17 10.6 C 42 %
1045 11-03-2015 16:54:17 12.1 C 40 %
1046 11-03-2015 17:06:17 11 C 45 %
1047 11-03-2015 17:18:17 9.9 C 49 %
1048 11-03-2015 17:30:17 9.3 C 51 %
1049 11-03-2015 17:42:17 8.7 C 53 %
1050 11-03-2015 17:54:17 9.2 C 52 %
Sensor: Nr:Datum:Temp:Feuchte:
Aussen-T/F 1051 11-03-2015 18:06:17 7.8 C 56 %
1052 11-03-2015 18:18:17 6.5 C 61 %
1053 11-03-2015 18:30:17 5.5 C 65 %
1054 11-03-2015 18:42:17 5.1 C 68 %
1055 11-03-2015 18:54:17 4.8 C 69 %
1056 11-03-2015 19:06:17 4.4 C 70 %
1057 11-03-2015 19:18:17 4.3 C 71 %
1058 11-03-2015 19:30:17 3.9 C 74 %
1059 11-03-2015 19:42:17 3.4 C 76 %
1060 11-03-2015 19:54:17 3.3 C 77 %
1061 11-03-2015 20:06:17 2.8 C 78 %
1062 11-03-2015 20:18:17 2.7 C 79 %
1063 11-03-2015 20:30:17 2.3 C 79 %
1064 11-03-2015 20:42:17 2.3 C 81 %
1065 11-03-2015 20:54:17 2.1 C 81 %
1066 11-03-2015 21:06:18 1.7 C 82 %
1067 11-03-2015 21:18:17 1.6 C 83 %
1068 11-03-2015 21:30:17 1.6 C 83 %
1069 11-03-2015 21:42:17 1.1 C 83 %
1070 11-03-2015 21:54:17 1.1 C 83 %
1071 11-03-2015 22:06:17 0.9 C 84 %
1072 11-03-2015 22:18:17 0.6 C 84 %
1073 11-03-2015 22:30:17 0.4 C 84 %
1074 11-03-2015 22:42:17 0.9 C 85 %
1075 11-03-2015 22:54:17 0.4 C 85 %
Sensor: Nr:Datum:Temp:Feuchte:
Aussen-T/F 1076 11-03-2015 23:06:17 0.2 C 85 %
1077 11-03-2015 23:18:17 0.2 C 85 %
1078 11-03-2015 23:30:17 -0.1 C 85 %
1079 11-03-2015 23:42:17 -0.2 C 85 %
1080 11-03-2015 23:54:16 -0.3 C 86 %
1081 12-03-2015 00:06:17 -0.5 C 86 %
1082 12-03-2015 00:18:17 -0.6 C 86 %
1083 12-03-2015 00:30:17 -0.5 C 87 %
1084 12-03-2015 00:42:17 -0.6 C 87 %
1085 12-03-2015 00:54:17 -0.7 C 88 %
1086 12-03-2015 01:06:18 -0.6 C 88 %
1087 12-03-2015 01:18:17 -0.5 C 88 %
1088 12-03-2015 01:30:17 -0.7 C 88 %
1089 12-03-2015 01:42:17 -0.9 C 88 %
1090 12-03-2015 01:54:17 -1 C 88 %
1091 12-03-2015 02:06:17 -1.1 C 89 %
1092 12-03-2015 02:18:17 -1.1 C 89 %
1093 12-03-2015 02:30:17 -1 C 89 %
1094 12-03-2015 02:42:18 -1.2 C 90 %
1095 12-03-2015 02:54:17 -1 C 90 %
1096 12-03-2015 03:06:17 -1.3 C 90 %
1097 12-03-2015 03:18:17 -1.3 C 90 %
1098 12-03-2015 03:30:17 -1 C 91 %
1099 12-03-2015 03:42:17 -1.3 C 91 %
1100 12-03-2015 03:54:17 -1.4 C 91 %
Sensor: Nr:Datum:Temp:Feuchte:
Aussen-T/F 1101 12-03-2015 04:06:17 -1.5 C 91 %
1102 12-03-2015 04:18:17 -1.5 C 91 %
1103 12-03-2015 04:30:17 -1.7 C 91 %
1104 12-03-2015 04:42:17 -1.5 C 91 %
1105 12-03-2015 04:54:17 -1.6 C 92 %
1106 12-03-2015 05:06:17 -1.8 C 92 %
1107 12-03-2015 05:18:17 -1.8 C 92 %
1108 12-03-2015 05:30:17 -1.8 C 92 %
1109 12-03-2015 05:42:17 -2.1 C 92 %
1110 12-03-2015 05:54:17 -2 C 92 %
1111 12-03-2015 06:06:17 -2.1 C 92 %
1112 12-03-2015 06:18:17 -2.2 C 92 %
1113 12-03-2015 06:30:17 -2.2 C 92 %
1114 12-03-2015 06:42:17 -1.9 C 92 %
1115 12-03-2015 06:54:17 -1.7 C 93 %
1116 12-03-2015 07:06:17 -1.6 C 93 %
1117 12-03-2015 07:18:17 -1.7 C 93 %
1118 12-03-2015 07:30:17 -1.6 C 93 %
1119 12-03-2015 07:42:17 -1.8 C 93 %
1120 12-03-2015 07:54:17 -1.8 C 93 %
1121 12-03-2015 08:06:17 -1.7 C 93 %
1122 12-03-2015 08:18:17 -1.7 C 93 %
1123 12-03-2015 08:30:17 -1.6 C 93 %
1124 12-03-2015 08:42:17 -1.4 C 93 %
1125 12-03-2015 08:54:17 -1.2 C 93 %
Sensor: Nr:Datum:Temp:Feuchte:
Aussen-T/F 1126 12-03-2015 09:06:17 -1.1 C 93 %
1127 12-03-2015 09:18:17 -0.9 C 93 %
1128 12-03-2015 09:30:17 -0.7 C 94 %
1129 12-03-2015 09:42:17 -0.1 C 94 %
1130 12-03-2015 09:54:17 0.3 C 94 %
1131 12-03-2015 10:06:17 0.6 C 94 %
1132 12-03-2015 10:18:17 1.2 C 94 %
1133 12-03-2015 10:30:17 1.9 C 93 %
1134 12-03-2015 10:42:17 2.6 C 91 %
1135 12-03-2015 10:54:17 2.8 C 89 %
1136 12-03-2015 11:06:17 3.6 C 87 %
1137 12-03-2015 11:18:17 4.2 C 84 %
1138 12-03-2015 11:30:17 4.7 C 82 %
1139 12-03-2015 11:42:17 5.3 C 79 %
1140 12-03-2015 11:54:16 5.9 C 76 %
1141 12-03-2015 12:06:17 6.4 C 70 %
1142 12-03-2015 12:18:17 7 C 62 %
1143 12-03-2015 12:30:17 7.9 C 57 %
1144 12-03-2015 12:42:17 8.4 C 55 %
1145 12-03-2015 12:54:17 8.7 C 54 %
1146 12-03-2015 13:06:18 8.8 C 52 %
1147 12-03-2015 13:18:17 9.2 C 49 %
1148 12-03-2015 13:30:17 9.2 C 50 %
1149 12-03-2015 13:42:17 9.5 C 47 %
1150 12-03-2015 13:54:17 9.6 C 47 %
Sensor: Nr:Datum:Temp:Feuchte:
Aussen-T/F 1151 12-03-2015 14:06:17 9.8 C 46 %
1152 12-03-2015 14:18:17 10.1 C 45 %
1153 12-03-2015 14:30:17 9.9 C 44 %
1154 12-03-2015 14:42:17 10.2 C 42 %
1155 12-03-2015 14:54:17 10.3 C 41 %
1156 12-03-2015 15:06:17 10.4 C 40 %
1157 12-03-2015 15:18:17 10.7 C 41 %
1158 12-03-2015 15:30:17 11.2 C 38 %
1159 12-03-2015 15:42:17 11.3 C 39 %
1160 12-03-2015 15:54:17 11.7 C 37 %
1161 12-03-2015 16:06:17 12 C 36 %
1162 12-03-2015 16:18:17 12.3 C 36 %
1163 12-03-2015 16:30:17 12.1 C 35 %
1164 12-03-2015 16:42:17 12.2 C 35 %
1165 12-03-2015 16:54:17 13.5 C 31 %
1166 12-03-2015 17:06:17 12.3 C 36 %
1167 12-03-2015 17:18:16 12.2 C 35 %
1168 12-03-2015 17:30:17 12.5 C 36 %
1169 12-03-2015 17:42:17 12 C 40 %
1170 12-03-2015 17:54:17 12.2 C 40 %
1171 12-03-2015 18:06:17 10 C 44 %
1172 12-03-2015 18:18:17 8 C 51 %
1173 12-03-2015 18:30:17 6.5 C 58 %
1174 12-03-2015 18:42:17 6 C 60 %
1175 12-03-2015 18:54:17 5.8 C 61 %
Sensor: Nr:Datum:Temp:Feuchte:
Aussen-T/F 1176 12-03-2015 19:06:17 5.7 C 62 %
1177 12-03-2015 19:18:17 5.4 C 62 %
1178 12-03-2015 19:30:17 5.3 C 63 %
1179 12-03-2015 19:42:17 5.1 C 64 %
1180 12-03-2015 19:54:17 4.8 C 66 %
1181 12-03-2015 20:06:17 4.3 C 68 %
1182 12-03-2015 20:18:17 4 C 71 %
1183 12-03-2015 20:30:17 3.7 C 72 %
1184 12-03-2015 20:42:17 3.4 C 73 %
1185 12-03-2015 20:54:17 2.8 C 75 %
1186 12-03-2015 21:06:17 2.6 C 75 %
1187 12-03-2015 21:18:17 2.3 C 76 %
1188 12-03-2015 21:30:17 2.2 C 76 %
1189 12-03-2015 21:42:17 1.9 C 78 %
1190 12-03-2015 21:54:17 1.8 C 79 %
1191 12-03-2015 22:06:17 1.7 C 80 %
1192 12-03-2015 22:18:17 1.9 C 81 %
1193 12-03-2015 22:30:17 2.1 C 80 %
1194 12-03-2015 22:42:17 2.4 C 78 %
1195 12-03-2015 22:54:17 2.4 C 74 %
1196 12-03-2015 23:06:17 1.6 C 75 %
1197 12-03-2015 23:18:17 1.3 C 76 %
1198 12-03-2015 23:30:17 1.5 C 76 %
1199 12-03-2015 23:42:17 1.5 C 77 %
1200 12-03-2015 23:54:17 1.4 C 76 %
Sensor: Nr:Datum:Temp:Feuchte:
Aussen-T/F 1201 13-03-2015 00:06:17 1.6 C 77 %
1202 13-03-2015 00:18:17 1.3 C 77 %
1203 13-03-2015 00:30:17 1.2 C 77 %
1204 13-03-2015 00:42:17 1.1 C 77 %
1205 13-03-2015 00:54:16 1.1 C 77 %
1206 13-03-2015 01:06:17 0.9 C 79 %
1207 13-03-2015 01:18:17 1.3 C 78 %
1208 13-03-2015 01:30:17 1.8 C 78 %
1209 13-03-2015 01:42:17 1.5 C 77 %
1210 13-03-2015 01:54:17 1.9 C 77 %
1211 13-03-2015 02:06:17 1.7 C 77 %
1212 13-03-2015 02:18:17 1.5 C 77 %
1213 13-03-2015 02:30:17 1.1 C 77 %
1214 13-03-2015 02:42:17 1.1 C 78 %
1215 13-03-2015 02:54:17 0.7 C 80 %
1216 13-03-2015 03:06:17 0.9 C 80 %
1217 13-03-2015 03:18:17 0.6 C 81 %
1218 13-03-2015 03:30:17 0.4 C 81 %
1219 13-03-2015 03:42:18 0.4 C 82 %
1220 13-03-2015 03:54:16 0.4 C 82 %
1221 13-03-2015 04:06:17 0 C 82 %
1222 13-03-2015 04:18:17 -0.2 C 83 %
1223 13-03-2015 04:30:17 -0.3 C 83 %
1224 13-03-2015 04:42:17 -0.3 C 84 %
1225 13-03-2015 04:54:17 -0.3 C 84 %
Sensor: Nr:Datum:Temp:Feuchte:
Aussen-T/F 1226 13-03-2015 05:06:17 -0.3 C 85 %
1227 13-03-2015 05:18:17 -0.2 C 85 %
1228 13-03-2015 05:30:17 -0.4 C 85 %
1229 13-03-2015 05:42:17 -0.5 C 86 %
1230 13-03-2015 05:54:17 -0.5 C 86 %
1231 13-03-2015 06:06:17 -0.7 C 86 %
1232 13-03-2015 06:18:17 -0.5 C 87 %
1233 13-03-2015 06:30:17 -0.5 C 87 %
1234 13-03-2015 06:42:17 -0.6 C 88 %
1235 13-03-2015 06:54:17 -0.4 C 88 %
1236 13-03-2015 07:06:17 -0.4 C 88 %
1237 13-03-2015 07:18:17 -0.7 C 88 %
1238 13-03-2015 07:30:17 -0.9 C 88 %
1239 13-03-2015 07:42:17 -0.9 C 88 %
1240 13-03-2015 07:54:16 -0.7 C 89 %
1241 13-03-2015 08:06:17 -0.7 C 89 %
1242 13-03-2015 08:18:17 -0.6 C 89 %
1243 13-03-2015 08:30:16 -0.2 C 89 %
1244 13-03-2015 08:42:17 0.2 C 90 %
1245 13-03-2015 08:54:17 0.5 C 90 %
1246 13-03-2015 09:06:17 0.8 C 89 %
1247 13-03-2015 09:18:17 1.1 C 89 %
1248 13-03-2015 09:30:17 1.5 C 88 %
1249 13-03-2015 09:42:17 1.7 C 87 %
1250 13-03-2015 09:54:17 2.4 C 83 %
Sensor: Nr:Datum:Temp:Feuchte:
Aussen-T/F 1251 13-03-2015 10:06:17 3.3 C 74 %
1252 13-03-2015 10:18:16 3.7 C 68 %
1253 13-03-2015 10:30:17 4.2 C 62 %
1254 13-03-2015 10:42:17 4.4 C 63 %
1255 13-03-2015 10:54:17 4.5 C 60 %
1256 13-03-2015 11:06:17 4.9 C 58 %
1257 13-03-2015 11:18:17 5.3 C 55 %
1258 13-03-2015 11:30:17 5.4 C 54 %
1259 13-03-2015 11:42:17 5.7 C 53 %
1260 13-03-2015 11:54:17 6.3 C 51 %
1261 13-03-2015 12:06:17 6.8 C 47 %
1262 13-03-2015 12:18:17 7 C 45 %
1263 13-03-2015 12:30:17 6.9 C 45 %
1264 13-03-2015 12:42:17 6.9 C 43 %
1265 13-03-2015 12:54:17 7.3 C 42 %
1266 13-03-2015 13:06:17 7.3 C 42 %
1267 13-03-2015 13:18:17 7.4 C 42 %
1268 13-03-2015 13:30:17 7.3 C 41 %
1269 13-03-2015 13:42:18 7.6 C 43 %
1270 13-03-2015 13:54:17 7.3 C 41 %
1271 13-03-2015 14:06:17 7.4 C 41 %
1272 13-03-2015 14:18:17 7.4 C 41 %
1273 13-03-2015 14:30:17 7.4 C 41 %
1274 13-03-2015 14:42:17 7.4 C 42 %
1275 13-03-2015 14:54:17 7.3 C 40 %
Sensor: Nr:Datum:Temp:Feuchte:
Aussen-T/F 1276 13-03-2015 15:06:17 7.7 C 41 %
1277 13-03-2015 15:18:17 7.7 C 40 %
1278 13-03-2015 15:30:17 7.6 C 39 %
1279 13-03-2015 15:42:17 7.4 C 39 %
1280 13-03-2015 15:54:17 7.3 C 41 %
1281 13-03-2015 16:06:17 7.2 C 41 %
1282 13-03-2015 16:18:17 7 C 40 %
1283 13-03-2015 16:30:17 7 C 41 %
1284 13-03-2015 16:42:17 6.9 C 45 %
1285 13-03-2015 16:54:17 6.8 C 44 %
1286 13-03-2015 17:06:17 6.7 C 45 %
1287 13-03-2015 17:18:17 6.6 C 45 %
1288 13-03-2015 17:30:17 6.4 C 46 %
1289 13-03-2015 17:42:17 6.4 C 46 %
1290 13-03-2015 17:54:17 6.1 C 49 %
1291 13-03-2015 18:06:17 5.8 C 52 %
1292 13-03-2015 18:18:17 5.7 C 52 %
1293 13-03-2015 18:30:17 5.4 C 53 %
1294 13-03-2015 18:42:18 5.2 C 56 %
1295 13-03-2015 18:54:18 5 C 57 %
1296 13-03-2015 19:06:17 5.5 C 52 %
1297 13-03-2015 19:18:17 5.7 C 51 %
1298 13-03-2015 19:30:17 5.5 C 53 %
1299 13-03-2015 19:42:17 5.3 C 56 %
1300 13-03-2015 19:54:17 4.8 C 59 %
Sensor: Nr:Datum:Temp:Feuchte:
Aussen-T/F 1301 13-03-2015 20:06:17 4.7 C 61 %
1302 13-03-2015 20:18:17 4.7 C 61 %
1303 13-03-2015 20:30:17 5.1 C 57 %
1304 13-03-2015 20:42:17 4.8 C 60 %
1305 13-03-2015 20:54:17 4.8 C 60 %
1306 13-03-2015 21:06:17 4.7 C 60 %
1307 13-03-2015 21:18:17 4.7 C 60 %
1308 13-03-2015 21:30:17 4.6 C 61 %
1309 13-03-2015 21:42:17 4.4 C 61 %
1310 13-03-2015 21:54:17 4.5 C 61 %
1311 13-03-2015 22:06:17 4.4 C 61 %
1312 13-03-2015 22:18:17 4.3 C 61 %
1313 13-03-2015 22:30:17 4.1 C 63 %
1314 13-03-2015 22:42:17 4.3 C 61 %
1315 13-03-2015 22:54:17 4.3 C 60 %
1316 13-03-2015 23:06:17 4.1 C 62 %
1317 13-03-2015 23:18:17 4 C 63 %
1318 13-03-2015 23:30:17 4 C 62 %
1319 13-03-2015 23:42:17 3.8 C 64 %
1320 13-03-2015 23:54:17 3.9 C 64 %
1321 14-03-2015 00:06:17 3.9 C 63 %
1322 14-03-2015 00:18:17 3.9 C 62 %
1323 14-03-2015 00:30:17 3.6 C 65 %
1324 14-03-2015 00:42:17 3.7 C 63 %
1325 14-03-2015 00:54:17 3.5 C 64 %
Sensor: Nr:Datum:Temp:Feuchte:
Aussen-T/F 1326 14-03-2015 01:06:17 3.3 C 65 %
1327 14-03-2015 01:18:17 3.2 C 65 %
1328 14-03-2015 01:30:17 3.3 C 65 %
1329 14-03-2015 01:42:18 3.4 C 63 %
1330 14-03-2015 01:54:17 3.5 C 62 %
1331 14-03-2015 02:06:17 3.3 C 64 %
1332 14-03-2015 02:18:17 3.1 C 65 %
1333 14-03-2015 02:30:17 3.2 C 65 %
1334 14-03-2015 02:42:17 3.2 C 65 %
1335 14-03-2015 02:54:17 3.4 C 63 %
1336 14-03-2015 03:06:17 3.1 C 65 %
1337 14-03-2015 03:18:17 3.1 C 65 %
1338 14-03-2015 03:30:17 3 C 66 %
1339 14-03-2015 03:42:17 3 C 66 %
1340 14-03-2015 03:54:17 3.1 C 65 %
1341 14-03-2015 04:06:17 2.8 C 67 %
1342 14-03-2015 04:18:17 2.6 C 68 %
1343 14-03-2015 04:30:17 2.3 C 69 %
1344 14-03-2015 04:42:17 2.2 C 70 %
1345 14-03-2015 04:54:17 2.2 C 71 %
1346 14-03-2015 05:06:17 2.2 C 70 %
1347 14-03-2015 05:18:17 2.1 C 70 %
1348 14-03-2015 05:30:17 1.6 C 72 %
1349 14-03-2015 05:42:17 1.5 C 73 %
1350 14-03-2015 05:54:17 1.2 C 74 %
Sensor: Nr:Datum:Temp:Feuchte:
Aussen-T/F 1351 14-03-2015 06:06:17 0.9 C 76 %
1352 14-03-2015 06:18:17 0.9 C 77 %
1353 14-03-2015 06:30:17 0.8 C 77 %
1354 14-03-2015 06:42:17 1 C 77 %
1355 14-03-2015 06:54:17 1.2 C 77 %
1356 14-03-2015 07:06:17 1.3 C 78 %
1357 14-03-2015 07:18:17 1.7 C 78 %
1358 14-03-2015 07:30:17 2 C 77 %
1359 14-03-2015 07:42:17 2.2 C 75 %
1360 14-03-2015 07:54:16 2.3 C 75 %
1361 14-03-2015 08:06:17 2.4 C 74 %
1362 14-03-2015 08:18:16 2.7 C 72 %
1363 14-03-2015 08:30:17 3 C 68 %
1364 14-03-2015 08:42:17 3.1 C 67 %
1365 14-03-2015 08:54:17 3.3 C 65 %
1366 14-03-2015 09:06:17 3.5 C 65 %
1367 14-03-2015 09:18:17 3.7 C 62 %
1368 14-03-2015 09:30:17 4 C 60 %
1369 14-03-2015 09:42:17 4.2 C 59 %
1370 14-03-2015 09:54:17 4.4 C 58 %
1371 14-03-2015 10:06:17 4.5 C 58 %
1372 14-03-2015 10:18:17 4.7 C 58 %
1373 14-03-2015 10:30:17 4.7 C 58 %
1374 14-03-2015 10:42:17 4.9 C 57 %
1375 14-03-2015 10:54:17 4.9 C 58 %
Sensor: Nr:Datum:Temp:Feuchte:
Aussen-T/F 1376 14-03-2015 11:06:17 5 C 57 %
1377 14-03-2015 11:18:17 5 C 57 %
1378 14-03-2015 11:30:17 5.2 C 57 %
1379 14-03-2015 11:42:17 5.2 C 57 %
1380 14-03-2015 11:54:17 5.2 C 57 %
1381 14-03-2015 12:06:17 5.3 C 57 %
1382 14-03-2015 12:18:17 5.4 C 57 %
1383 14-03-2015 12:30:17 5.5 C 57 %
1384 14-03-2015 12:42:17 5.5 C 58 %
1385 14-03-2015 12:54:17 5.9 C 57 %
1386 14-03-2015 13:06:17 6.2 C 56 %
1387 14-03-2015 13:18:17 6.8 C 55 %
1388 14-03-2015 13:30:17 6.9 C 55 %
1389 14-03-2015 13:42:17 6.8 C 56 %
1390 14-03-2015 13:54:17 6.8 C 56 %
1391 14-03-2015 14:06:17 6.7 C 56 %
1392 14-03-2015 14:18:17 6.9 C 56 %
1393 14-03-2015 14:30:17 6.9 C 56 %
1394 14-03-2015 14:42:17 7 C 56 %
1395 14-03-2015 14:54:17 7.2 C 56 %
1396 14-03-2015 15:06:17 7.2 C 55 %
1397 14-03-2015 15:18:17 7.2 C 55 %
1398 14-03-2015 15:30:17 7 C 56 %
1399 14-03-2015 15:42:17 7 C 56 %
1400 14-03-2015 15:54:17 6.9 C 59 %
Sensor: Nr:Datum:Temp:Feuchte:
Aussen-T/F 1401 14-03-2015 16:06:17 6.6 C 64 %
1402 14-03-2015 16:18:17 6.3 C 67 %
1403 14-03-2015 16:30:17 6.1 C 71 %
1404 14-03-2015 16:42:17 5.8 C 74 %
1405 14-03-2015 16:54:17 5.7 C 77 %
1406 14-03-2015 17:06:17 5.6 C 80 %
1407 14-03-2015 17:18:17 5.4 C 81 %
1408 14-03-2015 17:30:17 5.2 C 82 %
1409 14-03-2015 17:42:17 5.1 C 83 %
1410 14-03-2015 17:54:17 5 C 84 %
1411 14-03-2015 18:06:17 4.9 C 86 %
1412 14-03-2015 18:18:16 4.7 C 86 %
1413 14-03-2015 18:30:17 4.7 C 87 %
1414 14-03-2015 18:42:17 4.6 C 88 %
1415 14-03-2015 18:54:17 4.4 C 89 %
1416 14-03-2015 19:06:17 4.4 C 89 %
1417 14-03-2015 19:18:17 4.4 C 90 %
1418 14-03-2015 19:30:17 4.4 C 90 %
1419 14-03-2015 19:42:17 4.2 C 90 %
1420 14-03-2015 19:54:17 4.1 C 89 %
1421 14-03-2015 20:06:17 4 C 88 %
1422 14-03-2015 20:18:17 4 C 88 %
1423 14-03-2015 20:30:17 3.8 C 89 %
1424 14-03-2015 20:42:17 3.7 C 89 %
1425 14-03-2015 20:54:17 3.7 C 89 %
Sensor: Nr:Datum:Temp:Feuchte:
Aussen-T/F 1426 14-03-2015 21:06:17 3.6 C 89 %
1427 14-03-2015 21:18:17 3.7 C 89 %
1428 14-03-2015 21:30:17 3.7 C 89 %
1429 14-03-2015 21:42:17 3.7 C 88 %
1430 14-03-2015 21:54:17 3.6 C 88 %
1431 14-03-2015 22:06:17 3.6 C 88 %
1432 14-03-2015 22:18:17 3.6 C 88 %
1433 14-03-2015 22:30:17 3.6 C 88 %
1434 14-03-2015 22:42:17 3.7 C 87 %
1435 14-03-2015 22:54:17 3.7 C 86 %
1436 14-03-2015 23:06:18 3.5 C 86 %
1437 14-03-2015 23:18:17 3.5 C 86 %
1438 14-03-2015 23:30:17 3.5 C 86 %
1439 14-03-2015 23:42:18 3.5 C 86 %
1440 14-03-2015 23:54:17 3.5 C 86 %
1441 15-03-2015 00:06:17 3.7 C 84 %
1442 15-03-2015 00:18:17 3.6 C 84 %
1443 15-03-2015 00:30:17 3.6 C 84 %
1444 15-03-2015 00:42:17 3.5 C 84 %
1445 15-03-2015 00:54:17 3.6 C 84 %
1446 15-03-2015 01:06:17 3.5 C 83 %
1447 15-03-2015 01:18:17 3.3 C 84 %
1448 15-03-2015 01:30:17 3.3 C 84 %
1449 15-03-2015 01:42:17 3.3 C 85 %
1450 15-03-2015 01:54:17 3.3 C 85 %
Sensor: Nr:Datum:Temp:Feuchte:
Aussen-T/F 1451 15-03-2015 02:06:17 3.3 C 85 %
1452 15-03-2015 02:18:17 3.3 C 86 %
1453 15-03-2015 02:30:17 3.4 C 85 %
1454 15-03-2015 02:42:18 3.4 C 85 %
1455 15-03-2015 02:54:17 3.4 C 85 %
1456 15-03-2015 03:06:17 3.4 C 85 %
1457 15-03-2015 03:18:17 3.4 C 85 %
1458 15-03-2015 03:30:17 3.3 C 86 %
1459 15-03-2015 03:42:17 3.3 C 87 %
1460 15-03-2015 03:54:17 3.4 C 87 %
1461 15-03-2015 04:06:17 3.4 C 88 %
1462 15-03-2015 04:18:17 3.3 C 89 %
1463 15-03-2015 04:30:17 3.3 C 89 %
1464 15-03-2015 04:42:17 3.3 C 90 %
1465 15-03-2015 04:54:17 3.3 C 90 %
1466 15-03-2015 05:06:17 3.3 C 91 %
1467 15-03-2015 05:18:17 3.3 C 91 %
1468 15-03-2015 05:30:17 3.3 C 92 %
1469 15-03-2015 05:42:17 3.3 C 92 %
1470 15-03-2015 05:54:17 3.3 C 92 %
1471 15-03-2015 06:06:17 3.2 C 93 %
1472 15-03-2015 06:18:17 3.3 C 93 %
1473 15-03-2015 06:30:17 3.3 C 93 %
1474 15-03-2015 06:42:17 3.3 C 93 %
1475 15-03-2015 06:54:17 3.3 C 93 %
Sensor: Nr:Datum:Temp:Feuchte:
Aussen-T/F 1476 15-03-2015 07:06:17 3.3 C 93 %
1477 15-03-2015 07:18:17 3.3 C 94 %
1478 15-03-2015 07:30:17 3.4 C 94 %
1479 15-03-2015 07:42:17 3.4 C 94 %
1480 15-03-2015 07:54:17 3.5 C 94 %
1481 15-03-2015 08:06:17 3.6 C 94 %
1482 15-03-2015 08:18:17 3.7 C 94 %
1483 15-03-2015 08:30:17 4 C 94 %
1484 15-03-2015 08:42:17 4 C 94 %
1485 15-03-2015 08:54:17 4 C 94 %
1486 15-03-2015 09:06:17 4.1 C 93 %
1487 15-03-2015 09:18:16 4.3 C 93 %
1488 15-03-2015 09:30:17 4.4 C 92 %
1489 15-03-2015 09:42:17 4.6 C 91 %
1490 15-03-2015 09:54:17 4.8 C 90 %
1491 15-03-2015 10:06:17 4.9 C 88 %
1492 15-03-2015 10:18:17 5.1 C 86 %
1493 15-03-2015 10:30:17 5.1 C 83 %
1494 15-03-2015 10:42:17 5.2 C 80 %
1495 15-03-2015 10:54:17 5.3 C 79 %
1496 15-03-2015 11:06:17 5.4 C 77 %
1497 15-03-2015 11:18:17 5.5 C 76 %
1498 15-03-2015 11:31:17 5.7 C 75 %
1499 15-03-2015 11:43:17 5.5 C 74 %
1500 15-03-2015 11:54:17 5.6 C 73 %
Sensor: Nr:Datum:Temp:Feuchte:
Aussen-T/F 1501 15-03-2015 12:06:17 5.7 C 72 %
1502 15-03-2015 12:18:17 5.8 C 71 %
1503 15-03-2015 12:30:17 6 C 69 %
1504 15-03-2015 12:42:17 6.1 C 68 %
1505 15-03-2015 12:55:17 6.4 C 68 %
1506 15-03-2015 13:07:17 6.4 C 67 %
1507 15-03-2015 13:18:17 6.4 C 67 %
1508 15-03-2015 13:30:17 6.3 C 66 %
1509 15-03-2015 13:42:17 6.6 C 66 %
1510 15-03-2015 13:54:17 6.7 C 65 %
1511 15-03-2015 14:06:17 6.8 C 64 %
1512 15-03-2015 14:19:17 6.9 C 63 %
1513 15-03-2015 14:31:17 6.8 C 63 %
1514 15-03-2015 14:42:17 6.7 C 64 %
1515 15-03-2015 14:54:17 6.8 C 64 %
1516 15-03-2015 15:06:17 6.7 C 64 %
1517 15-03-2015 15:19:17 6.8 C 65 %
1518 15-03-2015 15:31:17 6.6 C 64 %
1519 15-03-2015 15:42:17 6.5 C 65 %
1520 15-03-2015 15:55:17 6.4 C 66 %
1521 15-03-2015 16:06:17 6.5 C 66 %
1522 15-03-2015 16:18:17 6.5 C 65 %
1523 15-03-2015 16:31:17 6.7 C 65 %
1524 15-03-2015 16:43:17 6.7 C 65 %
1525 15-03-2015 16:55:17 6.4 C 66 %
Sensor: Nr:Datum:Temp:Feuchte:
Aussen-T/F 1526 15-03-2015 17:06:18 6.4 C 66 %
1527 15-03-2015 17:19:17 6.2 C 67 %
1528 15-03-2015 17:30:17 6.3 C 68 %
1529 15-03-2015 17:42:17 6 C 68 %
1530 15-03-2015 17:54:17 6.1 C 67 %
1531 15-03-2015 18:07:17 5.9 C 70 %
1532 15-03-2015 18:18:17 5.8 C 71 %
1533 15-03-2015 18:31:17 5.6 C 73 %
1534 15-03-2015 18:43:17 5.4 C 75 %
1535 15-03-2015 18:55:17 5.1 C 76 %
1536 15-03-2015 19:06:17 4.7 C 77 %
1537 15-03-2015 19:19:17 4.5 C 78 %
1538 15-03-2015 19:31:17 4.2 C 78 %
1539 15-03-2015 19:43:17 3.9 C 80 %
1540 15-03-2015 19:55:17 3.5 C 80 %
1541 15-03-2015 20:07:17 3.4 C 81 %
1542 15-03-2015 20:19:17 3 C 81 %
1543 15-03-2015 20:30:18 2.8 C 82 %
1544 15-03-2015 20:42:18 2.6 C 83 %
1545 15-03-2015 20:55:17 2.4 C 84 %
1546 15-03-2015 21:07:17 2.5 C 85 %
1547 15-03-2015 21:18:17 2 C 86 %
1548 15-03-2015 21:30:17 1.9 C 87 %
1549 15-03-2015 21:42:17 1.8 C 88 %
1550 15-03-2015 21:55:17 1.3 C 88 %
Sensor: Nr:Datum:Temp:Feuchte:
Aussen-T/F 1551 15-03-2015 22:07:17 1.3 C 89 %
1552 15-03-2015 22:19:17 1.2 C 89 %
1553 15-03-2015 22:30:17 0.9 C 90 %
1554 15-03-2015 22:42:17 0.6 C 90 %
1555 15-03-2015 22:55:17 0.5 C 91 %
1556 15-03-2015 23:07:17 0.4 C 91 %
1557 15-03-2015 23:19:17 0.5 C 92 %
1558 15-03-2015 23:31:17 0.3 C 92 %
1559 15-03-2015 23:43:17 0.4 C 92 %
1560 15-03-2015 23:55:17 0.1 C 92 %
1561 16-03-2015 00:06:18 0 C 93 %
1562 16-03-2015 00:19:16 -0.2 C 93 %
1563 16-03-2015 00:31:17 -0.3 C 93 %
1564 16-03-2015 00:43:17 -0.4 C 93 %
1565 16-03-2015 00:55:17 -0.2 C 94 %
1566 16-03-2015 01:07:17 -0.2 C 94 %
1567 16-03-2015 01:18:17 -0.3 C 94 %
1568 16-03-2015 01:30:17 -0.6 C 94 %
1569 16-03-2015 01:42:18 -0.6 C 94 %
1570 16-03-2015 01:55:17 -0.6 C 94 %
1571 16-03-2015 02:07:17 -0.7 C 94 %
1572 16-03-2015 02:19:17 -0.8 C 94 %
1573 16-03-2015 02:31:17 -0.9 C 94 %
1574 16-03-2015 02:42:17 -0.9 C 95 %
1575 16-03-2015 02:55:17 -0.9 C 95 %
Sensor: Nr:Datum:Temp:Feuchte:
Aussen-T/F 1576 16-03-2015 03:07:17 -1 C 95 %
1577 16-03-2015 03:19:17 -1.2 C 95 %
1578 16-03-2015 03:31:16 -1.2 C 95 %
1579 16-03-2015 03:43:16 -1.2 C 95 %
1580 16-03-2015 03:55:17 -1.3 C 95 %
1581 16-03-2015 04:07:17 -1.3 C 95 %
1582 16-03-2015 04:19:17 -1.3 C 95 %
1583 16-03-2015 04:31:16 -1.3 C 95 %
1584 16-03-2015 04:43:16 -1.5 C 95 %
1585 16-03-2015 04:55:16 -1.4 C 95 %
1586 16-03-2015 05:07:17 -1.3 C 95 %
1587 16-03-2015 05:19:16 -1.2 C 95 %
1588 16-03-2015 05:31:17 -1.3 C 95 %
1589 16-03-2015 05:43:17 -1.4 C 95 %
1590 16-03-2015 05:55:17 -1.1 C 95 %
1591 16-03-2015 06:07:17 -1 C 95 %
1592 16-03-2015 06:19:17 -0.9 C 95 %
1593 16-03-2015 06:31:17 -0.9 C 95 %
1594 16-03-2015 06:43:17 -1.2 C 95 %
1595 16-03-2015 06:55:17 -1.3 C 95 %
1596 16-03-2015 07:07:17 -1.4 C 95 %
1597 16-03-2015 07:19:17 -1.3 C 95 %
1598 16-03-2015 07:31:17 -1.3 C 95 %
1599 16-03-2015 07:43:17 -1.1 C 95 %
1600 16-03-2015 07:55:16 -0.8 C 95 %
Sensor: Nr:Datum:Temp:Feuchte:
Aussen-T/F 1601 16-03-2015 08:07:17 -0.6 C 95 %
1602 16-03-2015 08:19:17 -0.3 C 95 %
1603 16-03-2015 08:31:17 0.1 C 95 %
1604 16-03-2015 08:43:17 0.3 C 95 %
1605 16-03-2015 08:55:16 0.8 C 95 %
1606 16-03-2015 09:07:16 1.1 C 95 %
1607 16-03-2015 09:19:16 1.8 C 95 %
1608 16-03-2015 09:31:17 2.2 C 95 %
1609 16-03-2015 09:43:17 2.6 C 95 %
1610 16-03-2015 09:55:17 3 C 95 %
1611 16-03-2015 10:07:17 3.2 C 95 %
1612 16-03-2015 10:19:16 3.6 C 95 %
1613 16-03-2015 10:31:17 4 C 94 %
1614 16-03-2015 10:43:17 4.5 C 93 %
1615 16-03-2015 10:55:17 4.9 C 92 %
1616 16-03-2015 11:07:17 5.2 C 88 %
1617 16-03-2015 11:19:17 5.8 C 84 %
1618 16-03-2015 11:31:16 6.5 C 75 %
1619 16-03-2015 11:43:16 6.9 C 66 %
1620 16-03-2015 11:55:17 6.9 C 62 %
1621 16-03-2015 12:07:16 7.1 C 60 %
1622 16-03-2015 12:19:16 7.4 C 59 %
1623 16-03-2015 12:31:17 7.7 C 58 %
1624 16-03-2015 12:43:18 8 C 57 %
1625 16-03-2015 12:55:16 8.4 C 56 %
Sensor: Nr:Datum:Temp:Feuchte:
Aussen-T/F 1626 16-03-2015 13:07:16 8.7 C 55 %
1627 16-03-2015 13:19:16 9.2 C 54 %
1628 16-03-2015 13:31:16 9.6 C 52 %
1629 16-03-2015 13:43:16 9.8 C 51 %
1630 16-03-2015 13:55:16 10 C 50 %
1631 16-03-2015 14:07:17 10.4 C 50 %
1632 16-03-2015 14:19:17 10.6 C 50 %
1633 16-03-2015 14:31:16 10.9 C 50 %
1634 16-03-2015 14:43:16 11 C 48 %
1635 16-03-2015 14:55:17 11.4 C 47 %
1636 16-03-2015 15:07:16 11.3 C 47 %
1637 16-03-2015 15:19:16 11.7 C 46 %
1638 16-03-2015 15:31:16 12.2 C 44 %
1639 16-03-2015 15:43:16 12.3 C 45 %
1640 16-03-2015 15:55:16 12.8 C 43 %
1641 16-03-2015 16:07:16 12.4 C 43 %
1642 16-03-2015 16:19:17 12.4 C 45 %
1643 16-03-2015 16:31:16 12.8 C 44 %
1644 16-03-2015 16:43:16 12.9 C 45 %
1645 16-03-2015 16:55:16 13.5 C 44 %
1646 16-03-2015 17:07:16 12.9 C 48 %
1647 16-03-2015 17:19:16 11.6 C 54 %
1648 16-03-2015 17:31:16 10.7 C 59 %
1649 16-03-2015 17:43:16 10.4 C 60 %
1650 16-03-2015 17:55:16 10.2 C 61 %
Sensor: Nr:Datum:Temp:Feuchte:
Aussen-T/F 1651 16-03-2015 18:07:16 9.9 C 60 %
1652 16-03-2015 18:19:16 8.6 C 64 %
1653 16-03-2015 18:31:16 7.9 C 67 %
1654 16-03-2015 18:43:16 7.4 C 69 %
1655 16-03-2015 18:55:16 7.1 C 69 %
1656 16-03-2015 19:07:16 6.9 C 70 %
1657 16-03-2015 19:19:16 6.2 C 72 %
1658 16-03-2015 19:31:16 5.8 C 74 %
1659 16-03-2015 19:43:16 6 C 74 %
1660 16-03-2015 19:55:16 5.3 C 74 %
1661 16-03-2015 20:07:16 5 C 76 %
1662 16-03-2015 20:19:16 4.8 C 78 %
1663 16-03-2015 20:31:16 4.8 C 79 %
1664 16-03-2015 20:43:16 4.3 C 79 %
1665 16-03-2015 20:55:16 4.1 C 79 %
1666 16-03-2015 21:07:16 4 C 80 %
1667 16-03-2015 21:19:16 3.7 C 81 %
1668 16-03-2015 21:31:16 3.5 C 82 %
1669 16-03-2015 21:43:16 3.3 C 82 %
1670 16-03-2015 21:55:15 3.5 C 84 %
1671 16-03-2015 22:07:15 3.2 C 84 %
1672 16-03-2015 22:19:15 3.1 C 84 %
1673 16-03-2015 22:31:16 3.1 C 85 %
1674 16-03-2015 22:43:16 3.1 C 85 %
1675 16-03-2015 22:55:15 2.9 C 86 %
Sensor: Nr:Datum:Temp:Feuchte:
Aussen-T/F 1676 16-03-2015 23:07:16 2.5 C 86 %
1677 16-03-2015 23:19:15 2.5 C 87 %
1678 16-03-2015 23:31:16 2.1 C 87 %
1679 16-03-2015 23:43:16 2 C 87 %
1680 16-03-2015 23:55:16 1.8 C 88 %
1681 17-03-2015 00:07:16 1.7 C 89 %
1682 17-03-2015 00:19:16 1.7 C 89 %
1683 17-03-2015 00:31:15 1.8 C 90 %
1684 17-03-2015 00:43:15 1.5 C 90 %
1685 17-03-2015 00:55:15 1.5 C 91 %
1686 17-03-2015 01:07:16 1.3 C 91 %
1687 17-03-2015 01:19:15 1 C 91 %
1688 17-03-2015 01:31:16 0.9 C 92 %
1689 17-03-2015 01:43:16 0.9 C 92 %
1690 17-03-2015 01:55:16 0.7 C 93 %
1691 17-03-2015 02:07:16 0.5 C 93 %
1692 17-03-2015 02:19:15 0.4 C 93 %
1693 17-03-2015 02:31:15 0.4 C 93 %
1694 17-03-2015 02:43:15 0.4 C 93 %
1695 17-03-2015 02:55:17 0.4 C 94 %
1696 17-03-2015 03:07:17 0.5 C 94 %
1697 17-03-2015 03:19:16 0.2 C 94 %
1698 17-03-2015 03:31:17 0.3 C 94 %
1699 17-03-2015 03:43:17 0.1 C 94 %
1700 17-03-2015 03:55:17 0 C 94 %
Sensor: Nr:Datum:Temp:Feuchte:
Aussen-T/F 1701 17-03-2015 04:07:17 -0.1 C 94 %
1702 17-03-2015 04:19:17 -0.2 C 95 %
1703 17-03-2015 04:31:18 -0.1 C 95 %
1704 17-03-2015 04:43:18 -0.2 C 95 %
1705 17-03-2015 04:55:17 0 C 95 %
1706 17-03-2015 05:07:17 0.1 C 95 %
1707 17-03-2015 05:19:17 -0.3 C 95 %
1708 17-03-2015 05:31:17 -0.4 C 95 %
1709 17-03-2015 05:43:17 -0.4 C 95 %
1710 17-03-2015 05:55:17 -0.4 C 95 %
1711 17-03-2015 06:07:17 -0.4 C 95 %
1712 17-03-2015 06:19:17 -0.4 C 95 %
1713 17-03-2015 06:31:17 -0.4 C 95 %
1714 17-03-2015 06:43:17 -0.3 C 95 %
1715 17-03-2015 06:55:17 -0.1 C 95 %
1716 17-03-2015 07:07:17 -0.2 C 95 %
1717 17-03-2015 07:19:17 0.3 C 95 %
1718 17-03-2015 07:31:17 0.6 C 95 %
1719 17-03-2015 07:43:17 0.8 C 95 %
1720 17-03-2015 07:55:17 0.9 C 95 %
1721 17-03-2015 08:07:17 0.9 C 95 %
1722 17-03-2015 08:19:17 1.1 C 95 %
1723 17-03-2015 08:31:17 1.1 C 95 %
1724 17-03-2015 08:43:17 1.2 C 95 %
1725 17-03-2015 08:55:17 1.4 C 95 %
Sensor: Nr:Datum:Temp:Feuchte:
Aussen-T/F 1726 17-03-2015 09:07:17 1.6 C 95 %
1727 17-03-2015 09:19:17 1.7 C 95 %
1728 17-03-2015 09:31:17 1.9 C 95 %
1729 17-03-2015 09:43:17 2.1 C 95 %
1730 17-03-2015 09:55:17 2.9 C 95 %
1731 17-03-2015 10:07:17 3.5 C 95 %
1732 17-03-2015 10:19:17 4.4 C 95 %
1733 17-03-2015 10:31:17 5.3 C 94 %
1734 17-03-2015 10:43:17 5.8 C 92 %
1735 17-03-2015 10:55:17 6.5 C 90 %
1736 17-03-2015 11:07:17 7 C 86 %
1737 17-03-2015 11:19:17 7.7 C 83 %
1738 17-03-2015 11:31:17 8.2 C 78 %
1739 17-03-2015 11:43:17 8.8 C 72 %
1740 17-03-2015 11:55:17 9.5 C 68 %
1741 17-03-2015 12:07:17 10.2 C 59 %
1742 17-03-2015 12:19:17 10.7 C 58 %
1743 17-03-2015 12:31:17 11.2 C 55 %
1744 17-03-2015 12:43:17 11.6 C 55 %
1745 17-03-2015 12:55:17 12.1 C 50 %
1746 17-03-2015 13:07:17 12.5 C 49 %
1747 17-03-2015 13:19:17 13.1 C 45 %
1748 17-03-2015 13:31:17 13.6 C 43 %
1749 17-03-2015 13:43:17 14.2 C 40 %
1750 17-03-2015 13:55:17 14.3 C 40 %
Sensor: Nr:Datum:Temp:Feuchte:
Aussen-T/F 1751 17-03-2015 14:07:17 14.6 C 41 %
1752 17-03-2015 14:19:17 14.9 C 39 %
1753 17-03-2015 14:31:17 15.2 C 39 %
1754 17-03-2015 14:43:17 15.1 C 40 %
1755 17-03-2015 14:55:17 15.9 C 37 %
1756 17-03-2015 15:07:17 16.2 C 36 %
1757 17-03-2015 15:19:17 17.4 C 34 %
1758 17-03-2015 15:31:18 17.9 C 32 %
1759 17-03-2015 15:43:18 17.7 C 32 %
1760 17-03-2015 15:55:17 18.2 C 32 %
1761 17-03-2015 16:07:17 18.2 C 30 %
1762 17-03-2015 16:19:17 17.5 C 32 %
1763 17-03-2015 16:31:17 17.1 C 32 %
1764 17-03-2015 16:43:17 17.2 C 35 %
1765 17-03-2015 16:55:17 17.7 C 31 %
1766 17-03-2015 17:07:17 16.8 C 36 %
1767 17-03-2015 17:19:17 15.8 C 42 %
1768 17-03-2015 17:31:17 15.1 C 46 %
1769 17-03-2015 17:43:17 14.5 C 49 %
1770 17-03-2015 17:55:17 13.7 C 51 %
1771 17-03-2015 18:07:17 14 C 49 %
1772 17-03-2015 18:19:17 12.1 C 54 %
1773 17-03-2015 18:31:18 11.4 C 57 %
1774 17-03-2015 18:43:18 10.7 C 60 %
1775 17-03-2015 18:55:16 10.1 C 61 %
Sensor: Nr:Datum:Temp:Feuchte:
Aussen-T/F 1776 17-03-2015 19:07:17 9.8 C 63 %
1777 17-03-2015 19:19:17 9.8 C 64 %
1778 17-03-2015 19:31:17 9.5 C 63 %
1779 17-03-2015 19:43:17 9.2 C 64 %
1780 17-03-2015 19:55:17 8.7 C 65 %
1781 17-03-2015 20:07:17 8.2 C 67 %
1782 17-03-2015 20:19:17 8.1 C 70 %
1783 17-03-2015 20:31:17 8.1 C 69 %
1784 17-03-2015 20:43:17 7.8 C 71 %
1785 17-03-2015 20:55:17 7.8 C 71 %
1786 17-03-2015 21:07:17 7.2 C 72 %
1787 17-03-2015 21:19:17 7 C 72 %
1788 17-03-2015 21:31:17 6.6 C 74 %
1789 17-03-2015 21:43:17 6 C 75 %
1790 17-03-2015 21:55:17 5.6 C 78 %
1791 17-03-2015 22:07:17 5.3 C 79 %
1792 17-03-2015 22:19:17 5.3 C 80 %
1793 17-03-2015 22:31:17 5 C 81 %
1794 17-03-2015 22:43:17 4.8 C 82 %
1795 17-03-2015 22:55:16 4.8 C 83 %
1796 17-03-2015 23:07:17 4.4 C 83 %
1797 17-03-2015 23:19:17 4.3 C 83 %
1798 17-03-2015 23:31:17 4.1 C 84 %
1799 17-03-2015 23:43:17 4 C 85 %
1800 17-03-2015 23:55:17 4 C 86 %
Sensor: Nr:Datum:Temp:Feuchte:
Aussen-T/F 1801 18-03-2015 00:07:17 3.8 C 87 %
1802 18-03-2015 00:19:17 3.6 C 87 %
1803 18-03-2015 00:31:17 3.5 C 88 %
1804 18-03-2015 00:43:17 3.8 C 89 %
1805 18-03-2015 00:55:17 3.3 C 88 %
1806 18-03-2015 01:07:17 3.2 C 88 %
1807 18-03-2015 01:19:17 3.1 C 89 %
1808 18-03-2015 01:31:17 2.8 C 90 %
1809 18-03-2015 01:43:17 2.7 C 90 %
1810 18-03-2015 01:55:17 2.6 C 91 %
1811 18-03-2015 02:07:17 2.4 C 91 %
1812 18-03-2015 02:19:17 2.7 C 92 %
1813 18-03-2015 02:31:17 2.6 C 92 %
1814 18-03-2015 02:43:18 2.5 C 92 %
1815 18-03-2015 02:55:17 2.2 C 92 %
1816 18-03-2015 03:07:17 2.3 C 93 %
1817 18-03-2015 03:19:17 2.2 C 93 %
1818 18-03-2015 03:31:17 2 C 93 %
1819 18-03-2015 03:43:17 1.8 C 94 %
1820 18-03-2015 03:55:17 1.9 C 94 %
1821 18-03-2015 04:07:17 1.7 C 94 %
1822 18-03-2015 04:19:17 1.8 C 95 %
1823 18-03-2015 04:31:17 1.7 C 95 %
1824 18-03-2015 04:43:17 1.4 C 95 %
1825 18-03-2015 04:55:17 1.7 C 95 %
Sensor: Nr:Datum:Temp:Feuchte:
Aussen-T/F 1826 18-03-2015 05:07:17 1.4 C 95 %
1827 18-03-2015 05:19:16 1.1 C 95 %
1828 18-03-2015 05:31:17 1.4 C 95 %
1829 18-03-2015 05:43:17 1 C 95 %
1830 18-03-2015 05:55:17 0.9 C 95 %
1831 18-03-2015 06:07:17 0.8 C 95 %
1832 18-03-2015 06:19:17 0.8 C 95 %
1833 18-03-2015 06:31:17 0.6 C 95 %
1834 18-03-2015 06:43:17 0.5 C 95 %
1835 18-03-2015 06:55:17 0.6 C 95 %
1836 18-03-2015 07:07:17 1 C 95 %
1837 18-03-2015 07:19:17 1 C 95 %
1838 18-03-2015 07:31:17 1.2 C 95 %
1839 18-03-2015 07:43:17 1.2 C 95 %
1840 18-03-2015 07:55:17 1.5 C 95 %
1841 18-03-2015 08:07:17 1.5 C 95 %
1842 18-03-2015 08:19:16 1.7 C 95 %
1843 18-03-2015 08:31:17 1.8 C 95 %
1844 18-03-2015 08:43:17 2.3 C 95 %
1845 18-03-2015 08:55:17 2.7 C 95 %
1846 18-03-2015 09:07:17 3.1 C 95 %
1847 18-03-2015 09:19:17 3.4 C 95 %
1848 18-03-2015 09:31:17 3.8 C 95 %
1849 18-03-2015 09:43:17 4.4 C 95 %
1850 18-03-2015 09:55:17 5 C 95 %
Sensor: Nr:Datum:Temp:Feuchte:
Aussen-T/F 1851 18-03-2015 10:07:17 5.4 C 94 %
1852 18-03-2015 10:19:17 5.9 C 94 %
1853 18-03-2015 10:31:17 6.7 C 92 %
1854 18-03-2015 10:43:17 7.1 C 89 %
1855 18-03-2015 10:55:17 7.7 C 87 %
1856 18-03-2015 11:07:17 8.3 C 84 %
1857 18-03-2015 11:19:17 9.2 C 80 %
1858 18-03-2015 11:31:17 9.8 C 77 %
1859 18-03-2015 11:43:17 10.3 C 70 %
1860 18-03-2015 11:55:17 11 C 65 %
1861 18-03-2015 12:07:17 11.7 C 61 %
1862 18-03-2015 12:19:16 12.2 C 59 %
1863 18-03-2015 12:31:17 12.6 C 59 %
1864 18-03-2015 12:43:17 13.1 C 55 %
1865 18-03-2015 12:55:17 13.6 C 52 %
1866 18-03-2015 13:07:17 13.9 C 50 %
1867 18-03-2015 13:19:17 14.3 C 49 %
1868 18-03-2015 13:31:17 14.7 C 48 %
1869 18-03-2015 13:43:17 15.1 C 46 %
1870 18-03-2015 13:55:17 15.5 C 46 %
1871 18-03-2015 14:07:17 16 C 44 %
1872 18-03-2015 14:19:17 16 C 42 %
1873 18-03-2015 14:31:17 16.4 C 41 %
1874 18-03-2015 14:43:17 16.6 C 41 %
1875 18-03-2015 14:55:17 16.8 C 41 %
Sensor: Nr:Datum:Temp:Feuchte:
Aussen-T/F 1876 18-03-2015 15:07:17 16.9 C 40 %
1877 18-03-2015 15:19:17 16.9 C 41 %
1878 18-03-2015 15:31:17 17.3 C 41 %
1879 18-03-2015 15:43:17 17.2 C 40 %
1880 18-03-2015 15:55:17 17.8 C 40 %
1881 18-03-2015 16:07:17 18.6 C 38 %
1882 18-03-2015 16:19:17 18.3 C 36 %
1883 18-03-2015 16:31:17 18.3 C 37 %
1884 18-03-2015 16:43:17 17.5 C 37 %
1885 18-03-2015 16:55:17 17.2 C 37 %
1886 18-03-2015 17:07:17 17.2 C 37 %
1887 18-03-2015 17:19:17 17.2 C 39 %
1888 18-03-2015 17:31:17 17.2 C 40 %
1889 18-03-2015 17:43:17 16.2 C 42 %
1890 18-03-2015 17:55:17 15.6 C 45 %
1891 18-03-2015 18:07:17 14.7 C 48 %
1892 18-03-2015 18:19:17 14.2 C 48 %
1893 18-03-2015 18:31:17 13.2 C 52 %
1894 18-03-2015 18:43:17 12.1 C 55 %
1895 18-03-2015 18:55:17 11.6 C 59 %
1896 18-03-2015 19:07:17 11.6 C 57 %
1897 18-03-2015 19:19:16 10.8 C 61 %
1898 18-03-2015 19:31:17 10.8 C 61 %
1899 18-03-2015 19:43:17 11.5 C 59 %
1900 18-03-2015 19:55:17 11.5 C 58 %
Sensor: Nr:Datum:Temp:Feuchte:
Aussen-T/F 1901 18-03-2015 20:07:17 11.2 C 58 %
1902 18-03-2015 20:19:17 11.4 C 58 %
1903 18-03-2015 20:31:17 10.9 C 60 %
1904 18-03-2015 20:43:17 11.1 C 59 %
1905 18-03-2015 20:55:17 11 C 60 %
1906 18-03-2015 21:07:17 10.4 C 63 %
1907 18-03-2015 21:19:17 10.4 C 66 %
1908 18-03-2015 21:31:17 9.8 C 70 %
1909 18-03-2015 21:43:18 9.5 C 72 %
1910 18-03-2015 21:55:17 9.8 C 74 %
1911 18-03-2015 22:07:17 9.3 C 74 %
1912 18-03-2015 22:19:17 8.9 C 77 %
1913 18-03-2015 22:31:18 8.6 C 78 %
1914 18-03-2015 22:43:18 8.6 C 79 %
1915 18-03-2015 22:55:17 8.5 C 79 %
1916 18-03-2015 23:07:17 8.7 C 81 %
1917 18-03-2015 23:19:17 8.6 C 80 %
1918 18-03-2015 23:31:17 8.5 C 81 %
1919 18-03-2015 23:43:17 8.7 C 80 %
1920 18-03-2015 23:55:17 8.7 C 79 %
1921 19-03-2015 00:07:17 8.7 C 79 %
1922 19-03-2015 00:19:17 8.6 C 78 %
1923 19-03-2015 00:31:17 8.6 C 79 %
1924 19-03-2015 00:43:17 8.5 C 79 %
1925 19-03-2015 00:55:17 8.5 C 79 %
Sensor: Nr:Datum:Temp:Feuchte:
Aussen-T/F 1926 19-03-2015 01:07:17 8.4 C 79 %
1927 19-03-2015 01:19:17 8.3 C 80 %
1928 19-03-2015 01:31:17 8.2 C 80 %
1929 19-03-2015 01:43:17 8.2 C 81 %
1930 19-03-2015 01:55:17 8.1 C 81 %
1931 19-03-2015 02:07:17 8.1 C 81 %
1932 19-03-2015 02:19:17 8 C 82 %
1933 19-03-2015 02:31:17 7.9 C 83 %
1934 19-03-2015 02:43:17 7.8 C 83 %
1935 19-03-2015 02:55:17 7.8 C 84 %
1936 19-03-2015 03:07:17 7.6 C 84 %
1937 19-03-2015 03:19:17 7.6 C 85 %
1938 19-03-2015 03:31:17 7.5 C 85 %
1939 19-03-2015 03:43:17 7.4 C 85 %
1940 19-03-2015 03:55:17 7.4 C 86 %
1941 19-03-2015 04:07:17 7.3 C 86 %
1942 19-03-2015 04:19:17 7.3 C 86 %
1943 19-03-2015 04:31:17 7.3 C 87 %
1944 19-03-2015 04:43:17 7.2 C 87 %
1945 19-03-2015 04:55:17 7.1 C 87 %
1946 19-03-2015 05:07:17 7.1 C 87 %
1947 19-03-2015 05:19:17 7.1 C 87 %
1948 19-03-2015 05:31:16 7 C 88 %
1949 19-03-2015 05:43:17 7 C 88 %
1950 19-03-2015 05:55:16 6.9 C 89 %
Sensor: Nr:Datum:Temp:Feuchte:
Aussen-T/F 1951 19-03-2015 06:07:17 6.9 C 89 %
1952 19-03-2015 06:19:17 6.8 C 89 %
1953 19-03-2015 06:31:17 6.8 C 89 %
1954 19-03-2015 06:43:17 6.8 C 89 %
1955 19-03-2015 06:55:17 6.8 C 89 %
1956 19-03-2015 07:07:17 6.7 C 89 %
1957 19-03-2015 07:19:17 6.7 C 90 %
1958 19-03-2015 07:31:17 6.8 C 90 %
1959 19-03-2015 07:43:17 6.7 C 90 %
1960 19-03-2015 07:55:17 6.7 C 90 %
1961 19-03-2015 08:07:17 6.8 C 89 %
1962 19-03-2015 08:19:17 6.9 C 89 %
1963 19-03-2015 08:31:17 6.9 C 89 %
1964 19-03-2015 08:43:17 6.9 C 88 %
1965 19-03-2015 08:55:17 7 C 86 %
1966 19-03-2015 09:07:17 7.1 C 85 %
1967 19-03-2015 09:19:17 7.3 C 83 %
1968 19-03-2015 09:31:17 7.5 C 82 %
1969 19-03-2015 09:43:17 7.7 C 80 %
1970 19-03-2015 09:55:17 7.7 C 79 %
1971 19-03-2015 10:07:17 7.8 C 78 %
1972 19-03-2015 10:19:17 7.9 C 77 %
1973 19-03-2015 10:31:17 7.9 C 76 %
1974 19-03-2015 10:43:18 7.9 C 76 %
1975 19-03-2015 10:55:17 7.9 C 76 %
Sensor: Nr:Datum:Temp:Feuchte:
Aussen-T/F 1976 19-03-2015 11:07:17 7.8 C 76 %
1977 19-03-2015 11:19:17 7.8 C 77 %
1978 19-03-2015 11:31:17 7.8 C 78 %
1979 19-03-2015 11:43:17 7.9 C 78 %
1980 19-03-2015 11:55:17 8 C 76 %
1981 19-03-2015 12:07:17 8 C 76 %
1982 19-03-2015 12:19:16 8.1 C 76 %
1983 19-03-2015 12:31:17 8 C 76 %
1984 19-03-2015 12:43:17 7.8 C 78 %
1985 19-03-2015 12:55:17 7.9 C 78 %
1986 19-03-2015 13:07:17 8.1 C 77 %
1987 19-03-2015 13:19:17 8.1 C 77 %
1988 19-03-2015 13:31:17 8.1 C 77 %
1989 19-03-2015 13:43:17 7.9 C 78 %
1990 19-03-2015 13:55:17 8 C 77 %
1991 19-03-2015 14:07:17 8 C 77 %
1992 19-03-2015 14:19:17 8.1 C 77 %
1993 19-03-2015 14:31:17 8.2 C 77 %
1994 19-03-2015 14:43:17 8.2 C 76 %
1995 19-03-2015 14:55:17 8.4 C 76 %
1996 19-03-2015 15:07:17 8.4 C 75 %
1997 19-03-2015 15:19:17 8.4 C 75 %
1998 19-03-2015 15:31:17 8.5 C 75 %
1999 19-03-2015 15:43:17 8.7 C 74 %
2000 19-03-2015 15:55:17 8.7 C 73 %
Sensor: Nr:Datum:Temp:Feuchte:
Aussen-T/F 2001 19-03-2015 16:07:17 8.6 C 74 %
2002 19-03-2015 16:19:17 8.6 C 74 %
2003 19-03-2015 16:31:17 8.5 C 74 %
2004 19-03-2015 16:43:17 8.4 C 75 %
2005 19-03-2015 16:55:17 8.4 C 75 %
2006 19-03-2015 17:07:17 8.2 C 75 %
2007 19-03-2015 17:19:17 8.1 C 76 %
2008 19-03-2015 17:31:17 8.2 C 76 %
2009 19-03-2015 17:43:17 8.1 C 76 %
2010 19-03-2015 17:55:17 8.1 C 76 %
2011 19-03-2015 18:07:17 8.1 C 76 %
2012 19-03-2015 18:19:17 7.9 C 77 %
2013 19-03-2015 18:31:17 7.9 C 77 %
2014 19-03-2015 18:43:17 7.9 C 78 %
2015 19-03-2015 18:55:17 7.8 C 78 %
2016 19-03-2015 19:07:17 7.8 C 78 %
2017 19-03-2015 19:19:17 7.7 C 78 %
2018 19-03-2015 19:31:17 7.7 C 78 %
2019 19-03-2015 19:43:17 7.7 C 78 %
2020 19-03-2015 19:55:17 7.6 C 78 %
2021 19-03-2015 20:07:17 7.6 C 78 %
2022 19-03-2015 20:19:17 7.6 C 78 %
2023 19-03-2015 20:31:17 7.5 C 78 %
2024 19-03-2015 20:43:17 7.5 C 78 %
2025 19-03-2015 20:55:17 7.4 C 78 %
Sensor: Nr:Datum:Temp:Feuchte:
Aussen-T/F 2026 19-03-2015 21:07:17 7.4 C 78 %
2027 19-03-2015 21:19:16 7.4 C 78 %
2028 19-03-2015 21:31:17 7.4 C 78 %
2029 19-03-2015 21:43:17 7.4 C 78 %
2030 19-03-2015 21:55:17 7.3 C 78 %
2031 19-03-2015 22:07:17 7.3 C 79 %
2032 19-03-2015 22:19:17 7.3 C 79 %
2033 19-03-2015 22:31:17 7.3 C 79 %
2034 19-03-2015 22:43:17 7.3 C 79 %
2035 19-03-2015 22:55:17 7.3 C 79 %
2036 19-03-2015 23:07:17 7.2 C 79 %
2037 19-03-2015 23:19:17 7.2 C 79 %
2038 19-03-2015 23:31:17 7.1 C 79 %
2039 19-03-2015 23:43:17 7.1 C 79 %
2040 19-03-2015 23:55:17 7.1 C 79 %
2041 20-03-2015 00:07:17 7.1 C 79 %
2042 20-03-2015 00:19:17 7 C 79 %
2043 20-03-2015 00:31:17 7 C 79 %
2044 20-03-2015 00:43:17 6.9 C 80 %
2045 20-03-2015 00:55:17 6.9 C 80 %
2046 20-03-2015 01:07:17 6.9 C 80 %
2047 20-03-2015 01:19:17 6.9 C 80 %
2048 20-03-2015 01:31:17 6.9 C 80 %
2049 20-03-2015 01:43:17 6.9 C 79 %
2050 20-03-2015 01:55:17 6.8 C 79 %
Sensor: Nr:Datum:Temp:Feuchte:
Aussen-T/F 2051 20-03-2015 02:07:17 6.7 C 80 %
2052 20-03-2015 02:19:17 6.7 C 80 %
2053 20-03-2015 02:31:17 6.7 C 80 %
2054 20-03-2015 02:43:17 6.7 C 79 %
2055 20-03-2015 02:55:17 6.7 C 79 %
2056 20-03-2015 03:07:17 6.7 C 78 %
2057 20-03-2015 03:19:17 6.6 C 78 %
2058 20-03-2015 03:31:17 6.6 C 77 %
2059 20-03-2015 03:43:17 6.5 C 77 %
2060 20-03-2015 03:55:17 6.5 C 77 %
2061 20-03-2015 04:07:17 6.4 C 77 %
2062 20-03-2015 04:19:17 6.4 C 77 %
2063 20-03-2015 04:31:17 6.3 C 77 %
2064 20-03-2015 04:43:17 6.3 C 77 %
2065 20-03-2015 04:55:17 6.3 C 77 %
2066 20-03-2015 05:07:17 6.2 C 77 %
2067 20-03-2015 05:19:17 6.2 C 77 %
2068 20-03-2015 05:31:17 6.1 C 77 %
2069 20-03-2015 05:43:17 6.1 C 77 %
2070 20-03-2015 05:55:17 6 C 77 %
2071 20-03-2015 06:07:17 6 C 77 %
2072 20-03-2015 06:19:17 6 C 77 %
2073 20-03-2015 06:31:17 5.9 C 78 %
2074 20-03-2015 06:43:17 5.9 C 78 %
2075 20-03-2015 06:55:17 5.9 C 78 %
Sensor: Nr:Datum:Temp:Feuchte:
Aussen-T/F 2076 20-03-2015 07:07:17 6 C 77 %
2077 20-03-2015 07:19:17 6 C 77 %
2078 20-03-2015 07:31:17 6.1 C 77 %
2079 20-03-2015 07:43:18 6.2 C 76 %
2080 20-03-2015 07:55:17 6.2 C 76 %
2081 20-03-2015 08:07:17 6.3 C 75 %
2082 20-03-2015 08:19:17 6.4 C 74 %
2083 20-03-2015 08:31:17 6.7 C 73 %
2084 20-03-2015 08:43:17 6.7 C 72 %
2085 20-03-2015 08:55:17 6.8 C 71 %
2086 20-03-2015 09:07:17 7 C 69 %
2087 20-03-2015 09:19:17 7.1 C 68 %
2088 20-03-2015 09:31:17 7.3 C 67 %
2089 20-03-2015 09:43:17 7.3 C 66 %
2090 20-03-2015 09:55:17 7.5 C 66 %
2091 20-03-2015 10:07:17 7.5 C 66 %
2092 20-03-2015 10:19:17 7.3 C 65 %
2093 20-03-2015 10:31:17 6.9 C 67 %
2094 20-03-2015 10:43:17 6.8 C 68 %
2095 20-03-2015 10:55:17 6.8 C 69 %
2096 20-03-2015 11:07:17 7.1 C 67 %
2097 20-03-2015 11:19:17 7.4 C 65 %
2098 20-03-2015 11:31:17 8 C 63 %
2099 20-03-2015 11:43:17 7.8 C 62 %
2100 20-03-2015 11:55:17 8 C 62 %
Sensor: Nr:Datum:Temp:Feuchte:
Aussen-T/F 2101 20-03-2015 12:07:17 8.1 C 62 %
2102 20-03-2015 12:19:17 8 C 62 %
2103 20-03-2015 12:31:17 8.4 C 61 %
2104 20-03-2015 12:43:18 8.6 C 60 %
2105 20-03-2015 12:55:17 8.9 C 60 %
2106 20-03-2015 13:07:17 9.2 C 57 %
2107 20-03-2015 13:19:17 9.6 C 56 %
2108 20-03-2015 13:31:17 10.1 C 55 %
2109 20-03-2015 13:43:17 10.5 C 53 %
2110 20-03-2015 13:55:17 10.7 C 52 %
2111 20-03-2015 14:07:17 11.1 C 50 %
2112 20-03-2015 14:19:17 11.5 C 50 %
2113 20-03-2015 14:31:17 12 C 48 %
2114 20-03-2015 14:43:17 12.3 C 46 %
2115 20-03-2015 14:55:17 12.6 C 45 %
2116 20-03-2015 15:07:17 13.6 C 43 %
2117 20-03-2015 15:19:17 14.8 C 41 %
2118 20-03-2015 15:31:17 14.6 C 39 %
2119 20-03-2015 15:43:17 14.5 C 38 %
2120 20-03-2015 15:55:17 16.1 C 36 %
2121 20-03-2015 16:07:17 16.6 C 35 %
2122 20-03-2015 16:19:17 16.4 C 34 %
2123 20-03-2015 16:31:17 16 C 35 %
2124 20-03-2015 16:43:17 15.6 C 35 %
2125 20-03-2015 16:55:17 15.5 C 34 %
Sensor: Nr:Datum:Temp:Feuchte:
Aussen-T/F 2126 20-03-2015 17:07:17 15.4 C 35 %
2127 20-03-2015 17:19:17 16 C 32 %
2128 20-03-2015 17:31:17 15.7 C 36 %
2129 20-03-2015 17:43:17 14.9 C 41 %
2130 20-03-2015 17:55:17 13.3 C 45 %
2131 20-03-2015 18:07:17 11.4 C 51 %
2132 20-03-2015 18:19:17 10.2 C 56 %
2133 20-03-2015 18:31:17 9.7 C 59 %
2134 20-03-2015 18:43:17 8.7 C 62 %
2135 20-03-2015 18:55:17 7.9 C 65 %
2136 20-03-2015 19:07:17 7.7 C 68 %
2137 20-03-2015 19:19:17 7.4 C 68 %
2138 20-03-2015 19:31:17 6.9 C 71 %
2139 20-03-2015 19:43:17 7 C 71 %
2140 20-03-2015 19:55:17 6.7 C 71 %
2141 20-03-2015 20:07:17 6.3 C 74 %
2142 20-03-2015 20:19:16 6 C 74 %
2143 20-03-2015 20:31:17 5.4 C 77 %
2144 20-03-2015 20:43:17 5 C 79 %
2145 20-03-2015 20:55:17 4.9 C 82 %
2146 20-03-2015 21:07:17 4.8 C 83 %
2147 20-03-2015 21:19:17 4.6 C 84 %
2148 20-03-2015 21:31:17 4.3 C 84 %
2149 20-03-2015 21:43:17 4.1 C 85 %
2150 20-03-2015 21:55:17 3.7 C 86 %
Sensor: Nr:Datum:Temp:Feuchte:
Aussen-T/F 2151 20-03-2015 22:07:17 3.7 C 86 %
2152 20-03-2015 22:19:17 3.8 C 87 %
2153 20-03-2015 22:31:17 4 C 88 %
2154 20-03-2015 22:43:17 3.8 C 89 %
2155 20-03-2015 22:55:17 3.7 C 89 %
2156 20-03-2015 23:07:17 4.3 C 89 %
2157 20-03-2015 23:19:17 4.7 C 90 %
2158 20-03-2015 23:31:17 4.9 C 90 %
2159 20-03-2015 23:43:17 5.1 C 89 %
2160 20-03-2015 23:55:17 5.2 C 88 %
2161 21-03-2015 00:07:18 5.3 C 88 %
2162 21-03-2015 00:19:17 5.4 C 87 %
2163 21-03-2015 00:31:17 5.4 C 86 %
2164 21-03-2015 00:43:17 5.5 C 85 %
2165 21-03-2015 00:55:17 5.4 C 84 %
2166 21-03-2015 01:07:17 5.4 C 83 %
2167 21-03-2015 01:19:17 5.4 C 83 %
2168 21-03-2015 01:31:17 5.4 C 83 %
2169 21-03-2015 01:43:17 5.5 C 83 %
2170 21-03-2015 01:55:17 5.5 C 82 %
2171 21-03-2015 02:07:17 5.5 C 82 %
2172 21-03-2015 02:19:16 5.5 C 82 %
2173 21-03-2015 02:31:17 5.5 C 81 %
2174 21-03-2015 02:43:17 5.4 C 80 %
2175 21-03-2015 02:55:17 5.3 C 80 %
Sensor: Nr:Datum:Temp:Feuchte:
Aussen-T/F 2176 21-03-2015 03:07:17 5.3 C 80 %
2177 21-03-2015 03:19:17 5.3 C 81 %
2178 21-03-2015 03:31:17 5.3 C 81 %
2179 21-03-2015 03:43:17 5.3 C 81 %
2180 21-03-2015 03:55:17 5.3 C 81 %
2181 21-03-2015 04:07:17 5.2 C 80 %
2182 21-03-2015 04:19:17 5.2 C 80 %
2183 21-03-2015 04:31:17 5.2 C 80 %
2184 21-03-2015 04:43:17 5.1 C 80 %
2185 21-03-2015 04:55:17 5 C 81 %
2186 21-03-2015 05:07:18 4.9 C 82 %
2187 21-03-2015 05:19:17 4.8 C 82 %
2188 21-03-2015 05:31:17 4.7 C 82 %
2189 21-03-2015 05:43:17 4.8 C 82 %
2190 21-03-2015 05:55:17 4.7 C 82 %
2191 21-03-2015 06:07:17 4.6 C 81 %
2192 21-03-2015 06:19:17 4.6 C 80 %
2193 21-03-2015 06:31:17 4.5 C 79 %
2194 21-03-2015 06:43:17 4.6 C 79 %
2195 21-03-2015 06:55:17 4.7 C 78 %
2196 21-03-2015 07:07:17 4.8 C 77 %
2197 21-03-2015 07:19:17 4.8 C 76 %
2198 21-03-2015 07:31:17 5 C 74 %
2199 21-03-2015 07:43:17 5 C 74 %
2200 21-03-2015 07:55:17 5 C 74 %
Sensor: Nr:Datum:Temp:Feuchte:
Aussen-T/F 2201 21-03-2015 08:07:17 5.1 C 74 %
2202 21-03-2015 08:19:17 5.2 C 74 %
2203 21-03-2015 08:31:17 5.2 C 73 %
2204 21-03-2015 08:43:17 5.7 C 73 %
2205 21-03-2015 08:55:17 6 C 70 %
2206 21-03-2015 09:07:17 5.5 C 72 %
2207 21-03-2015 09:19:17 5.5 C 74 %
2208 21-03-2015 09:31:17 5.3 C 74 %
2209 21-03-2015 09:43:17 5.4 C 75 %
2210 21-03-2015 09:55:17 5.1 C 76 %
2211 21-03-2015 10:07:17 5.1 C 78 %
2212 21-03-2015 10:19:17 5.1 C 79 %
2213 21-03-2015 10:31:17 5.2 C 79 %
2214 21-03-2015 10:43:17 5.3 C 81 %
2215 21-03-2015 10:55:17 5.3 C 81 %
2216 21-03-2015 11:07:17 5.4 C 81 %
2217 21-03-2015 11:19:16 5.4 C 82 %
2218 21-03-2015 11:31:17 5.4 C 83 %
2219 21-03-2015 11:43:17 5.7 C 84 %
2220 21-03-2015 11:55:17 6.1 C 82 %
2221 21-03-2015 12:07:17 6.1 C 78 %
2222 21-03-2015 12:19:17 6.7 C 74 %
2223 21-03-2015 12:31:17 6.9 C 71 %
2224 21-03-2015 12:43:17 7.5 C 67 %
2225 21-03-2015 12:55:17 7.9 C 64 %
Sensor: Nr:Datum:Temp:Feuchte:
Aussen-T/F 2226 21-03-2015 13:07:17 7.4 C 62 %
2227 21-03-2015 13:19:17 8.2 C 61 %
2228 21-03-2015 13:31:17 9.1 C 57 %
2229 21-03-2015 13:43:17 9.1 C 55 %
2230 21-03-2015 13:55:17 8.5 C 57 %
2231 21-03-2015 14:07:17 7.8 C 58 %
2232 21-03-2015 14:19:17 7.3 C 60 %
2233 21-03-2015 14:31:17 7.3 C 61 %
2234 21-03-2015 14:43:17 7.5 C 61 %
2235 21-03-2015 14:55:17 7.4 C 60 %
2236 21-03-2015 15:07:17 7.3 C 61 %
2237 21-03-2015 15:19:17 7.3 C 62 %
2238 21-03-2015 15:31:17 7.1 C 64 %
2239 21-03-2015 15:43:17 6.8 C 68 %
2240 21-03-2015 15:55:17 6.4 C 73 %
2241 21-03-2015 16:07:17 6 C 78 %
2242 21-03-2015 16:19:17 5.9 C 82 %
2243 21-03-2015 16:31:17 5.4 C 84 %
2244 21-03-2015 16:43:17 5.4 C 85 %
2245 21-03-2015 16:55:17 5.6 C 86 %
2246 21-03-2015 17:07:17 6 C 84 %
2247 21-03-2015 17:19:17 6.7 C 82 %
2248 21-03-2015 17:31:17 6.2 C 81 %
2249 21-03-2015 17:43:17 6 C 82 %
2250 21-03-2015 17:55:17 5.8 C 84 %
Sensor: Nr:Datum:Temp:Feuchte:
Aussen-T/F 2251 21-03-2015 18:07:17 5.6 C 86 %
2252 21-03-2015 18:19:17 5.8 C 86 %
2253 21-03-2015 18:31:17 5.7 C 86 %
2254 21-03-2015 18:43:17 5.8 C 86 %
2255 21-03-2015 18:55:17 5.9 C 84 %
2256 21-03-2015 19:07:17 5.9 C 82 %
2257 21-03-2015 19:19:17 5.6 C 82 %
2258 21-03-2015 19:31:17 5.4 C 84 %
2259 21-03-2015 19:43:17 5.2 C 86 %
2260 21-03-2015 19:55:17 5.2 C 87 %
2261 21-03-2015 20:07:17 5.1 C 88 %
2262 21-03-2015 20:19:17 5 C 89 %
2263 21-03-2015 20:31:17 5 C 90 %
2264 21-03-2015 20:43:17 4.9 C 91 %
2265 21-03-2015 20:55:17 4.7 C 92 %
2266 21-03-2015 21:07:17 4.3 C 92 %
2267 21-03-2015 21:19:16 4.2 C 92 %
2268 21-03-2015 21:31:17 4.2 C 92 %
2269 21-03-2015 21:43:17 4.4 C 93 %
2270 21-03-2015 21:55:17 4.5 C 93 %
2271 21-03-2015 22:07:17 4.4 C 93 %
2272 21-03-2015 22:19:17 4.4 C 94 %
2273 21-03-2015 22:31:17 4.6 C 94 %
2274 21-03-2015 22:43:17 4.6 C 94 %
2275 21-03-2015 22:55:17 4.5 C 94 %
Sensor: Nr:Datum:Temp:Feuchte:
Aussen-T/F 2276 21-03-2015 23:07:17 4.6 C 95 %
2277 21-03-2015 23:19:17 4.8 C 95 %
2278 21-03-2015 23:31:17 4.8 C 95 %
2279 21-03-2015 23:43:17 4.9 C 95 %
2280 21-03-2015 23:55:17 5 C 95 %
2281 22-03-2015 00:07:17 5 C 95 %
2282 22-03-2015 00:19:17 5 C 95 %
2283 22-03-2015 00:31:17 5.1 C 95 %
2284 22-03-2015 00:43:17 5.1 C 95 %
2285 22-03-2015 00:55:17 5.1 C 95 %
2286 22-03-2015 01:07:17 5 C 95 %
2287 22-03-2015 01:19:17 5 C 94 %
2288 22-03-2015 01:31:17 5 C 94 %
2289 22-03-2015 01:43:17 5 C 94 %
2290 22-03-2015 01:55:17 4.9 C 95 %
2291 22-03-2015 02:07:17 4.8 C 95 %
2292 22-03-2015 02:19:16 4.7 C 95 %
2293 22-03-2015 02:31:17 4.6 C 95 %
2294 22-03-2015 02:43:17 4.5 C 95 %
2295 22-03-2015 02:55:17 4.5 C 95 %
2296 22-03-2015 03:07:17 4.4 C 95 %
2297 22-03-2015 03:19:17 4.3 C 95 %
2298 22-03-2015 03:31:17 4.5 C 95 %
2299 22-03-2015 03:43:17 4.5 C 95 %
2300 22-03-2015 03:55:17 4.6 C 95 %
Sensor: Nr:Datum:Temp:Feuchte:
Aussen-T/F 2301 22-03-2015 04:07:17 4.7 C 95 %
2302 22-03-2015 04:19:17 4.7 C 95 %
2303 22-03-2015 04:31:17 4.8 C 94 %
2304 22-03-2015 04:43:17 4.8 C 94 %
2305 22-03-2015 04:55:17 4.8 C 94 %
2306 22-03-2015 05:07:18 4.9 C 94 %
2307 22-03-2015 05:19:17 5 C 92 %
2308 22-03-2015 05:31:17 5 C 92 %
2309 22-03-2015 05:43:17 5 C 91 %
2310 22-03-2015 05:55:17 5 C 88 %
2311 22-03-2015 06:07:17 4.7 C 86 %
2312 22-03-2015 06:19:17 4.7 C 85 %
2313 22-03-2015 06:31:17 4.7 C 83 %
2314 22-03-2015 06:43:17 4.7 C 80 %
2315 22-03-2015 06:55:17 4.6 C 79 %
2316 22-03-2015 07:07:17 4.6 C 78 %
2317 22-03-2015 07:19:17 4.6 C 78 %
2318 22-03-2015 07:31:17 4.7 C 74 %
2319 22-03-2015 07:43:17 4.6 C 72 %
2320 22-03-2015 07:55:17 4.6 C 70 %
2321 22-03-2015 08:07:17 4.7 C 68 %
2322 22-03-2015 08:19:17 4.6 C 67 %
2323 22-03-2015 08:31:17 4.7 C 65 %
2324 22-03-2015 08:43:17 4.7 C 65 %
2325 22-03-2015 08:55:17 4.8 C 63 %
Sensor: Nr:Datum:Temp:Feuchte:
Aussen-T/F 2326 22-03-2015 09:07:17 4.9 C 62 %
2327 22-03-2015 09:19:17 5 C 61 %
2328 22-03-2015 09:31:17 5.3 C 61 %
2329 22-03-2015 09:43:17 4.9 C 60 %
2330 22-03-2015 09:55:17 5.4 C 59 %
2331 22-03-2015 10:07:17 5.7 C 59 %
2332 22-03-2015 10:19:17 5.9 C 58 %
2333 22-03-2015 10:31:17 6 C 57 %
2334 22-03-2015 10:43:17 6.2 C 57 %
2335 22-03-2015 10:55:17 6.4 C 56 %
2336 22-03-2015 11:07:17 6.5 C 56 %
2337 22-03-2015 11:19:17 6.7 C 55 %
2338 22-03-2015 11:31:20 6.6 C 55 %
2339 22-03-2015 11:43:20 6.5 C 55 %
2340 22-03-2015 11:55:18 6.7 C 55 %
2341 22-03-2015 11:55:18 6.7 C 55 %
2342 22-03-2015 12:07:20 6.5 C 55 %
2343 22-03-2015 12:19:16 6.7 C 55 %
2344 22-03-2015 12:31:17 7.1 C 53 %
2345 22-03-2015 12:43:17 7.3 C 51 %
2346 22-03-2015 12:55:17 7.3 C 51 %
2347 22-03-2015 13:07:17 7.2 C 51 %
2348 22-03-2015 13:19:17 7.7 C 51 %
2349 22-03-2015 13:31:17 7.6 C 51 %
2350 22-03-2015 13:43:17 7.8 C 50 %
Sensor: Nr:Datum:Temp:Feuchte:
Aussen-T/F 2351 22-03-2015 13:55:17 7.3 C 50 %
2352 22-03-2015 14:07:17 6.9 C 51 %
2353 22-03-2015 14:19:17 7 C 51 %
2354 22-03-2015 14:31:17 7 C 50 %
2355 22-03-2015 14:43:17 6.7 C 52 %
2356 22-03-2015 14:55:17 6.7 C 51 %
2357 22-03-2015 15:07:17 6.5 C 51 %
2358 22-03-2015 15:19:17 6.7 C 52 %
2359 22-03-2015 15:31:17 7 C 50 %
2360 22-03-2015 15:43:17 6.8 C 50 %
2361 22-03-2015 15:55:17 6.6 C 50 %
2362 22-03-2015 16:07:17 6.8 C 50 %
2363 22-03-2015 16:19:17 7.3 C 50 %
2364 22-03-2015 16:31:17 8.3 C 46 %
2365 22-03-2015 16:43:17 8.8 C 45 %
2366 22-03-2015 16:55:17 10.3 C 40 %
2367 22-03-2015 17:07:17 11.7 C 37 %
2368 22-03-2015 17:19:17 12 C 35 %
2369 22-03-2015 17:31:17 11.3 C 37 %
2370 22-03-2015 17:43:17 10.4 C 38 %
2371 22-03-2015 17:55:17 9.4 C 41 %
2372 22-03-2015 18:07:17 7.6 C 45 %
2373 22-03-2015 18:19:17 6.7 C 49 %
2374 22-03-2015 18:31:17 6 C 52 %
2375 22-03-2015 18:43:17 4.9 C 58 %
Sensor: Nr:Datum:Temp:Feuchte:
Aussen-T/F 2376 22-03-2015 18:55:17 4 C 61 %
2377 22-03-2015 19:07:17 3.4 C 65 %
2378 22-03-2015 19:19:17 3.1 C 67 %
2379 22-03-2015 19:31:17 2.7 C 69 %
2380 22-03-2015 19:43:17 2.4 C 70 %
2381 22-03-2015 19:55:17 2 C 71 %
2382 22-03-2015 20:07:17 1.7 C 73 %
2383 22-03-2015 20:19:17 1.6 C 74 %
2384 22-03-2015 20:31:17 1.4 C 75 %
2385 22-03-2015 20:43:17 1.6 C 75 %
2386 22-03-2015 20:55:17 1.3 C 75 %
2387 22-03-2015 21:07:17 1.2 C 76 %
2388 22-03-2015 21:19:16 1.1 C 77 %
2389 22-03-2015 21:31:17 1 C 77 %
2390 22-03-2015 21:43:17 0.7 C 78 %
2391 22-03-2015 21:55:17 0.8 C 79 %
2392 22-03-2015 22:07:17 0.4 C 79 %
2393 22-03-2015 22:19:17 0.5 C 81 %
2394 22-03-2015 22:31:17 0.4 C 80 %
2395 22-03-2015 22:43:17 0.3 C 81 %
2396 22-03-2015 22:55:17 0.2 C 81 %
2397 22-03-2015 23:07:17 0 C 81 %
2398 22-03-2015 23:19:17 -0.1 C 82 %
2399 22-03-2015 23:31:17 -0.2 C 82 %
2400 22-03-2015 23:43:17 -0.3 C 83 %
Sensor: Nr:Datum:Temp:Feuchte:
Aussen-T/F 2401 22-03-2015 23:55:17 -0.4 C 83 %
2402 23-03-2015 00:07:17 -0.4 C 84 %
2403 23-03-2015 00:19:17 -0.7 C 83 %
2404 23-03-2015 00:31:17 -0.7 C 84 %
2405 23-03-2015 00:43:17 -0.6 C 85 %
2406 23-03-2015 00:55:17 -0.8 C 85 %
2407 23-03-2015 01:07:17 -1 C 85 %
2408 23-03-2015 01:19:17 -0.9 C 86 %
2409 23-03-2015 01:31:17 -0.9 C 86 %
2410 23-03-2015 01:43:17 -1.1 C 86 %
2411 23-03-2015 01:55:17 -1.1 C 86 %
2412 23-03-2015 02:07:17 -1.3 C 86 %
2413 23-03-2015 02:19:17 -1.4 C 87 %
2414 23-03-2015 02:31:17 -1.4 C 87 %
2415 23-03-2015 02:43:17 -1.5 C 87 %
2416 23-03-2015 02:55:17 -1.7 C 88 %
2417 23-03-2015 03:07:17 -1.8 C 88 %
2418 23-03-2015 03:19:17 -1.8 C 88 %
2419 23-03-2015 03:31:17 -1.7 C 89 %
2420 23-03-2015 03:43:17 -1.7 C 89 %
2421 23-03-2015 03:55:17 -2 C 89 %
2422 23-03-2015 04:07:17 -2 C 89 %
2423 23-03-2015 04:19:17 -2.1 C 89 %
2424 23-03-2015 04:31:17 -2.2 C 89 %
2425 23-03-2015 04:43:17 -2.3 C 89 %
Sensor: Nr:Datum:Temp:Feuchte:
Aussen-T/F 2426 23-03-2015 04:55:17 -2.1 C 89 %
2427 23-03-2015 05:07:17 -1.9 C 90 %
2428 23-03-2015 05:19:17 -1.9 C 90 %
2429 23-03-2015 05:31:17 -2.1 C 90 %
2430 23-03-2015 05:43:17 -2.3 C 90 %
2431 23-03-2015 05:55:17 -2.3 C 90 %
2432 23-03-2015 06:07:17 -2.2 C 91 %
2433 23-03-2015 06:19:16 -2.4 C 91 %
2434 23-03-2015 06:31:17 -2.6 C 91 %
2435 23-03-2015 06:43:17 -2.1 C 91 %
2436 23-03-2015 06:55:17 -2.3 C 91 %
2437 23-03-2015 07:07:17 -2.1 C 91 %
2438 23-03-2015 07:19:17 -1.8 C 92 %
2439 23-03-2015 07:31:17 -1.6 C 92 %
2440 23-03-2015 07:43:17 -1.3 C 92 %
2441 23-03-2015 07:55:17 -1.1 C 92 %
2442 23-03-2015 08:07:17 -0.9 C 92 %
2443 23-03-2015 08:19:17 -0.8 C 92 %
2444 23-03-2015 08:31:17 -0.4 C 92 %
2445 23-03-2015 08:43:17 -0.1 C 92 %
2446 23-03-2015 08:55:17 0.1 C 91 %
2447 23-03-2015 09:07:17 0.5 C 90 %
2448 23-03-2015 09:19:17 0.9 C 89 %
2449 23-03-2015 09:31:17 1.3 C 87 %
2450 23-03-2015 09:43:17 1.7 C 84 %
Sensor: Nr:Datum:Temp:Feuchte:
Aussen-T/F 2451 23-03-2015 09:55:17 1.9 C 79 %
2452 23-03-2015 10:07:17 2.7 C 75 %
2453 23-03-2015 10:19:17 2.9 C 73 %
2454 23-03-2015 10:31:17 3.5 C 71 %
2455 23-03-2015 10:43:17 4.3 C 68 %
2456 23-03-2015 10:55:17 4.5 C 66 %
2457 23-03-2015 11:07:17 5 C 64 %
2458 23-03-2015 11:19:17 5.6 C 64 %
2459 23-03-2015 11:31:17 5.6 C 62 %
2460 23-03-2015 11:43:17 6.4 C 61 %
2461 23-03-2015 11:55:17 6.9 C 59 %
2462 23-03-2015 12:07:17 7.3 C 58 %
2463 23-03-2015 12:19:17 7.6 C 57 %
2464 23-03-2015 12:31:17 8.2 C 56 %
2465 23-03-2015 12:43:17 8.7 C 55 %
2466 23-03-2015 12:55:17 9.3 C 55 %
2467 23-03-2015 13:07:17 9.7 C 51 %
2468 23-03-2015 13:19:17 10.2 C 48 %
2469 23-03-2015 13:31:17 10.3 C 48 %
2470 23-03-2015 13:43:17 10.2 C 48 %
2471 23-03-2015 13:55:17 10.1 C 48 %
2472 23-03-2015 14:07:17 10 C 49 %
2473 23-03-2015 14:19:17 10.1 C 48 %
2474 23-03-2015 14:31:17 9.8 C 48 %
2475 23-03-2015 14:43:17 10.3 C 49 %
Sensor: Nr:Datum:Temp:Feuchte:
Aussen-T/F 2476 23-03-2015 14:55:17 10.7 C 49 %
2477 23-03-2015 15:07:17 11.9 C 47 %
2478 23-03-2015 15:19:17 12.7 C 43 %
2479 23-03-2015 15:31:17 11.5 C 45 %
2480 23-03-2015 15:43:17 10.9 C 47 %
2481 23-03-2015 15:55:17 11.5 C 45 %
2482 23-03-2015 16:07:17 10.8 C 47 %
2483 23-03-2015 16:19:17 10.7 C 47 %
2484 23-03-2015 16:31:17 11.1 C 46 %
2485 23-03-2015 16:43:17 10.8 C 46 %
2486 23-03-2015 16:55:17 10.3 C 47 %
2487 23-03-2015 17:07:17 10.2 C 48 %
2488 23-03-2015 17:19:17 10 C 49 %
2489 23-03-2015 17:31:17 10 C 48 %
2490 23-03-2015 17:43:17 10.8 C 48 %
2491 23-03-2015 17:55:17 10.6 C 47 %
2492 23-03-2015 18:07:17 9.7 C 49 %
2493 23-03-2015 18:19:17 9.5 C 50 %
2494 23-03-2015 18:31:17 8.8 C 54 %
2495 23-03-2015 18:43:17 7.8 C 57 %
2496 23-03-2015 18:55:17 7.3 C 58 %
2497 23-03-2015 19:07:17 7 C 59 %
2498 23-03-2015 19:19:17 6.7 C 61 %
2499 23-03-2015 19:31:17 6.4 C 62 %
2500 23-03-2015 19:43:18 6.4 C 63 %
Sensor: Nr:Datum:Temp:Feuchte:
Aussen-T/F 2501 23-03-2015 19:55:17 6.1 C 64 %
2502 23-03-2015 20:07:17 5.9 C 65 %
2503 23-03-2015 20:19:17 5.9 C 66 %
2504 23-03-2015 20:31:17 5.9 C 65 %
2505 23-03-2015 20:43:17 5.6 C 66 %
2506 23-03-2015 20:55:17 5.1 C 68 %
2507 23-03-2015 21:07:17 4.4 C 71 %
2508 23-03-2015 21:19:16 4 C 74 %
2509 23-03-2015 21:31:17 3.8 C 77 %
2510 23-03-2015 21:43:17 3.5 C 78 %
2511 23-03-2015 21:55:17 3.3 C 79 %
2512 23-03-2015 22:07:17 3 C 79 %
2513 23-03-2015 22:19:17 2.8 C 81 %
2514 23-03-2015 22:31:17 2.7 C 83 %
2515 23-03-2015 22:43:17 2.5 C 83 %
2516 23-03-2015 22:55:17 2.1 C 83 %
2517 23-03-2015 23:07:17 1.6 C 84 %
2518 23-03-2015 23:19:17 1.7 C 85 %
2519 23-03-2015 23:31:17 1.4 C 86 %
2520 23-03-2015 23:43:17 1.3 C 86 %
2521 23-03-2015 23:55:17 1.1 C 86 %
2522 24-03-2015 00:07:17 1.1 C 87 %
2523 24-03-2015 00:19:17 1.1 C 88 %
2524 24-03-2015 00:31:17 0.8 C 88 %
2525 24-03-2015 00:43:17 0.9 C 89 %
Sensor: Nr:Datum:Temp:Feuchte:
Aussen-T/F 2526 24-03-2015 00:55:17 1.1 C 89 %
2527 24-03-2015 01:07:17 0.7 C 89 %
2528 24-03-2015 01:19:17 0.6 C 89 %
2529 24-03-2015 01:31:17 1 C 90 %
2530 24-03-2015 01:43:17 1.4 C 91 %
2531 24-03-2015 01:55:17 1.5 C 91 %
2532 24-03-2015 02:07:17 1.2 C 90 %
2533 24-03-2015 02:19:17 1 C 90 %
2534 24-03-2015 02:31:17 0.9 C 91 %
2535 24-03-2015 02:43:17 1 C 91 %
2536 24-03-2015 02:55:17 1.5 C 91 %
2537 24-03-2015 03:07:17 1.8 C 92 %
2538 24-03-2015 03:19:17 2 C 91 %
2539 24-03-2015 03:31:17 2.2 C 91 %
2540 24-03-2015 03:43:17 2.3 C 90 %
2541 24-03-2015 03:55:17 2.4 C 90 %
2542 24-03-2015 04:07:17 2.5 C 89 %
2543 24-03-2015 04:19:17 2.6 C 88 %
2544 24-03-2015 04:31:17 2.7 C 87 %
2545 24-03-2015 04:43:17 2.6 C 87 %
2546 24-03-2015 04:55:17 2.6 C 86 %
2547 24-03-2015 05:07:17 2.7 C 86 %
2548 24-03-2015 05:19:17 2.7 C 86 %
2549 24-03-2015 05:31:17 2.7 C 86 %
2550 24-03-2015 05:43:17 2.8 C 86 %
Sensor: Nr:Datum:Temp:Feuchte:
Aussen-T/F 2551 24-03-2015 05:55:17 2.8 C 85 %
2552 24-03-2015 06:07:17 2.7 C 85 %
2553 24-03-2015 06:19:17 2.6 C 85 %
2554 24-03-2015 06:31:17 2.5 C 85 %
2555 24-03-2015 06:43:17 2.5 C 85 %
2556 24-03-2015 06:55:17 2.6 C 85 %
2557 24-03-2015 07:07:17 2.7 C 86 %
2558 24-03-2015 07:19:17 3 C 85 %
2559 24-03-2015 07:31:17 3.1 C 84 %
2560 24-03-2015 07:43:17 3.4 C 83 %
2561 24-03-2015 07:55:17 3.5 C 82 %
2562 24-03-2015 08:07:17 3.7 C 81 %
2563 24-03-2015 08:19:17 4 C 79 %
2564 24-03-2015 08:31:17 4.2 C 78 %
2565 24-03-2015 08:43:17 4.2 C 76 %
2566 24-03-2015 08:55:17 4.5 C 75 %
2567 24-03-2015 09:07:17 4.7 C 74 %
2568 24-03-2015 09:19:17 4.9 C 74 %
2569 24-03-2015 09:31:17 4.9 C 73 %
2570 24-03-2015 09:43:17 4.9 C 74 %
2571 24-03-2015 09:55:17 5.1 C 72 %
2572 24-03-2015 10:07:17 5.4 C 72 %
2573 24-03-2015 10:19:17 6 C 69 %
2574 24-03-2015 10:31:17 6.6 C 68 %
2575 24-03-2015 10:43:17 6.8 C 66 %
Sensor: Nr:Datum:Temp:Feuchte:
Aussen-T/F 2576 24-03-2015 10:55:17 6.8 C 66 %
2577 24-03-2015 11:07:17 7 C 65 %
2578 24-03-2015 11:19:17 7.1 C 65 %
2579 24-03-2015 11:31:17 7.5 C 63 %
2580 24-03-2015 11:43:17 8.4 C 62 %
2581 24-03-2015 11:55:17 8.7 C 60 %
2582 24-03-2015 12:07:17 9.7 C 58 %
2583 24-03-2015 12:19:17 9.8 C 56 %
2584 24-03-2015 12:31:17 10.1 C 55 %
2585 24-03-2015 12:43:17 11 C 54 %
2586 24-03-2015 12:55:17 11.2 C 51 %
2587 24-03-2015 13:07:17 11.6 C 50 %
2588 24-03-2015 13:19:18 12 C 47 %
2589 24-03-2015 13:31:17 12.7 C 46 %
2590 24-03-2015 13:43:17 12.8 C 43 %
2591 24-03-2015 13:55:17 13.3 C 39 %
2592 24-03-2015 14:07:17 13.1 C 38 %
2593 24-03-2015 14:19:17 13.2 C 38 %
2594 24-03-2015 14:31:17 13.4 C 37 %
2595 24-03-2015 14:43:17 13.6 C 38 %
2596 24-03-2015 14:55:17 13.4 C 38 %
2597 24-03-2015 15:07:17 14.2 C 38 %
2598 24-03-2015 15:19:17 14.9 C 35 %
2599 24-03-2015 15:31:17 14.4 C 36 %
2600 24-03-2015 15:43:17 14.3 C 36 %
Sensor: Nr:Datum:Temp:Feuchte:
Aussen-T/F 2601 24-03-2015 15:55:17 14.5 C 36 %
2602 24-03-2015 16:07:17 13.9 C 36 %
2603 24-03-2015 16:19:17 15.2 C 35 %
2604 24-03-2015 16:31:17 14.8 C 35 %
2605 24-03-2015 16:43:17 15.1 C 35 %
2606 24-03-2015 16:55:17 16.8 C 33 %
2607 24-03-2015 17:07:17 16.6 C 32 %
2608 24-03-2015 17:19:16 14.3 C 35 %
2609 24-03-2015 17:31:17 13.2 C 44 %
2610 24-03-2015 17:43:17 13 C 44 %
2611 24-03-2015 17:55:17 12.3 C 49 %
2612 24-03-2015 18:07:17 11.6 C 52 %
2613 24-03-2015 18:19:17 11.2 C 53 %
2614 24-03-2015 18:31:17 10.7 C 55 %
2615 24-03-2015 18:43:17 10.4 C 55 %
2616 24-03-2015 18:55:17 10.4 C 55 %
2617 24-03-2015 19:07:17 10.3 C 55 %
2618 24-03-2015 19:19:17 10 C 55 %
2619 24-03-2015 19:31:17 9.5 C 57 %
2620 24-03-2015 19:43:17 8.7 C 60 %
2621 24-03-2015 19:55:17 8.2 C 62 %
2622 24-03-2015 20:07:17 8.1 C 65 %
2623 24-03-2015 20:19:17 8 C 66 %
2624 24-03-2015 20:31:17 8.1 C 66 %
2625 24-03-2015 20:43:17 7.6 C 67 %
Sensor: Nr:Datum:Temp:Feuchte:
Aussen-T/F 2626 24-03-2015 20:55:17 7.2 C 68 %
2627 24-03-2015 21:07:17 7.3 C 69 %
2628 24-03-2015 21:19:17 7.1 C 69 %
2629 24-03-2015 21:31:17 6.6 C 71 %
2630 24-03-2015 21:43:17 6.3 C 72 %
2631 24-03-2015 21:55:17 6.2 C 74 %
2632 24-03-2015 22:07:17 6.2 C 74 %
2633 24-03-2015 22:19:17 5.9 C 75 %
2634 24-03-2015 22:31:17 5.8 C 76 %
2635 24-03-2015 22:43:17 6.1 C 77 %
2636 24-03-2015 22:55:17 6.3 C 78 %
2637 24-03-2015 23:07:17 6.5 C 78 %
2638 24-03-2015 23:19:17 6.4 C 76 %
2639 24-03-2015 23:31:17 6 C 76 %
2640 24-03-2015 23:43:17 5.7 C 77 %
2641 24-03-2015 23:55:17 5.6 C 78 %
2642 25-03-2015 00:07:17 5.2 C 78 %
2643 25-03-2015 00:19:17 5.2 C 79 %
2644 25-03-2015 00:31:17 5.1 C 79 %
2645 25-03-2015 00:43:17 4.7 C 80 %
2646 25-03-2015 00:55:17 4.3 C 81 %
2647 25-03-2015 01:07:17 4.5 C 83 %
2648 25-03-2015 01:19:17 4.5 C 83 %
2649 25-03-2015 01:31:17 4.5 C 83 %
2650 25-03-2015 01:43:17 4.8 C 84 %
Sensor: Nr:Datum:Temp:Feuchte:
Aussen-T/F 2651 25-03-2015 01:55:17 4.5 C 83 %
2652 25-03-2015 02:07:17 4.4 C 83 %
2653 25-03-2015 02:19:17 4.5 C 84 %
2654 25-03-2015 02:31:17 4.6 C 85 %
2655 25-03-2015 02:43:17 5 C 84 %
2656 25-03-2015 02:55:17 5.6 C 83 %
2657 25-03-2015 03:07:17 5.7 C 82 %
2658 25-03-2015 03:19:17 5.6 C 80 %
2659 25-03-2015 03:31:17 5.6 C 80 %
2660 25-03-2015 03:43:17 5.6 C 80 %
2661 25-03-2015 03:55:17 5.6 C 80 %
2662 25-03-2015 04:07:17 5.3 C 80 %
2663 25-03-2015 04:19:17 5 C 80 %
2664 25-03-2015 04:31:17 4.7 C 81 %
2665 25-03-2015 04:43:17 4.6 C 82 %
2666 25-03-2015 04:55:17 5 C 82 %
2667 25-03-2015 05:07:17 5 C 83 %
2668 25-03-2015 05:19:17 5.1 C 83 %
2669 25-03-2015 05:31:17 5.1 C 83 %
2670 25-03-2015 05:43:17 4.8 C 84 %
2671 25-03-2015 05:55:17 4.6 C 84 %
2672 25-03-2015 06:07:17 4.7 C 84 %
2673 25-03-2015 06:19:17 4.2 C 83 %
2674 25-03-2015 06:31:17 4.1 C 84 %
2675 25-03-2015 06:43:17 4.2 C 85 %
Sensor: Nr:Datum:Temp:Feuchte:
Aussen-T/F 2676 25-03-2015 06:55:17 4.5 C 86 %
2677 25-03-2015 07:07:17 4.7 C 86 %
2678 25-03-2015 07:19:17 5.1 C 86 %
2679 25-03-2015 07:31:17 5.6 C 85 %
2680 25-03-2015 07:43:17 5.9 C 84 %
2681 25-03-2015 07:55:17 6.4 C 80 %
2682 25-03-2015 08:07:16 6.5 C 77 %
2683 25-03-2015 08:19:17 6.6 C 75 %
2684 25-03-2015 08:31:17 6.8 C 75 %
2685 25-03-2015 08:43:17 6.9 C 74 %
2686 25-03-2015 08:55:17 7 C 74 %
2687 25-03-2015 09:07:17 7.9 C 71 %
2688 25-03-2015 09:19:17 8.4 C 67 %
2689 25-03-2015 09:31:17 8.9 C 65 %
2690 25-03-2015 09:43:17 9.1 C 66 %
2691 25-03-2015 09:55:17 10.1 C 61 %
2692 25-03-2015 10:07:17 10.5 C 57 %
2693 25-03-2015 10:19:17 10.6 C 57 %
2694 25-03-2015 10:31:17 10.8 C 57 %
2695 25-03-2015 10:43:17 11.2 C 56 %
2696 25-03-2015 10:55:17 11.4 C 55 %
2697 25-03-2015 11:07:17 12.1 C 54 %
2698 25-03-2015 11:19:17 11.7 C 55 %
2699 25-03-2015 11:31:17 11.6 C 54 %
2700 25-03-2015 11:43:17 11.8 C 55 %
Sensor: Nr:Datum:Temp:Feuchte:
Aussen-T/F 2701 25-03-2015 11:55:17 11.9 C 56 %
2702 25-03-2015 12:07:17 12 C 54 %
2703 25-03-2015 12:19:17 12.3 C 53 %
2704 25-03-2015 12:31:17 12.1 C 53 %
2705 25-03-2015 12:43:17 12.2 C 55 %
2706 25-03-2015 12:55:17 12.1 C 54 %
2707 25-03-2015 13:07:17 12 C 54 %
2708 25-03-2015 13:19:17 11.9 C 55 %
2709 25-03-2015 13:31:17 12.5 C 54 %
2710 25-03-2015 13:43:17 12.1 C 53 %
2711 25-03-2015 13:55:17 11.5 C 55 %
2712 25-03-2015 14:07:17 11.2 C 56 %
2713 25-03-2015 14:19:17 11.1 C 56 %
2714 25-03-2015 14:31:17 10.2 C 57 %
2715 25-03-2015 14:43:17 10.1 C 58 %
2716 25-03-2015 14:55:17 9.8 C 59 %
2717 25-03-2015 15:07:17 9.6 C 60 %
2718 25-03-2015 15:19:17 9.5 C 59 %
2719 25-03-2015 15:31:16 9.3 C 59 %
2720 25-03-2015 15:43:17 9.6 C 60 %
2721 25-03-2015 15:55:17 9.2 C 59 %
2722 25-03-2015 16:07:17 8.8 C 60 %
2723 25-03-2015 16:19:16 8.5 C 61 %
2724 25-03-2015 16:31:17 8.3 C 61 %
2725 25-03-2015 16:43:17 8 C 62 %
Sensor: Nr:Datum:Temp:Feuchte:
Aussen-T/F 2726 25-03-2015 16:55:17 7.9 C 63 %
2727 25-03-2015 17:07:17 7.8 C 64 %
2728 25-03-2015 17:19:17 7.8 C 64 %
2729 25-03-2015 17:31:17 7.7 C 64 %
2730 25-03-2015 17:43:17 7.5 C 65 %
2731 25-03-2015 17:55:17 7.5 C 65 %
2732 25-03-2015 18:07:17 7.4 C 65 %
2733 25-03-2015 18:19:17 7.4 C 65 %
2734 25-03-2015 18:31:17 7.4 C 65 %
2735 25-03-2015 18:43:17 7.4 C 66 %
2736 25-03-2015 18:55:17 7.2 C 66 %
2737 25-03-2015 19:07:17 7.2 C 66 %
2738 25-03-2015 19:19:17 7.2 C 66 %
2739 25-03-2015 19:31:17 7.1 C 66 %
2740 25-03-2015 19:43:17 7 C 67 %
2741 25-03-2015 19:55:17 6.9 C 68 %
2742 25-03-2015 20:07:17 6.9 C 68 %
2743 25-03-2015 20:19:17 6.9 C 68 %
2744 25-03-2015 20:31:17 6.8 C 68 %
2745 25-03-2015 20:43:17 6.8 C 68 %
2746 25-03-2015 20:55:17 6.7 C 69 %
2747 25-03-2015 21:07:17 6.8 C 69 %
2748 25-03-2015 21:19:17 6.7 C 69 %
2749 25-03-2015 21:31:17 6.7 C 69 %
2750 25-03-2015 21:43:17 6.6 C 69 %
Sensor: Nr:Datum:Temp:Feuchte:
Aussen-T/F 2751 25-03-2015 21:55:18 6.5 C 69 %
2752 25-03-2015 22:07:17 6.5 C 70 %
2753 25-03-2015 22:19:17 6.4 C 71 %
2754 25-03-2015 22:31:17 6.4 C 71 %
2755 25-03-2015 22:43:17 6.4 C 72 %
2756 25-03-2015 22:55:17 6.4 C 72 %
2757 25-03-2015 23:07:17 6.5 C 72 %
2758 25-03-2015 23:19:17 6.5 C 71 %
2759 25-03-2015 23:31:17 6.5 C 71 %
2760 25-03-2015 23:43:17 6.5 C 70 %
2761 25-03-2015 23:55:17 6.5 C 70 %
2762 26-03-2015 00:07:17 6.4 C 71 %
2763 26-03-2015 00:19:17 6.4 C 71 %
2764 26-03-2015 00:31:17 6.4 C 71 %
2765 26-03-2015 00:43:17 6.4 C 71 %
2766 26-03-2015 00:55:17 6.4 C 72 %
2767 26-03-2015 01:07:17 6.4 C 72 %
2768 26-03-2015 01:19:17 6.4 C 73 %
2769 26-03-2015 01:31:17 6.4 C 73 %
2770 26-03-2015 01:43:17 6.3 C 74 %
2771 26-03-2015 01:55:17 6.2 C 75 %
2772 26-03-2015 02:07:17 6.2 C 76 %
2773 26-03-2015 02:19:17 6.1 C 77 %
2774 26-03-2015 02:31:17 6.1 C 78 %
2775 26-03-2015 02:43:17 6 C 78 %
Sensor: Nr:Datum:Temp:Feuchte:
Aussen-T/F 2776 26-03-2015 02:55:17 6 C 79 %
2777 26-03-2015 03:07:17 6 C 79 %
2778 26-03-2015 03:19:17 6 C 79 %
2779 26-03-2015 03:31:17 6 C 79 %
2780 26-03-2015 03:43:17 6 C 78 %
2781 26-03-2015 03:55:17 6 C 78 %
2782 26-03-2015 04:07:17 6 C 78 %
2783 26-03-2015 04:19:17 6 C 77 %
2784 26-03-2015 04:31:17 5.8 C 78 %
2785 26-03-2015 04:43:17 5.7 C 79 %
2786 26-03-2015 04:55:17 5.5 C 79 %
2787 26-03-2015 05:07:17 5.4 C 78 %
2788 26-03-2015 05:19:17 5.3 C 76 %
2789 26-03-2015 05:31:17 5.3 C 75 %
2790 26-03-2015 05:43:17 5.3 C 73 %
2791 26-03-2015 05:55:17 5.2 C 73 %
2792 26-03-2015 06:07:17 5.2 C 73 %
2793 26-03-2015 06:19:17 5.2 C 73 %
2794 26-03-2015 06:31:17 5.3 C 73 %
2795 26-03-2015 06:43:17 5.3 C 73 %
2796 26-03-2015 06:55:17 5.3 C 72 %
2797 26-03-2015 07:07:17 5.4 C 72 %
2798 26-03-2015 07:19:17 5.4 C 72 %
2799 26-03-2015 07:31:17 5.4 C 70 %
2800 26-03-2015 07:43:17 5.4 C 69 %
Sensor: Nr:Datum:Temp:Feuchte:
Aussen-T/F 2801 26-03-2015 07:55:17 5.5 C 69 %
2802 26-03-2015 08:07:17 5.6 C 69 %
2803 26-03-2015 08:19:17 5.7 C 67 %
2804 26-03-2015 08:31:17 5.8 C 66 %
2805 26-03-2015 08:43:17 5.9 C 66 %
2806 26-03-2015 08:55:17 5.9 C 65 %
2807 26-03-2015 09:07:17 5.9 C 65 %
2808 26-03-2015 09:19:17 5.9 C 65 %
2809 26-03-2015 09:31:17 6 C 64 %
2810 26-03-2015 09:43:17 6.3 C 63 %
2811 26-03-2015 09:55:17 6.7 C 61 %
2812 26-03-2015 10:07:17 6.6 C 61 %
2813 26-03-2015 10:19:17 6.7 C 60 %
2814 26-03-2015 10:31:17 6.9 C 60 %
2815 26-03-2015 10:43:17 7.1 C 57 %
2816 26-03-2015 10:55:17 7.4 C 55 %
2817 26-03-2015 11:07:17 8 C 53 %
2818 26-03-2015 11:19:17 8 C 51 %
2819 26-03-2015 11:31:17 8.7 C 52 %
2820 26-03-2015 11:43:17 8.9 C 51 %
2821 26-03-2015 11:55:16 8.6 C 50 %
2822 26-03-2015 12:07:17 9 C 49 %
2823 26-03-2015 12:19:17 9.1 C 46 %
2824 26-03-2015 12:31:17 9.2 C 47 %
2825 26-03-2015 12:43:17 9.9 C 45 %
Sensor: Nr:Datum:Temp:Feuchte:
Aussen-T/F 2826 26-03-2015 12:55:17 10.1 C 40 %
2827 26-03-2015 13:07:17 10.7 C 40 %
2828 26-03-2015 13:19:17 10.8 C 38 %
2829 26-03-2015 13:31:17 11.2 C 36 %
2830 26-03-2015 13:43:17 11.2 C 34 %
2831 26-03-2015 13:55:17 11.9 C 35 %
2832 26-03-2015 14:07:17 11.6 C 32 %
2833 26-03-2015 14:19:17 11.8 C 32 %
2834 26-03-2015 14:31:17 12.3 C 30 %
2835 26-03-2015 14:43:17 12.6 C 30 %
2836 26-03-2015 14:55:17 12.2 C 28 %
2837 26-03-2015 15:07:17 11.8 C 31 %
2838 26-03-2015 15:19:17 11.8 C 30 %
2839 26-03-2015 15:31:17 11.6 C 30 %
2840 26-03-2015 15:43:17 11.4 C 30 %
2841 26-03-2015 15:55:17 10.9 C 31 %
2842 26-03-2015 16:07:17 10.5 C 30 %
2843 26-03-2015 16:19:17 10.1 C 31 %
2844 26-03-2015 16:31:17 9.5 C 32 %
2845 26-03-2015 16:43:17 8.7 C 38 %
2846 26-03-2015 16:55:17 7.3 C 49 %
2847 26-03-2015 17:07:17 6.4 C 56 %
2848 26-03-2015 17:19:17 5.8 C 66 %
2849 26-03-2015 17:31:17 5.4 C 71 %
2850 26-03-2015 17:43:17 5.1 C 74 %
Sensor: Nr:Datum:Temp:Feuchte:
Aussen-T/F 2851 26-03-2015 17:55:17 5 C 76 %
2852 26-03-2015 18:07:17 4.9 C 79 %
2853 26-03-2015 18:19:17 4.9 C 81 %
2854 26-03-2015 18:31:17 5 C 82 %
2855 26-03-2015 18:43:17 5 C 83 %
2856 26-03-2015 18:55:17 4.9 C 83 %
2857 26-03-2015 19:07:17 4.9 C 82 %
2858 26-03-2015 19:19:17 5 C 78 %
2859 26-03-2015 19:31:17 5.2 C 76 %
2860 26-03-2015 19:43:17 5.1 C 77 %
2861 26-03-2015 19:55:17 5.2 C 77 %
2862 26-03-2015 20:07:17 5.1 C 77 %
2863 26-03-2015 20:19:17 5.1 C 77 %
2864 26-03-2015 20:31:17 5.3 C 75 %
2865 26-03-2015 20:43:17 5.4 C 74 %
2866 26-03-2015 20:55:17 5.6 C 73 %
2867 26-03-2015 21:07:17 5.5 C 73 %
2868 26-03-2015 21:19:17 5.7 C 71 %
2869 26-03-2015 21:31:17 5.7 C 71 %
2870 26-03-2015 21:43:17 5.6 C 71 %
2871 26-03-2015 21:55:17 5.6 C 72 %
2872 26-03-2015 22:07:18 5.6 C 73 %
2873 26-03-2015 22:19:17 5.7 C 73 %
2874 26-03-2015 22:31:17 5.8 C 73 %
2875 26-03-2015 22:43:18 5.8 C 74 %
Sensor: Nr:Datum:Temp:Feuchte:
Aussen-T/F 2876 26-03-2015 22:55:17 5.8 C 74 %
2877 26-03-2015 23:07:17 5.8 C 74 %
2878 26-03-2015 23:19:17 5.8 C 75 %
2879 26-03-2015 23:31:17 5.7 C 77 %
2880 26-03-2015 23:43:17 5.8 C 77 %
2881 26-03-2015 23:55:17 5.9 C 77 %
2882 27-03-2015 00:07:17 5.9 C 77 %
2883 27-03-2015 00:19:17 5.9 C 77 %
2884 27-03-2015 00:31:17 6 C 76 %
2885 27-03-2015 00:43:17 6.1 C 74 %
2886 27-03-2015 00:55:17 6.2 C 74 %
2887 27-03-2015 01:07:17 5.9 C 78 %
2888 27-03-2015 01:19:17 6 C 79 %
2889 27-03-2015 01:31:17 6 C 78 %
2890 27-03-2015 01:43:17 5.9 C 80 %
2891 27-03-2015 01:55:17 5.7 C 80 %
2892 27-03-2015 02:07:17 5.9 C 80 %
2893 27-03-2015 02:19:17 5.8 C 79 %
2894 27-03-2015 02:31:17 5.7 C 80 %
2895 27-03-2015 02:43:17 5.6 C 80 %
2896 27-03-2015 02:55:17 5.7 C 81 %
2897 27-03-2015 03:07:17 5.1 C 81 %
2898 27-03-2015 03:19:17 4.6 C 83 %
2899 27-03-2015 03:31:17 4.6 C 84 %
2900 27-03-2015 03:43:17 4.1 C 84 %
Sensor: Nr:Datum:Temp:Feuchte:
Aussen-T/F 2901 27-03-2015 03:55:17 4.3 C 86 %
2902 27-03-2015 04:07:17 4.4 C 85 %
2903 27-03-2015 04:19:17 3.9 C 85 %
2904 27-03-2015 04:31:17 3.8 C 85 %
2905 27-03-2015 04:43:17 3.5 C 85 %
2906 27-03-2015 04:55:17 3.6 C 85 %
2907 27-03-2015 05:07:17 3.6 C 85 %
2908 27-03-2015 05:19:17 3.9 C 84 %
2909 27-03-2015 05:31:17 3.5 C 83 %
2910 27-03-2015 05:43:17 3.9 C 82 %
2911 27-03-2015 05:55:17 3.8 C 80 %
2912 27-03-2015 06:07:17 4.3 C 77 %
2913 27-03-2015 06:19:17 4.1 C 74 %
2914 27-03-2015 06:31:17 4.1 C 74 %
2915 27-03-2015 06:43:17 4.4 C 74 %
2916 27-03-2015 06:55:17 4.4 C 74 %
2917 27-03-2015 07:07:17 4.6 C 74 %
2918 27-03-2015 07:19:16 4.9 C 71 %
2919 27-03-2015 07:31:17 5 C 69 %
2920 27-03-2015 07:43:17 5.2 C 70 %
2921 27-03-2015 07:55:17 5.4 C 69 %
2922 27-03-2015 08:07:17 5.6 C 69 %
2923 27-03-2015 08:19:17 5.7 C 68 %
2924 27-03-2015 08:31:17 5.9 C 68 %
2925 27-03-2015 08:43:17 6.1 C 66 %
Sensor: Nr:Datum:Temp:Feuchte:
Aussen-T/F 2926 27-03-2015 08:55:17 6.3 C 66 %
2927 27-03-2015 09:07:17 6.7 C 65 %
2928 27-03-2015 09:19:17 6.7 C 64 %
2929 27-03-2015 09:31:17 7 C 64 %
2930 27-03-2015 09:43:17 6.8 C 63 %
2931 27-03-2015 09:55:17 7.2 C 62 %
2932 27-03-2015 10:07:17 7.7 C 60 %
2933 27-03-2015 10:19:17 8.4 C 58 %
2934 27-03-2015 10:31:17 8.3 C 57 %
2935 27-03-2015 10:43:17 8.6 C 56 %
2936 27-03-2015 10:55:17 8.4 C 56 %
2937 27-03-2015 11:07:17 8.6 C 54 %
2938 27-03-2015 11:19:17 8.8 C 53 %
2939 27-03-2015 11:31:17 8.5 C 54 %
2940 27-03-2015 11:43:17 8.7 C 56 %
2941 27-03-2015 11:55:17 8.4 C 57 %
2942 27-03-2015 12:07:18 9 C 55 %
2943 27-03-2015 12:19:17 9.3 C 50 %
2944 27-03-2015 12:31:17 9.2 C 47 %
2945 27-03-2015 12:43:17 9.2 C 46 %
2946 27-03-2015 12:55:17 9.5 C 46 %
2947 27-03-2015 13:07:17 9.7 C 46 %
2948 27-03-2015 13:19:17 9.1 C 46 %
2949 27-03-2015 13:31:17 9.4 C 47 %
2950 27-03-2015 13:43:17 9.5 C 46 %
Sensor: Nr:Datum:Temp:Feuchte:
Aussen-T/F 2951 27-03-2015 13:55:17 9.5 C 45 %
2952 27-03-2015 14:07:17 10.4 C 45 %
2953 27-03-2015 14:19:17 9.7 C 44 %
2954 27-03-2015 14:31:17 10.1 C 43 %
2955 27-03-2015 14:43:17 10.5 C 43 %
2956 27-03-2015 14:55:17 11.4 C 41 %
2957 27-03-2015 15:07:17 10.3 C 41 %
2958 27-03-2015 15:19:18 9.9 C 43 %
2959 27-03-2015 15:31:17 9.8 C 44 %
2960 27-03-2015 15:43:17 10.2 C 42 %
2961 27-03-2015 15:55:17 10.1 C 42 %
2962 27-03-2015 16:07:17 10.2 C 41 %
2963 27-03-2015 16:19:17 10.1 C 41 %
2964 27-03-2015 16:31:17 10.4 C 40 %
2965 27-03-2015 16:43:17 10.3 C 41 %
2966 27-03-2015 16:55:17 10.3 C 41 %
2967 27-03-2015 17:07:17 10.4 C 40 %
2968 27-03-2015 17:19:17 11.6 C 40 %
2969 27-03-2015 17:31:17 10.6 C 40 %
2970 27-03-2015 17:43:17 13.1 C 35 %
2971 27-03-2015 17:55:17 10.2 C 40 %
2972 27-03-2015 18:07:17 9.7 C 41 %
2973 27-03-2015 18:19:17 9.5 C 41 %
2974 27-03-2015 18:31:17 9.3 C 42 %
2975 27-03-2015 18:43:17 9.2 C 42 %
Sensor: Nr:Datum:Temp:Feuchte:
Aussen-T/F 2976 27-03-2015 18:55:17 9 C 43 %
2977 27-03-2015 19:07:17 9 C 43 %
2978 27-03-2015 19:19:17 9 C 43 %
2979 27-03-2015 19:31:17 8.6 C 47 %
2980 27-03-2015 19:43:17 8.2 C 48 %
2981 27-03-2015 19:55:17 8.1 C 50 %
2982 27-03-2015 20:07:17 8 C 50 %
2983 27-03-2015 20:19:17 7.9 C 52 %
2984 27-03-2015 20:31:17 7.8 C 53 %
2985 27-03-2015 20:43:17 7.5 C 56 %
2986 27-03-2015 20:55:17 7.5 C 57 %
2987 27-03-2015 21:07:17 7.3 C 58 %
2988 27-03-2015 21:19:17 7.2 C 58 %
2989 27-03-2015 21:31:17 7.1 C 59 %
2990 27-03-2015 21:43:17 7.1 C 60 %
2991 27-03-2015 21:55:17 7 C 61 %
2992 27-03-2015 22:07:17 6.9 C 62 %
2993 27-03-2015 22:19:17 6.6 C 62 %
2994 27-03-2015 22:31:17 6.2 C 63 %
2995 27-03-2015 22:43:18 6.4 C 64 %
2996 27-03-2015 22:55:17 6.3 C 64 %
2997 27-03-2015 23:07:17 6.3 C 64 %
2998 27-03-2015 23:19:17 6.3 C 64 %
2999 27-03-2015 23:31:17 6 C 64 %
3000 27-03-2015 23:43:17 5.8 C 66 %
Sensor: Nr:Datum:Temp:Feuchte:
Aussen-T/F 3001 27-03-2015 23:55:16 5.5 C 66 %
3002 28-03-2015 00:07:17 5.5 C 67 %
3003 28-03-2015 00:19:17 5.4 C 67 %
3004 28-03-2015 00:31:17 5.7 C 66 %
3005 28-03-2015 00:43:17 5.7 C 66 %
3006 28-03-2015 00:55:17 5.7 C 67 %
3007 28-03-2015 01:07:17 5.9 C 66 %
3008 28-03-2015 01:19:17 5.9 C 66 %
3009 28-03-2015 01:31:17 5.8 C 66 %
3010 28-03-2015 01:43:17 5.8 C 66 %
3011 28-03-2015 01:55:17 5.6 C 68 %
3012 28-03-2015 02:07:17 5.4 C 70 %
3013 28-03-2015 02:19:17 5.2 C 70 %
3014 28-03-2015 02:31:17 5 C 70 %
3015 28-03-2015 02:43:17 4.5 C 72 %
3016 28-03-2015 02:55:17 4.1 C 72 %
3017 28-03-2015 03:07:17 3.7 C 73 %
3018 28-03-2015 03:19:17 3.2 C 74 %
3019 28-03-2015 03:31:17 3 C 75 %
3020 28-03-2015 03:43:17 3.1 C 77 %
3021 28-03-2015 03:55:17 3.4 C 77 %
3022 28-03-2015 04:07:17 4.3 C 73 %
3023 28-03-2015 04:19:17 4.1 C 72 %
3024 28-03-2015 04:31:18 3.7 C 73 %
3025 28-03-2015 04:43:18 3.7 C 73 %
Sensor: Nr:Datum:Temp:Feuchte:
Aussen-T/F 3026 28-03-2015 04:55:17 3.9 C 73 %
3027 28-03-2015 05:07:17 4.2 C 71 %
3028 28-03-2015 05:19:17 4.3 C 70 %
3029 28-03-2015 05:31:17 4.2 C 69 %
3030 28-03-2015 05:43:17 4.3 C 69 %
3031 28-03-2015 05:55:17 4.4 C 69 %
3032 28-03-2015 06:07:17 4.5 C 67 %
3033 28-03-2015 06:19:17 4.5 C 67 %
3034 28-03-2015 06:31:17 4.5 C 68 %
3035 28-03-2015 06:43:17 4.5 C 67 %
3036 28-03-2015 06:55:17 4.5 C 68 %
3037 28-03-2015 07:07:17 4.6 C 67 %
3038 28-03-2015 07:19:17 4.7 C 66 %
3039 28-03-2015 07:31:17 4.8 C 66 %
3040 28-03-2015 07:43:17 5.1 C 64 %
3041 28-03-2015 07:55:17 5.3 C 63 %
3042 28-03-2015 08:07:17 5.6 C 62 %
3043 28-03-2015 08:19:17 5.8 C 61 %
3044 28-03-2015 08:31:17 6.1 C 60 %
3045 28-03-2015 08:43:17 6.3 C 59 %
3046 28-03-2015 08:55:17 6.4 C 59 %
3047 28-03-2015 09:07:17 6.1 C 60 %
3048 28-03-2015 09:19:17 6.5 C 61 %
3049 28-03-2015 09:31:17 6.9 C 60 %
3050 28-03-2015 09:43:17 7.3 C 59 %
Sensor: Nr:Datum:Temp:Feuchte:
Aussen-T/F 3051 28-03-2015 09:55:17 8.5 C 53 %
3052 28-03-2015 10:07:17 9.3 C 48 %
3053 28-03-2015 10:19:17 10.3 C 43 %
3054 28-03-2015 10:31:17 10.7 C 41 %
3055 28-03-2015 10:43:17 11.2 C 39 %
3056 28-03-2015 10:55:17 11.6 C 38 %
3057 28-03-2015 11:07:17 11.8 C 38 %
3058 28-03-2015 11:19:17 12 C 36 %
3059 28-03-2015 11:31:17 12.2 C 37 %
3060 28-03-2015 11:43:17 12.4 C 37 %
3061 28-03-2015 11:55:17 12.7 C 37 %
3062 28-03-2015 12:07:17 12.6 C 37 %
3063 28-03-2015 12:19:18 12.4 C 38 %
3064 28-03-2015 12:31:17 12.6 C 39 %
3065 28-03-2015 12:43:17 12.9 C 39 %
3066 28-03-2015 12:55:17 12.7 C 38 %
3067 28-03-2015 13:08:17 12.7 C 39 %
3068 28-03-2015 13:19:17 12.6 C 40 %
3069 28-03-2015 13:31:17 12.5 C 41 %
3070 28-03-2015 13:43:17 12.6 C 40 %
3071 28-03-2015 13:55:17 12.5 C 41 %
3072 28-03-2015 14:07:17 12.4 C 41 %
3073 28-03-2015 14:19:17 11.4 C 47 %
3074 28-03-2015 14:31:17 11.7 C 49 %
3075 28-03-2015 14:43:17 11.2 C 53 %
Sensor: Nr:Datum:Temp:Feuchte:
Aussen-T/F 3076 28-03-2015 14:56:17 10.7 C 56 %
3077 28-03-2015 15:07:17 9.8 C 66 %
3078 28-03-2015 15:19:17 9.6 C 71 %
3079 28-03-2015 15:31:17 9.7 C 73 %
3080 28-03-2015 15:43:17 9.7 C 75 %
3081 28-03-2015 15:56:17 9.5 C 76 %
3082 28-03-2015 16:07:17 9.3 C 79 %
3083 28-03-2015 16:20:17 9.2 C 81 %
3084 28-03-2015 16:31:17 8.9 C 83 %
3085 28-03-2015 16:43:17 8.7 C 83 %
3086 28-03-2015 16:55:17 8.5 C 85 %
3087 28-03-2015 17:07:17 8.5 C 86 %
3088 28-03-2015 17:20:17 8.4 C 87 %
3089 28-03-2015 17:31:17 8.4 C 87 %
3090 28-03-2015 17:43:17 8.5 C 87 %
3091 28-03-2015 17:55:17 8.6 C 86 %
3092 28-03-2015 18:07:17 8.7 C 86 %
3093 28-03-2015 18:19:17 9 C 82 %
3094 28-03-2015 18:31:17 9.1 C 79 %
3095 28-03-2015 18:43:17 9.2 C 77 %
3096 28-03-2015 18:56:17 9.4 C 75 %
3097 28-03-2015 19:07:17 9 C 75 %
3098 28-03-2015 19:19:17 8.6 C 77 %
3099 28-03-2015 19:31:17 8.3 C 79 %
3100 28-03-2015 19:43:17 8.7 C 81 %
Sensor: Nr:Datum:Temp:Feuchte:
Aussen-T/F 3101 28-03-2015 19:56:17 8.7 C 81 %
3102 28-03-2015 20:07:17 9.1 C 80 %
3103 28-03-2015 20:20:17 9.4 C 80 %
3104 28-03-2015 20:32:17 9.6 C 79 %
3105 28-03-2015 20:44:17 9.4 C 79 %
3106 28-03-2015 20:55:17 9.3 C 81 %
3107 28-03-2015 21:07:18 9.4 C 82 %
3108 28-03-2015 21:20:17 9.6 C 82 %
3109 28-03-2015 21:32:17 9.7 C 82 %
3110 28-03-2015 21:44:17 9.6 C 83 %
3111 28-03-2015 21:55:17 9.9 C 83 %
3112 28-03-2015 22:07:17 9.9 C 83 %
3113 28-03-2015 22:20:17 10.1 C 81 %
3114 28-03-2015 22:31:17 10.3 C 81 %
3115 28-03-2015 22:43:17 10.5 C 80 %
3116 28-03-2015 22:56:17 10.9 C 79 %
3117 28-03-2015 23:08:17 11.2 C 77 %
3118 28-03-2015 23:20:17 11.4 C 76 %
3119 28-03-2015 23:32:17 11.7 C 75 %
3120 28-03-2015 23:44:17 11.7 C 74 %
3121 28-03-2015 23:56:17 11.9 C 72 %
3122 29-03-2015 00:08:17 12.1 C 71 %
3123 29-03-2015 00:19:17 12 C 70 %
3124 29-03-2015 00:32:17 12.1 C 70 %
3125 29-03-2015 00:44:17 12.1 C 70 %
Sensor: Nr:Datum:Temp:Feuchte:
Aussen-T/F 3126 29-03-2015 00:56:17 12.1 C 70 %
3127 29-03-2015 01:08:17 11.8 C 71 %
3128 29-03-2015 01:20:17 12.1 C 70 %
3129 29-03-2015 01:32:17 12.1 C 70 %
3130 29-03-2015 01:44:17 12.1 C 70 %
3131 29-03-2015 01:56:17 12.1 C 70 %
3132 29-03-2015 02:08:17 11.4 C 74 %
3133 29-03-2015 02:20:17 11.3 C 77 %
3134 29-03-2015 02:32:17 11.3 C 77 %
3135 29-03-2015 02:44:17 11.5 C 74 %
3136 29-03-2015 02:56:17 11.7 C 72 %
3137 29-03-2015 04:08:17 11.7 C 71 %
3138 29-03-2015 04:20:17 11.7 C 70 %
3139 29-03-2015 04:32:17 11.5 C 72 %
3140 29-03-2015 04:44:17 11.4 C 74 %
3141 29-03-2015 04:56:17 11.5 C 73 %
3142 29-03-2015 05:08:17 11.3 C 72 %
3143 29-03-2015 05:20:17 11.3 C 72 %
3144 29-03-2015 05:32:17 11.4 C 71 %
3145 29-03-2015 05:44:17 11.4 C 72 %
3146 29-03-2015 05:56:17 11.5 C 70 %
3147 29-03-2015 06:08:18 11.3 C 69 %
3148 29-03-2015 06:20:17 11.4 C 67 %
3149 29-03-2015 06:32:17 11.3 C 66 %
3150 29-03-2015 06:44:17 11.3 C 65 %
Sensor: Nr:Datum:Temp:Feuchte:
Aussen-T/F 3151 29-03-2015 06:56:16 11.2 C 65 %
3152 29-03-2015 07:08:17 11.1 C 65 %
3153 29-03-2015 07:20:17 10.9 C 67 %
3154 29-03-2015 07:32:17 11 C 66 %
3155 29-03-2015 07:44:17 11.1 C 66 %
3156 29-03-2015 07:56:17 11.1 C 65 %
3157 29-03-2015 08:08:17 11.3 C 61 %
3158 29-03-2015 08:20:17 11.3 C 61 %
3159 29-03-2015 08:32:17 11.2 C 61 %
3160 29-03-2015 08:44:17 11.1 C 61 %
3161 29-03-2015 08:56:17 11 C 61 %
3162 29-03-2015 09:08:17 11 C 60 %
3163 29-03-2015 09:20:17 10.9 C 59 %
3164 29-03-2015 09:32:17 11 C 59 %
3165 29-03-2015 09:44:17 11 C 59 %
3166 29-03-2015 09:56:16 10.8 C 60 %
3167 29-03-2015 10:08:17 10.8 C 60 %
3168 29-03-2015 10:20:17 10.7 C 61 %
3169 29-03-2015 10:32:17 10.7 C 63 %
3170 29-03-2015 10:44:17 10.8 C 63 %
3171 29-03-2015 10:56:17 10.7 C 65 %
3172 29-03-2015 11:08:17 10.7 C 65 %
3173 29-03-2015 11:20:16 10.7 C 64 %
3174 29-03-2015 11:32:17 10.8 C 64 %
3175 29-03-2015 11:44:17 10.9 C 66 %
Sensor: Nr:Datum:Temp:Feuchte:
Aussen-T/F 3176 29-03-2015 11:56:17 10.9 C 67 %
3177 29-03-2015 12:08:17 11.1 C 66 %
3178 29-03-2015 12:20:17 11.1 C 67 %
3179 29-03-2015 12:32:16 10.8 C 69 %
3180 29-03-2015 12:44:17 10.7 C 72 %
3181 29-03-2015 12:56:17 10.7 C 73 %
3182 29-03-2015 13:08:17 10.6 C 74 %
3183 29-03-2015 13:20:17 10.7 C 74 %
3184 29-03-2015 13:32:17 10.8 C 74 %
3185 29-03-2015 13:44:17 11.3 C 73 %
3186 29-03-2015 13:56:16 11.3 C 71 %
3187 29-03-2015 14:08:17 11.5 C 71 %
3188 29-03-2015 14:20:17 11.1 C 72 %
3189 29-03-2015 14:32:16 11.2 C 72 %
3190 29-03-2015 14:44:16 11.5 C 71 %
3191 29-03-2015 14:56:17 11.3 C 71 %
3192 29-03-2015 15:08:17 11.3 C 71 %
3193 29-03-2015 15:20:17 11.7 C 70 %
3194 29-03-2015 15:32:17 11.9 C 69 %
3195 29-03-2015 15:44:17 11.8 C 68 %
3196 29-03-2015 15:56:17 11.6 C 70 %
3197 29-03-2015 16:08:17 11.5 C 72 %
3198 29-03-2015 16:20:16 11.8 C 72 %
3199 29-03-2015 16:32:17 11.8 C 71 %
3200 29-03-2015 16:44:17 11.8 C 71 %
Sensor: Nr:Datum:Temp:Feuchte:
Aussen-T/F 3201 29-03-2015 16:56:17 11.7 C 72 %
3202 29-03-2015 17:08:17 11.6 C 73 %
3203 29-03-2015 17:20:16 11.5 C 74 %
3204 29-03-2015 17:32:17 11.7 C 74 %
3205 29-03-2015 17:44:17 11.4 C 76 %
3206 29-03-2015 17:56:17 11.4 C 78 %
3207 29-03-2015 18:08:17 11.3 C 79 %
3208 29-03-2015 18:20:17 11.4 C 80 %
3209 29-03-2015 18:32:17 11.3 C 80 %
3210 29-03-2015 18:44:18 11.3 C 80 %
3211 29-03-2015 18:56:17 11.4 C 80 %
3212 29-03-2015 19:08:17 11.5 C 79 %
3213 29-03-2015 19:20:17 11.8 C 77 %
3214 29-03-2015 19:32:17 11.8 C 76 %
3215 29-03-2015 19:44:17 12.1 C 72 %
3216 29-03-2015 19:56:17 12.2 C 70 %
3217 29-03-2015 20:08:17 12 C 71 %
3218 29-03-2015 20:20:17 12.1 C 71 %
3219 29-03-2015 20:32:17 12.2 C 71 %
3220 29-03-2015 20:44:17 11.6 C 73 %
3221 29-03-2015 20:56:17 11.3 C 76 %
3222 29-03-2015 21:08:17 11.4 C 78 %
3223 29-03-2015 21:20:17 11.2 C 78 %
3224 29-03-2015 21:32:17 11.2 C 72 %
3225 29-03-2015 21:44:17 11.8 C 66 %
Sensor: Nr:Datum:Temp:Feuchte:
Aussen-T/F 3226 29-03-2015 21:56:17 11.8 C 63 %
3227 29-03-2015 22:08:17 11.9 C 58 %
3228 29-03-2015 22:20:17 11.6 C 60 %
3229 29-03-2015 22:32:17 10.8 C 66 %
3230 29-03-2015 22:44:17 9.6 C 73 %
3231 29-03-2015 22:56:17 8.6 C 73 %
3232 29-03-2015 23:08:17 8.3 C 74 %
3233 29-03-2015 23:20:17 8.2 C 74 %
3234 29-03-2015 23:32:17 8.4 C 75 %
3235 29-03-2015 23:44:17 8.3 C 74 %
3236 29-03-2015 23:56:17 8.1 C 73 %
3237 30-03-2015 00:08:17 8.2 C 74 %
3238 30-03-2015 00:20:17 8.2 C 73 %
3239 30-03-2015 00:32:17 7.8 C 78 %
3240 30-03-2015 00:44:17 7.7 C 79 %
3241 30-03-2015 00:56:17 7.5 C 82 %
3242 30-03-2015 01:08:17 7.4 C 84 %
3243 30-03-2015 01:20:17 7.4 C 84 %
3244 30-03-2015 01:32:17 7.5 C 81 %
3245 30-03-2015 01:44:17 7.9 C 76 %
3246 30-03-2015 01:56:17 7.9 C 74 %
3247 30-03-2015 02:08:17 7.9 C 73 %
3248 30-03-2015 02:20:17 7.9 C 73 %
3249 30-03-2015 02:32:17 7.9 C 74 %
3250 30-03-2015 02:44:18 7.7 C 76 %
Sensor: Nr:Datum:Temp:Feuchte:
Aussen-T/F 3251 30-03-2015 02:56:17 7.8 C 75 %
3252 30-03-2015 03:08:17 8 C 73 %
3253 30-03-2015 03:20:17 7.9 C 74 %
3254 30-03-2015 03:32:17 7.3 C 79 %
3255 30-03-2015 03:44:17 7 C 84 %
3256 30-03-2015 03:56:17 7 C 85 %
3257 30-03-2015 04:08:17 6.9 C 83 %
3258 30-03-2015 04:20:17 6.8 C 82 %
3259 30-03-2015 04:32:17 6.8 C 82 %
3260 30-03-2015 04:44:17 6.8 C 82 %
3261 30-03-2015 04:56:17 6.9 C 80 %
3262 30-03-2015 05:08:17 6.9 C 79 %
3263 30-03-2015 05:20:17 6.8 C 80 %
3264 30-03-2015 05:32:17 6.7 C 81 %
3265 30-03-2015 05:44:17 6.6 C 80 %
3266 30-03-2015 05:56:17 6.9 C 79 %
3267 30-03-2015 06:08:17 6.7 C 78 %
3268 30-03-2015 06:20:17 6.3 C 78 %
3269 30-03-2015 06:32:17 5.9 C 79 %
3270 30-03-2015 06:44:17 5.9 C 79 %
3271 30-03-2015 06:56:17 5.7 C 79 %
3272 30-03-2015 07:08:17 5.8 C 78 %
3273 30-03-2015 07:20:17 6.2 C 73 %
3274 30-03-2015 07:32:17 6.5 C 67 %
3275 30-03-2015 07:44:17 6.4 C 65 %
Sensor: Nr:Datum:Temp:Feuchte:
Aussen-T/F 3276 30-03-2015 07:56:17 6.8 C 63 %
3277 30-03-2015 08:08:17 6.8 C 63 %
3278 30-03-2015 08:20:17 6.7 C 65 %
3279 30-03-2015 08:32:17 6.7 C 66 %
3280 30-03-2015 08:44:17 6.9 C 66 %
3281 30-03-2015 08:56:17 7 C 66 %
3282 30-03-2015 09:08:17 7.3 C 62 %
3283 30-03-2015 09:20:17 7.7 C 60 %
3284 30-03-2015 09:32:17 7.8 C 58 %
3285 30-03-2015 09:44:17 7.9 C 57 %
3286 30-03-2015 09:56:17 8 C 55 %
3287 30-03-2015 10:08:17 7.5 C 60 %
3288 30-03-2015 10:20:17 7.6 C 60 %
3289 30-03-2015 10:32:17 7.9 C 59 %
3290 30-03-2015 10:44:17 8.2 C 58 %
3291 30-03-2015 10:56:17 8.5 C 53 %
3292 30-03-2015 11:08:17 9 C 48 %
3293 30-03-2015 11:20:17 9.1 C 44 %
3294 30-03-2015 11:32:17 9.2 C 41 %
3295 30-03-2015 11:44:17 7.5 C 49 %
3296 30-03-2015 11:56:17 7.6 C 54 %
3297 30-03-2015 12:08:17 7.4 C 52 %
3298 30-03-2015 12:20:17 8.3 C 50 %
3299 30-03-2015 12:32:17 9 C 49 %
3300 30-03-2015 12:44:17 9.4 C 45 %
Sensor: Nr:Datum:Temp:Feuchte:
Aussen-T/F 3301 30-03-2015 12:56:17 10.2 C 43 %
3302 30-03-2015 13:08:18 9.7 C 41 %
3303 30-03-2015 13:20:17 9.7 C 40 %
3304 30-03-2015 13:32:17 10.2 C 40 %
3305 30-03-2015 13:44:17 9.7 C 41 %
3306 30-03-2015 13:56:17 8.5 C 48 %
3307 30-03-2015 14:08:17 7.9 C 55 %
3308 30-03-2015 14:20:17 8.9 C 51 %
3309 30-03-2015 14:32:17 9.4 C 50 %
3310 30-03-2015 14:44:17 9.2 C 47 %
3311 30-03-2015 14:56:17 9.7 C 45 %
3312 30-03-2015 15:08:17 9.9 C 45 %
3313 30-03-2015 15:20:17 8.4 C 51 %
3314 30-03-2015 15:32:17 9.2 C 49 %
3315 30-03-2015 15:44:17 9.9 C 44 %
3316 30-03-2015 15:56:17 10.2 C 40 %
3317 30-03-2015 16:08:17 10.1 C 39 %
3318 30-03-2015 16:20:17 10.1 C 39 %
3319 30-03-2015 16:32:17 10.4 C 39 %
3320 30-03-2015 16:44:17 11.2 C 38 %
3321 30-03-2015 16:56:17 10.5 C 40 %
3322 30-03-2015 17:08:17 11.1 C 38 %
3323 30-03-2015 17:20:17 10.6 C 36 %
3324 30-03-2015 17:32:17 10 C 33 %
3325 30-03-2015 17:44:17 10.4 C 34 %
Sensor: Nr:Datum:Temp:Feuchte:
Aussen-T/F 3326 30-03-2015 17:56:17 11.4 C 31 %
3327 30-03-2015 18:08:17 9.8 C 34 %
3328 30-03-2015 18:20:17 9.5 C 35 %
3329 30-03-2015 18:32:17 9.1 C 35 %
3330 30-03-2015 18:44:17 8.9 C 35 %
3331 30-03-2015 18:56:17 9.1 C 35 %
3332 30-03-2015 19:08:17 9.2 C 36 %
3333 30-03-2015 19:20:17 9 C 35 %
3334 30-03-2015 19:32:17 8.7 C 36 %
3335 30-03-2015 19:44:17 8.2 C 36 %
3336 30-03-2015 19:56:17 7.9 C 40 %
3337 30-03-2015 20:08:17 7.9 C 40 %
3338 30-03-2015 20:20:17 7.3 C 41 %
3339 30-03-2015 20:32:17 6.8 C 45 %
3340 30-03-2015 20:44:17 6.2 C 48 %
3341 30-03-2015 20:56:17 5.9 C 51 %
3342 30-03-2015 21:08:17 5.5 C 53 %
3343 30-03-2015 21:20:17 5.1 C 56 %
3344 30-03-2015 21:32:17 4.8 C 59 %
3345 30-03-2015 21:44:17 4.5 C 63 %
3346 30-03-2015 21:56:17 4.2 C 65 %
3347 30-03-2015 22:08:17 4.5 C 65 %
3348 30-03-2015 22:20:17 4.6 C 66 %
3349 30-03-2015 22:32:17 4.7 C 67 %
3350 30-03-2015 22:44:17 4.7 C 64 %
Sensor: Nr:Datum:Temp:Feuchte:
Aussen-T/F 3351 30-03-2015 22:56:17 5.3 C 60 %
3352 30-03-2015 23:08:17 5.4 C 60 %
3353 30-03-2015 23:20:17 5.3 C 61 %
3354 30-03-2015 23:32:17 5.3 C 62 %
3355 30-03-2015 23:44:17 5.4 C 62 %
3356 30-03-2015 23:56:17 5.6 C 61 %
3357 31-03-2015 00:08:17 5.7 C 62 %
3358 31-03-2015 00:20:17 5.6 C 69 %
3359 31-03-2015 00:32:17 5.6 C 74 %
3360 31-03-2015 00:44:17 5.6 C 76 %
3361 31-03-2015 00:56:17 5.8 C 78 %
3362 31-03-2015 01:08:17 5.9 C 77 %
3363 31-03-2015 01:20:17 6.3 C 73 %
3364 31-03-2015 01:32:17 7 C 70 %
3365 31-03-2015 01:44:17 7.2 C 68 %
3366 31-03-2015 01:56:17 7.5 C 67 %
3367 31-03-2015 02:08:17 7.7 C 67 %
3368 31-03-2015 02:20:17 7.9 C 67 %
3369 31-03-2015 02:32:17 8 C 68 %
3370 31-03-2015 02:44:17 8.2 C 69 %
3371 31-03-2015 02:56:17 8.4 C 70 %
3372 31-03-2015 03:08:17 8.6 C 71 %
3373 31-03-2015 03:20:17 8.9 C 72 %
3374 31-03-2015 03:32:17 9.1 C 71 %
3375 31-03-2015 03:44:17 9.2 C 72 %
Sensor: Nr:Datum:Temp:Feuchte:
Aussen-T/F 3376 31-03-2015 03:56:17 9.6 C 73 %
3377 31-03-2015 04:08:17 9.8 C 73 %
3378 31-03-2015 04:20:17 10.4 C 71 %
3379 31-03-2015 04:32:17 10.7 C 70 %
3380 31-03-2015 04:44:17 11.2 C 68 %
3381 31-03-2015 04:56:17 11.5 C 67 %
3382 31-03-2015 05:08:17 11.9 C 65 %
3383 31-03-2015 05:20:17 12.3 C 63 %
3384 31-03-2015 05:32:17 12.4 C 62 %
3385 31-03-2015 05:44:17 12.5 C 62 %
3386 31-03-2015 05:56:17 12.6 C 61 %
3387 31-03-2015 06:08:17 12.8 C 60 %
3388 31-03-2015 06:20:17 12.9 C 60 %
3389 31-03-2015 06:32:17 13.1 C 58 %
3390 31-03-2015 06:44:17 13.2 C 59 %
3391 31-03-2015 06:56:17 12.6 C 64 %
3392 31-03-2015 07:08:17 11.8 C 70 %
3393 31-03-2015 07:20:17 11.3 C 77 %
3394 31-03-2015 07:32:17 11 C 80 %
3395 31-03-2015 07:44:17 11.4 C 80 %
3396 31-03-2015 07:56:17 12.4 C 67 %
3397 31-03-2015 08:08:17 12.4 C 60 %
3398 31-03-2015 08:20:17 12.2 C 59 %
3399 31-03-2015 08:32:17 12.2 C 57 %
3400 31-03-2015 08:44:17 12.1 C 57 %
Sensor: Nr:Datum:Temp:Feuchte:
Aussen-T/F 3401 31-03-2015 08:56:17 12 C 59 %
3402 31-03-2015 09:08:17 11.5 C 62 %
3403 31-03-2015 09:20:17 11.5 C 63 %
3404 31-03-2015 09:32:17 11.8 C 59 %
3405 31-03-2015 09:44:17 12.3 C 55 %
3406 31-03-2015 09:56:17 12.7 C 53 %
3407 31-03-2015 10:08:17 12.9 C 51 %
3408 31-03-2015 10:20:17 12.9 C 51 %
3409 31-03-2015 10:32:17 12.8 C 52 %
3410 31-03-2015 10:44:17 12.9 C 51 %
3411 31-03-2015 10:56:17 13 C 48 %
3412 31-03-2015 11:08:17 13.1 C 46 %
3413 31-03-2015 11:20:17 10.3 C 61 %
3414 31-03-2015 11:32:17 9.9 C 69 %
3415 31-03-2015 11:44:17 10.4 C 66 %
3416 31-03-2015 11:56:17 11.3 C 57 %
3417 31-03-2015 12:08:17 9.5 C 67 %
3418 31-03-2015 12:20:17 8.6 C 72 %
3419 31-03-2015 12:32:17 8.1 C 77 %
3420 31-03-2015 12:44:17 8.6 C 79 %
3421 31-03-2015 12:56:17 8.4 C 75 %
3422 31-03-2015 13:08:17 8.7 C 72 %
3423 31-03-2015 13:20:17 9.1 C 71 %
3424 31-03-2015 13:32:17 9.4 C 65 %
3425 31-03-2015 13:44:17 9.6 C 62 %
Sensor: Nr:Datum:Temp:Feuchte:
Aussen-T/F 3426 31-03-2015 13:56:17 10.3 C 57 %
3427 31-03-2015 14:08:17 11.2 C 58 %
3428 31-03-2015 14:20:17 10.9 C 57 %
3429 31-03-2015 14:32:17 9.1 C 64 %
3430 31-03-2015 14:44:17 8.5 C 63 %
3431 31-03-2015 14:56:17 7.9 C 66 %
3432 31-03-2015 15:08:17 8.3 C 68 %
3433 31-03-2015 15:20:17 9.7 C 63 %
3434 31-03-2015 15:32:17 10.6 C 56 %
3435 31-03-2015 15:44:17 11 C 52 %
3436 31-03-2015 15:56:17 10.6 C 51 %
3437 31-03-2015 16:08:17 11.1 C 49 %
3438 31-03-2015 16:20:17 12.1 C 44 %
3439 31-03-2015 16:32:17 13.1 C 41 %
3440 31-03-2015 16:44:17 12.8 C 38 %
3441 31-03-2015 16:56:17 12.4 C 37 %
3442 31-03-2015 17:08:17 13.2 C 33 %
3443 31-03-2015 17:20:17 12.1 C 31 %
3444 31-03-2015 17:32:17 12.7 C 33 %
3445 31-03-2015 17:44:17 13.2 C 30 %
3446 31-03-2015 17:56:17 11.8 C 35 %
3447 31-03-2015 18:08:17 12.4 C 34 %
3448 31-03-2015 18:20:17 10.9 C 36 %
3449 31-03-2015 18:32:18 10.8 C 38 %
3450 31-03-2015 18:44:18 10.1 C 37 %
Sensor: Nr:Datum:Temp:Feuchte:
Aussen-T/F 3451 31-03-2015 18:56:17 11.1 C 37 %
3452 31-03-2015 19:08:17 9.4 C 41 %
3453 31-03-2015 19:20:17 9.3 C 41 %
3454 31-03-2015 19:32:17 8.8 C 44 %
3455 31-03-2015 19:44:17 8.7 C 45 %
3456 31-03-2015 19:56:17 8.2 C 46 %
3457 31-03-2015 20:08:17 7.8 C 49 %
3458 31-03-2015 20:20:17 7.5 C 50 %
3459 31-03-2015 20:32:17 7.4 C 52 %
3460 31-03-2015 20:44:17 7.6 C 52 %
3461 31-03-2015 20:56:17 7.5 C 52 %
3462 31-03-2015 21:08:17 7.8 C 52 %
3463 31-03-2015 21:20:17 5.2 C 67 %
3464 31-03-2015 21:32:17 4.4 C 78 %
3465 31-03-2015 21:44:17 4.6 C 82 %
3466 31-03-2015 21:56:17 4.5 C 83 %
3467 31-03-2015 22:08:17 4.4 C 84 %
3468 31-03-2015 22:20:17 4.5 C 84 %
3469 31-03-2015 22:32:17 4.6 C 84 %
3470 31-03-2015 22:44:17 5 C 81 %
3471 31-03-2015 22:56:17 4.7 C 81 %
3472 31-03-2015 23:08:17 4.6 C 81 %
3473 31-03-2015 23:20:17 4.7 C 81 %
3474 31-03-2015 23:32:17 5.3 C 76 %
3475 31-03-2015 23:44:17 5.3 C 69 %
Sensor: Nr:Datum:Temp:Feuchte:
Aussen-T/F 3476 31-03-2015 23:56:17 3 C 77 %
Sensor: Nr:Datum:Temp:Feuchte:
G-T/H 1 03-03-2015 00:06:17 7.7 C 65 %
2 03-03-2015 00:18:17 7.6 C 65 %
3 03-03-2015 00:30:17 7.6 C 64 %
4 03-03-2015 00:42:17 7.6 C 64 %
5 03-03-2015 00:54:17 7.5 C 64 %
6 03-03-2015 01:06:17 7.5 C 64 %
7 03-03-2015 01:18:17 7.5 C 64 %
8 03-03-2015 01:30:17 7.4 C 63 %
9 03-03-2015 01:42:17 7.4 C 63 %
10 03-03-2015 01:54:17 7.4 C 63 %
11 03-03-2015 02:06:17 7.4 C 63 %
12 03-03-2015 02:18:17 7.4 C 63 %
13 03-03-2015 02:30:17 7.3 C 62 %
14 03-03-2015 02:42:17 7.3 C 62 %
15 03-03-2015 02:54:17 7.3 C 62 %
16 03-03-2015 03:06:18 7.2 C 62 %
17 03-03-2015 03:18:18 7.2 C 62 %
18 03-03-2015 03:30:18 7.2 C 62 %
19 03-03-2015 03:42:18 7.1 C 62 %
20 03-03-2015 03:54:18 7.1 C 62 %
21 03-03-2015 04:06:18 7.1 C 62 %
22 03-03-2015 04:18:18 7 C 62 %
23 03-03-2015 04:30:18 7 C 62 %
24 03-03-2015 04:42:18 7 C 62 %
25 03-03-2015 04:54:18 7 C 62 %
Sensor: Nr:Datum:Temp:Feuchte:
G-T/H 26 03-03-2015 05:06:18 7 C 62 %
27 03-03-2015 05:18:18 7 C 62 %
28 03-03-2015 05:30:18 7 C 62 %
29 03-03-2015 05:42:18 7 C 62 %
30 03-03-2015 05:54:18 7 C 62 %
31 03-03-2015 06:06:18 7 C 62 %
32 03-03-2015 06:18:18 7 C 62 %
33 03-03-2015 06:30:18 7 C 62 %
34 03-03-2015 06:42:18 7 C 63 %
35 03-03-2015 06:54:18 7 C 63 %
36 03-03-2015 07:06:18 7.1 C 64 %
37 03-03-2015 07:18:16 7.1 C 64 %
38 03-03-2015 07:30:16 7.1 C 64 %
39 03-03-2015 07:42:16 7.1 C 64 %
40 03-03-2015 07:54:16 7.1 C 64 %
41 03-03-2015 08:06:17 7.1 C 65 %
42 03-03-2015 08:18:17 7.1 C 65 %
43 03-03-2015 08:30:17 7 C 65 %
44 03-03-2015 08:42:17 7 C 65 %
45 03-03-2015 08:54:16 7 C 65 %
46 03-03-2015 09:06:16 7 C 65 %
47 03-03-2015 09:18:17 7.1 C 66 %
48 03-03-2015 09:30:17 7.1 C 66 %
49 03-03-2015 09:42:17 7.1 C 66 %
50 03-03-2015 09:54:17 7.1 C 66 %
Sensor: Nr:Datum:Temp:Feuchte:
G-T/H 51 03-03-2015 10:06:17 7.1 C 66 %
52 03-03-2015 10:18:16 7.1 C 66 %
53 03-03-2015 10:30:16 7.1 C 66 %
54 03-03-2015 10:42:16 7.1 C 66 %
55 03-03-2015 10:54:17 7.1 C 66 %
56 03-03-2015 11:06:17 7.1 C 66 %
57 03-03-2015 11:18:17 7.1 C 67 %
58 03-03-2015 11:30:16 7.2 C 67 %
59 03-03-2015 11:42:16 7.2 C 67 %
60 03-03-2015 11:54:17 7.2 C 67 %
61 03-03-2015 12:06:17 7.2 C 67 %
62 03-03-2015 12:18:16 7.2 C 67 %
63 03-03-2015 12:30:17 7.2 C 67 %
64 03-03-2015 12:42:17 7.3 C 67 %
65 03-03-2015 12:54:16 7.3 C 67 %
66 03-03-2015 13:06:17 7.3 C 67 %
67 03-03-2015 13:18:16 7.3 C 67 %
68 03-03-2015 13:30:17 7.3 C 67 %
69 03-03-2015 13:42:17 7.4 C 67 %
70 03-03-2015 13:54:17 7.4 C 67 %
71 03-03-2015 14:06:16 7.4 C 67 %
72 03-03-2015 14:18:16 7.4 C 67 %
73 03-03-2015 14:30:17 7.5 C 67 %
74 03-03-2015 14:42:17 7.5 C 67 %
75 03-03-2015 14:54:16 7.5 C 67 %
Sensor: Nr:Datum:Temp:Feuchte:
G-T/H 76 03-03-2015 15:06:17 7.6 C 68 %
77 03-03-2015 15:18:16 7.6 C 68 %
78 03-03-2015 15:30:16 7.6 C 68 %
79 03-03-2015 15:42:16 7.6 C 68 %
80 03-03-2015 15:54:16 7.7 C 68 %
81 03-03-2015 16:06:16 7.7 C 68 %
82 03-03-2015 16:18:17 7.7 C 68 %
83 03-03-2015 16:30:16 7.7 C 68 %
84 03-03-2015 16:42:16 7.8 C 68 %
85 03-03-2015 16:54:16 7.8 C 68 %
86 03-03-2015 17:06:16 7.8 C 68 %
87 03-03-2015 17:18:16 7.8 C 68 %
88 03-03-2015 17:30:16 7.9 C 68 %
89 03-03-2015 17:42:16 7.8 C 68 %
90 03-03-2015 17:54:16 7.9 C 68 %
91 03-03-2015 18:06:16 7.9 C 68 %
92 03-03-2015 18:18:16 7.9 C 68 %
93 03-03-2015 18:30:16 7.9 C 68 %
94 03-03-2015 18:42:16 7.9 C 68 %
95 03-03-2015 18:54:16 8 C 68 %
96 03-03-2015 19:06:16 8 C 68 %
97 03-03-2015 19:18:15 8 C 68 %
98 03-03-2015 19:30:16 8 C 68 %
99 03-03-2015 19:42:16 8 C 68 %
100 03-03-2015 19:54:16 8 C 68 %
Sensor: Nr:Datum:Temp:Feuchte:
G-T/H 101 03-03-2015 20:06:16 8 C 68 %
102 03-03-2015 20:18:16 8 C 68 %
103 03-03-2015 20:30:16 8 C 68 %
104 03-03-2015 20:42:16 8 C 68 %
105 03-03-2015 20:54:16 8 C 68 %
106 03-03-2015 21:06:16 8 C 68 %
107 03-03-2015 21:18:16 8 C 68 %
108 03-03-2015 21:30:16 8.1 C 68 %
109 03-03-2015 21:42:16 8.1 C 69 %
110 03-03-2015 21:54:16 8.1 C 69 %
111 03-03-2015 22:06:16 8 C 69 %
112 03-03-2015 22:18:16 8.1 C 69 %
113 03-03-2015 22:30:16 8.1 C 69 %
114 03-03-2015 22:42:16 8.1 C 69 %
115 03-03-2015 22:54:16 8 C 69 %
116 03-03-2015 23:06:15 8.1 C 69 %
117 03-03-2015 23:18:15 8.1 C 69 %
118 03-03-2015 23:30:16 8.1 C 69 %
119 03-03-2015 23:42:16 8.1 C 69 %
120 03-03-2015 23:54:15 8 C 69 %
121 04-03-2015 00:06:16 8 C 69 %
122 04-03-2015 00:18:16 8.1 C 69 %
123 04-03-2015 00:30:15 8.1 C 69 %
124 04-03-2015 00:42:15 8 C 69 %
125 04-03-2015 00:54:15 8 C 69 %
Sensor: Nr:Datum:Temp:Feuchte:
G-T/H 126 04-03-2015 01:06:16 8 C 69 %
127 04-03-2015 01:18:15 8 C 69 %
128 04-03-2015 01:30:16 8.1 C 69 %
129 04-03-2015 01:42:16 8 C 69 %
130 04-03-2015 01:54:16 8 C 69 %
131 04-03-2015 02:06:15 8 C 69 %
132 04-03-2015 02:18:16 8 C 69 %
133 04-03-2015 02:30:15 8 C 69 %
134 04-03-2015 02:42:15 8 C 69 %
135 04-03-2015 02:54:17 8 C 69 %
136 04-03-2015 03:06:17 8 C 69 %
137 04-03-2015 03:18:17 8 C 69 %
138 04-03-2015 03:30:17 7.9 C 70 %
139 04-03-2015 03:42:17 8 C 69 %
140 04-03-2015 03:54:17 7.9 C 70 %
141 04-03-2015 04:06:17 7.9 C 70 %
142 04-03-2015 04:18:17 7.9 C 70 %
143 04-03-2015 04:30:17 7.9 C 70 %
144 04-03-2015 04:42:17 7.9 C 70 %
145 04-03-2015 04:54:17 7.9 C 70 %
146 04-03-2015 05:06:17 7.9 C 70 %
147 04-03-2015 05:18:17 7.9 C 70 %
148 04-03-2015 05:30:17 7.9 C 69 %
149 04-03-2015 05:42:17 7.8 C 69 %
150 04-03-2015 05:54:17 7.8 C 69 %
Sensor: Nr:Datum:Temp:Feuchte:
G-T/H 151 04-03-2015 06:06:17 7.8 C 69 %
152 04-03-2015 06:18:17 7.8 C 69 %
153 04-03-2015 06:30:17 7.6 C 69 %
154 04-03-2015 06:42:17 7.5 C 68 %
155 04-03-2015 06:54:17 7.5 C 68 %
156 04-03-2015 07:06:17 7.4 C 67 %
157 04-03-2015 07:18:17 7.4 C 67 %
158 04-03-2015 07:30:17 7.3 C 66 %
159 04-03-2015 07:42:17 7.3 C 66 %
160 04-03-2015 07:54:17 7.2 C 66 %
161 04-03-2015 08:06:17 7.3 C 66 %
162 04-03-2015 08:18:17 7.4 C 66 %
163 04-03-2015 08:30:17 7.4 C 67 %
164 04-03-2015 08:42:17 7.4 C 67 %
165 04-03-2015 08:54:17 7.4 C 67 %
166 04-03-2015 09:06:17 7.4 C 67 %
167 04-03-2015 09:18:17 7.4 C 67 %
168 04-03-2015 09:30:17 7.4 C 68 %
169 04-03-2015 09:42:17 7.4 C 68 %
170 04-03-2015 09:54:17 7.4 C 68 %
171 04-03-2015 10:06:17 7.4 C 68 %
172 04-03-2015 10:18:17 7.4 C 68 %
173 04-03-2015 10:30:17 7.4 C 68 %
174 04-03-2015 10:42:17 7.4 C 68 %
175 04-03-2015 10:54:17 7.4 C 68 %
Sensor: Nr:Datum:Temp:Feuchte:
G-T/H 176 04-03-2015 11:06:17 7.4 C 68 %
177 04-03-2015 11:18:17 7.4 C 69 %
178 04-03-2015 11:30:17 7.4 C 69 %
179 04-03-2015 11:42:17 7.4 C 69 %
180 04-03-2015 11:54:17 7.4 C 69 %
181 04-03-2015 12:06:17 7.4 C 69 %
182 04-03-2015 12:18:17 7.4 C 69 %
183 04-03-2015 12:30:17 7.4 C 69 %
184 04-03-2015 12:42:17 7.4 C 69 %
185 04-03-2015 12:54:17 7.4 C 68 %
186 04-03-2015 13:06:17 7.4 C 68 %
187 04-03-2015 13:18:17 7.4 C 69 %
188 04-03-2015 13:30:17 7.4 C 69 %
189 04-03-2015 13:42:17 7.4 C 69 %
190 04-03-2015 13:54:17 7.4 C 69 %
191 04-03-2015 14:06:17 7.5 C 69 %
192 04-03-2015 14:18:17 7.5 C 69 %
193 04-03-2015 14:30:17 7.5 C 69 %
194 04-03-2015 14:42:17 7.5 C 69 %
195 04-03-2015 14:54:17 7.5 C 69 %
196 04-03-2015 15:06:17 7.5 C 69 %
197 04-03-2015 15:18:16 7.6 C 69 %
198 04-03-2015 15:30:17 7.5 C 68 %
199 04-03-2015 15:42:17 7.5 C 67 %
200 04-03-2015 15:54:17 7.5 C 66 %
Sensor: Nr:Datum:Temp:Feuchte:
G-T/H 201 04-03-2015 16:06:17 7.5 C 66 %
202 04-03-2015 16:18:17 7.5 C 65 %
203 04-03-2015 16:30:17 7.6 C 66 %
204 04-03-2015 16:42:17 7.6 C 66 %
205 04-03-2015 16:54:17 7.6 C 66 %
206 04-03-2015 17:06:17 7.6 C 67 %
207 04-03-2015 17:18:17 7.6 C 67 %
208 04-03-2015 17:30:17 7.7 C 67 %
209 04-03-2015 17:42:17 7.7 C 67 %
210 04-03-2015 17:54:17 7.7 C 68 %
211 04-03-2015 18:06:17 7.7 C 68 %
212 04-03-2015 18:18:17 7.7 C 68 %
213 04-03-2015 18:30:18 7.7 C 68 %
214 04-03-2015 18:42:18 7.7 C 68 %
215 04-03-2015 18:54:17 7.7 C 68 %
216 04-03-2015 19:06:17 7.7 C 68 %
217 04-03-2015 19:18:17 7.7 C 69 %
218 04-03-2015 19:30:17 7.7 C 69 %
219 04-03-2015 19:42:18 7.7 C 69 %
220 04-03-2015 19:54:17 7.7 C 69 %
221 04-03-2015 20:06:17 7.7 C 69 %
222 04-03-2015 20:18:17 7.7 C 69 %
223 04-03-2015 20:30:17 7.7 C 69 %
224 04-03-2015 20:42:17 7.7 C 69 %
225 04-03-2015 20:54:17 7.8 C 69 %
Sensor: Nr:Datum:Temp:Feuchte:
G-T/H 226 04-03-2015 21:06:17 7.7 C 69 %
227 04-03-2015 21:18:16 7.7 C 69 %
228 04-03-2015 21:30:17 7.7 C 69 %
229 04-03-2015 21:42:17 7.7 C 69 %
230 04-03-2015 21:54:17 7.7 C 69 %
231 04-03-2015 22:06:17 7.8 C 69 %
232 04-03-2015 22:18:17 7.7 C 69 %
233 04-03-2015 22:30:17 7.7 C 69 %
234 04-03-2015 22:42:17 7.7 C 69 %
235 04-03-2015 22:54:17 7.7 C 69 %
236 04-03-2015 23:06:17 7.7 C 69 %
237 04-03-2015 23:18:17 7.7 C 70 %
238 04-03-2015 23:30:17 7.7 C 70 %
239 04-03-2015 23:42:17 7.7 C 70 %
240 04-03-2015 23:54:17 7.7 C 70 %
241 05-03-2015 00:06:17 7.7 C 70 %
242 05-03-2015 00:18:17 7.7 C 70 %
243 05-03-2015 00:30:17 7.6 C 70 %
244 05-03-2015 00:42:17 7.6 C 70 %
245 05-03-2015 00:54:18 7.6 C 70 %
246 05-03-2015 01:06:17 7.6 C 70 %
247 05-03-2015 01:18:17 7.6 C 70 %
248 05-03-2015 01:30:17 7.6 C 70 %
249 05-03-2015 01:42:17 7.6 C 70 %
250 05-03-2015 01:54:17 7.6 C 70 %
Sensor: Nr:Datum:Temp:Feuchte:
G-T/H 251 05-03-2015 02:06:17 7.6 C 70 %
252 05-03-2015 02:18:17 7.6 C 70 %
253 05-03-2015 02:30:17 7.6 C 70 %
254 05-03-2015 02:42:17 7.6 C 70 %
255 05-03-2015 02:54:17 7.6 C 70 %
256 05-03-2015 03:06:17 7.6 C 70 %
257 05-03-2015 03:18:17 7.6 C 70 %
258 05-03-2015 03:30:17 7.6 C 70 %
259 05-03-2015 03:42:17 7.5 C 70 %
260 05-03-2015 03:54:17 7.6 C 70 %
261 05-03-2015 04:06:17 7.5 C 70 %
262 05-03-2015 04:18:17 7.5 C 70 %
263 05-03-2015 04:30:17 7.5 C 70 %
264 05-03-2015 04:42:17 7.5 C 70 %
265 05-03-2015 04:54:17 7.5 C 70 %
266 05-03-2015 05:06:17 7.5 C 70 %
267 05-03-2015 05:18:17 7.5 C 70 %
268 05-03-2015 05:30:18 7.5 C 70 %
269 05-03-2015 05:42:18 7.5 C 70 %
270 05-03-2015 05:54:17 7.5 C 70 %
271 05-03-2015 06:06:17 7.4 C 70 %
272 05-03-2015 06:18:17 7.4 C 70 %
273 05-03-2015 06:30:17 7.4 C 70 %
274 05-03-2015 06:42:17 7.4 C 70 %
275 05-03-2015 06:54:17 7.4 C 70 %
Sensor: Nr:Datum:Temp:Feuchte:
G-T/H 276 05-03-2015 07:06:18 7.4 C 70 %
277 05-03-2015 07:18:17 7.3 C 70 %
278 05-03-2015 07:30:17 7.3 C 70 %
279 05-03-2015 07:42:17 7.2 C 69 %
280 05-03-2015 07:54:17 7.2 C 69 %
281 05-03-2015 08:06:17 7.2 C 69 %
282 05-03-2015 08:18:17 7.2 C 69 %
283 05-03-2015 08:30:17 7.2 C 69 %
284 05-03-2015 08:42:17 7.3 C 69 %
285 05-03-2015 08:54:17 7.2 C 69 %
286 05-03-2015 09:06:17 7.2 C 69 %
287 05-03-2015 09:18:17 7.3 C 69 %
288 05-03-2015 09:30:17 7.3 C 69 %
289 05-03-2015 09:42:17 7.3 C 70 %
290 05-03-2015 09:54:17 7.3 C 70 %
291 05-03-2015 10:06:17 7.3 C 70 %
292 05-03-2015 10:18:17 7.3 C 70 %
293 05-03-2015 10:30:17 7.3 C 70 %
294 05-03-2015 10:42:17 7.3 C 70 %
295 05-03-2015 10:54:17 7.3 C 70 %
296 05-03-2015 11:06:17 7.3 C 70 %
297 05-03-2015 11:18:17 7.3 C 70 %
298 05-03-2015 11:30:17 7.2 C 70 %
299 05-03-2015 11:42:17 7.3 C 70 %
300 05-03-2015 11:54:17 7.3 C 70 %
Sensor: Nr:Datum:Temp:Feuchte:
G-T/H 301 05-03-2015 12:06:17 7.3 C 70 %
302 05-03-2015 12:18:17 7.3 C 70 %
303 05-03-2015 12:30:17 7.3 C 70 %
304 05-03-2015 12:42:17 7.3 C 70 %
305 05-03-2015 12:54:16 7.3 C 70 %
306 05-03-2015 13:06:17 7.3 C 70 %
307 05-03-2015 13:18:17 7.4 C 70 %
308 05-03-2015 13:30:17 7.4 C 70 %
309 05-03-2015 13:42:17 7.5 C 70 %
310 05-03-2015 13:54:17 7.5 C 70 %
311 05-03-2015 14:06:17 7.5 C 70 %
312 05-03-2015 14:18:17 7.5 C 70 %
313 05-03-2015 14:30:17 7.5 C 70 %
314 05-03-2015 14:42:17 7.5 C 70 %
315 05-03-2015 14:54:17 7.5 C 70 %
316 05-03-2015 15:06:17 7.6 C 70 %
317 05-03-2015 15:18:17 7.6 C 70 %
318 05-03-2015 15:30:17 7.6 C 70 %
319 05-03-2015 15:42:17 7.6 C 70 %
320 05-03-2015 15:54:17 7.7 C 70 %
321 05-03-2015 16:06:17 7.7 C 70 %
322 05-03-2015 16:18:17 7.7 C 70 %
323 05-03-2015 16:30:17 7.7 C 70 %
324 05-03-2015 16:42:17 7.8 C 70 %
325 05-03-2015 16:54:17 7.8 C 70 %
Sensor: Nr:Datum:Temp:Feuchte:
G-T/H 326 05-03-2015 17:06:17 7.8 C 70 %
327 05-03-2015 17:18:17 7.8 C 70 %
328 05-03-2015 17:30:17 7.8 C 70 %
329 05-03-2015 17:42:17 7.8 C 70 %
330 05-03-2015 17:54:17 7.8 C 70 %
331 05-03-2015 18:06:17 7.9 C 70 %
332 05-03-2015 18:18:17 7.9 C 71 %
333 05-03-2015 18:30:17 7.9 C 71 %
334 05-03-2015 18:42:17 7.9 C 71 %
335 05-03-2015 18:54:17 7.9 C 71 %
336 05-03-2015 19:06:17 7.9 C 71 %
337 05-03-2015 19:18:17 7.9 C 71 %
338 05-03-2015 19:30:17 7.9 C 71 %
339 05-03-2015 19:42:17 8 C 70 %
340 05-03-2015 19:54:17 8 C 70 %
341 05-03-2015 20:06:17 7.9 C 71 %
342 05-03-2015 20:18:17 8 C 70 %
343 05-03-2015 20:30:17 8 C 70 %
344 05-03-2015 20:42:17 7.9 C 71 %
345 05-03-2015 20:54:17 8 C 70 %
346 05-03-2015 21:06:17 8 C 70 %
347 05-03-2015 21:18:17 8 C 70 %
348 05-03-2015 21:30:17 8 C 70 %
349 05-03-2015 21:42:17 7.9 C 71 %
350 05-03-2015 21:54:17 7.9 C 71 %
Sensor: Nr:Datum:Temp:Feuchte:
G-T/H 351 05-03-2015 22:06:17 8 C 70 %
352 05-03-2015 22:18:17 8 C 70 %
353 05-03-2015 22:30:17 8 C 70 %
354 05-03-2015 22:42:17 8 C 70 %
355 05-03-2015 22:54:17 8 C 70 %
356 05-03-2015 23:06:17 7.9 C 71 %
357 05-03-2015 23:18:17 7.8 C 70 %
358 05-03-2015 23:30:17 7.7 C 70 %
359 05-03-2015 23:42:17 7.6 C 69 %
360 05-03-2015 23:54:17 7.6 C 69 %
361 06-03-2015 00:06:17 7.5 C 69 %
362 06-03-2015 00:18:17 7.5 C 68 %
363 06-03-2015 00:30:17 7.5 C 68 %
364 06-03-2015 00:42:17 7.4 C 68 %
365 06-03-2015 00:54:17 7.4 C 68 %
366 06-03-2015 01:06:17 7.4 C 67 %
367 06-03-2015 01:18:17 7.3 C 67 %
368 06-03-2015 01:30:17 7.3 C 67 %
369 06-03-2015 01:42:17 7.3 C 67 %
370 06-03-2015 01:54:17 7.3 C 66 %
371 06-03-2015 02:06:17 7.2 C 66 %
372 06-03-2015 02:18:17 7.2 C 66 %
373 06-03-2015 02:30:17 7.1 C 66 %
374 06-03-2015 02:42:17 7.1 C 66 %
375 06-03-2015 02:54:17 7.1 C 66 %
Sensor: Nr:Datum:Temp:Feuchte:
G-T/H 376 06-03-2015 03:06:17 7.1 C 65 %
377 06-03-2015 03:18:17 7.1 C 65 %
378 06-03-2015 03:30:17 7 C 65 %
379 06-03-2015 03:42:17 7 C 65 %
380 06-03-2015 03:54:17 7 C 65 %
381 06-03-2015 04:06:17 7 C 65 %
382 06-03-2015 04:18:17 7 C 65 %
383 06-03-2015 04:30:17 6.9 C 66 %
384 06-03-2015 04:42:17 6.9 C 65 %
385 06-03-2015 04:54:17 6.9 C 65 %
386 06-03-2015 05:06:17 6.8 C 65 %
387 06-03-2015 05:18:17 6.8 C 65 %
388 06-03-2015 05:30:17 6.8 C 65 %
389 06-03-2015 05:42:17 6.8 C 65 %
390 06-03-2015 05:54:17 6.7 C 65 %
391 06-03-2015 06:06:17 6.7 C 65 %
392 06-03-2015 06:18:17 6.7 C 64 %
393 06-03-2015 06:30:17 6.6 C 64 %
394 06-03-2015 06:42:17 6.6 C 64 %
395 06-03-2015 06:54:17 6.6 C 64 %
396 06-03-2015 07:06:17 6.5 C 64 %
397 06-03-2015 07:18:17 6.5 C 64 %
398 06-03-2015 07:30:17 6.5 C 64 %
399 06-03-2015 07:42:17 6.5 C 64 %
400 06-03-2015 07:54:17 6.5 C 64 %
Sensor: Nr:Datum:Temp:Feuchte:
G-T/H 401 06-03-2015 08:06:17 6.4 C 64 %
402 06-03-2015 08:18:17 6.4 C 64 %
403 06-03-2015 08:30:17 6.4 C 64 %
404 06-03-2015 08:42:17 6.4 C 64 %
405 06-03-2015 08:54:17 6.4 C 64 %
406 06-03-2015 09:06:17 6.5 C 64 %
407 06-03-2015 09:18:17 6.6 C 64 %
408 06-03-2015 09:30:17 6.6 C 65 %
409 06-03-2015 09:42:17 6.7 C 65 %
410 06-03-2015 09:54:17 6.7 C 65 %
411 06-03-2015 10:06:17 6.7 C 66 %
412 06-03-2015 10:18:17 6.7 C 66 %
413 06-03-2015 10:30:17 6.7 C 66 %
414 06-03-2015 10:42:17 6.7 C 66 %
415 06-03-2015 10:54:17 6.8 C 67 %
416 06-03-2015 11:06:17 6.8 C 67 %
417 06-03-2015 11:18:17 6.8 C 67 %
418 06-03-2015 11:30:17 6.9 C 67 %
419 06-03-2015 11:42:17 6.9 C 67 %
420 06-03-2015 11:54:17 6.9 C 67 %
421 06-03-2015 12:06:17 6.9 C 68 %
422 06-03-2015 12:18:17 6.9 C 68 %
423 06-03-2015 12:30:17 7 C 67 %
424 06-03-2015 12:42:17 7 C 67 %
425 06-03-2015 12:54:17 7 C 67 %
Sensor: Nr:Datum:Temp:Feuchte:
G-T/H 426 06-03-2015 13:06:17 7 C 67 %
427 06-03-2015 13:18:17 7 C 67 %
428 06-03-2015 13:30:17 7.1 C 67 %
429 06-03-2015 13:42:17 7.1 C 67 %
430 06-03-2015 13:54:17 7.1 C 68 %
431 06-03-2015 14:06:17 7.1 C 68 %
432 06-03-2015 14:18:17 7.2 C 68 %
433 06-03-2015 14:30:17 7.2 C 68 %
434 06-03-2015 14:42:17 7.2 C 68 %
435 06-03-2015 14:54:17 7.3 C 68 %
436 06-03-2015 15:06:17 7.3 C 68 %
437 06-03-2015 15:18:17 7.3 C 68 %
438 06-03-2015 15:30:18 7.4 C 68 %
439 06-03-2015 15:42:18 7.4 C 68 %
440 06-03-2015 15:54:17 7.4 C 68 %
441 06-03-2015 16:06:17 7.4 C 68 %
442 06-03-2015 16:18:17 7.5 C 68 %
443 06-03-2015 16:30:17 7.5 C 68 %
444 06-03-2015 16:42:17 7.5 C 68 %
445 06-03-2015 16:54:17 7.6 C 68 %
446 06-03-2015 17:06:17 7.5 C 68 %
447 06-03-2015 17:18:17 7.6 C 68 %
448 06-03-2015 17:30:17 7.6 C 68 %
449 06-03-2015 17:42:17 7.6 C 69 %
450 06-03-2015 17:54:17 7.6 C 69 %
Sensor: Nr:Datum:Temp:Feuchte:
G-T/H 451 06-03-2015 18:06:17 7.6 C 69 %
452 06-03-2015 18:18:17 7.7 C 69 %
453 06-03-2015 18:30:17 7.7 C 69 %
454 06-03-2015 18:42:17 7.7 C 69 %
455 06-03-2015 18:54:17 7.7 C 69 %
456 06-03-2015 19:06:17 7.7 C 69 %
457 06-03-2015 19:18:17 7.7 C 69 %
458 06-03-2015 19:30:17 7.7 C 69 %
459 06-03-2015 19:42:17 7.7 C 69 %
460 06-03-2015 19:54:17 7.8 C 69 %
461 06-03-2015 20:06:17 7.7 C 69 %
462 06-03-2015 20:18:17 7.8 C 69 %
463 06-03-2015 20:30:17 7.8 C 69 %
464 06-03-2015 20:42:17 7.8 C 69 %
465 06-03-2015 20:54:17 7.8 C 69 %
466 06-03-2015 21:06:17 7.8 C 69 %
467 06-03-2015 21:18:17 7.8 C 69 %
468 06-03-2015 21:30:17 7.8 C 69 %
469 06-03-2015 21:42:17 7.8 C 69 %
470 06-03-2015 21:54:17 7.8 C 69 %
471 06-03-2015 22:06:17 7.8 C 69 %
472 06-03-2015 22:18:17 7.7 C 69 %
473 06-03-2015 22:30:17 7.6 C 69 %
474 06-03-2015 22:42:17 7.5 C 68 %
475 06-03-2015 22:54:17 7.4 C 68 %
Sensor: Nr:Datum:Temp:Feuchte:
G-T/H 476 06-03-2015 23:06:17 7.4 C 67 %
477 06-03-2015 23:18:17 7.4 C 67 %
478 06-03-2015 23:30:17 7.3 C 67 %
479 06-03-2015 23:42:17 7.3 C 66 %
480 06-03-2015 23:54:17 7.2 C 66 %
481 07-03-2015 00:06:17 7.2 C 66 %
482 07-03-2015 00:18:17 7.1 C 66 %
483 07-03-2015 00:30:17 7.1 C 65 %
484 07-03-2015 00:42:17 7.1 C 65 %
485 07-03-2015 00:54:17 7.1 C 65 %
486 07-03-2015 01:06:17 7 C 65 %
487 07-03-2015 01:18:17 7 C 65 %
488 07-03-2015 01:30:17 7 C 64 %
489 07-03-2015 01:42:17 7 C 64 %
490 07-03-2015 01:54:17 6.9 C 65 %
491 07-03-2015 02:06:17 6.9 C 65 %
492 07-03-2015 02:18:17 6.9 C 65 %
493 07-03-2015 02:30:17 6.8 C 65 %
494 07-03-2015 02:42:17 6.8 C 64 %
495 07-03-2015 02:54:17 6.8 C 64 %
496 07-03-2015 03:06:17 6.8 C 64 %
497 07-03-2015 03:18:17 6.7 C 64 %
498 07-03-2015 03:30:17 6.7 C 64 %
499 07-03-2015 03:42:17 6.7 C 64 %
500 07-03-2015 03:54:17 6.7 C 64 %
Sensor: Nr:Datum:Temp:Feuchte:
G-T/H 501 07-03-2015 04:06:17 6.6 C 64 %
502 07-03-2015 04:18:17 6.6 C 63 %
503 07-03-2015 04:30:17 6.6 C 63 %
504 07-03-2015 04:42:17 6.5 C 63 %
505 07-03-2015 04:54:17 6.5 C 63 %
506 07-03-2015 05:06:17 6.5 C 63 %
507 07-03-2015 05:18:17 6.5 C 63 %
508 07-03-2015 05:30:17 6.4 C 63 %
509 07-03-2015 05:42:17 6.4 C 63 %
510 07-03-2015 05:54:17 6.4 C 63 %
511 07-03-2015 06:06:17 6.4 C 63 %
512 07-03-2015 06:18:17 6.3 C 62 %
513 07-03-2015 06:30:17 6.3 C 62 %
514 07-03-2015 06:42:17 6.3 C 62 %
515 07-03-2015 06:54:17 6.3 C 62 %
516 07-03-2015 07:06:17 6.3 C 62 %
517 07-03-2015 07:18:17 6.2 C 62 %
518 07-03-2015 07:30:17 6.2 C 62 %
519 07-03-2015 07:42:17 6.2 C 62 %
520 07-03-2015 07:54:17 6.2 C 62 %
521 07-03-2015 08:06:17 6.2 C 62 %
522 07-03-2015 08:18:17 6.2 C 62 %
523 07-03-2015 08:30:17 6.2 C 62 %
524 07-03-2015 08:42:17 6.1 C 62 %
525 07-03-2015 08:54:17 6.2 C 63 %
Sensor: Nr:Datum:Temp:Feuchte:
G-T/H 526 07-03-2015 09:06:17 6.3 C 63 %
527 07-03-2015 09:18:17 6.4 C 64 %
528 07-03-2015 09:30:17 6.4 C 64 %
529 07-03-2015 09:42:17 6.4 C 64 %
530 07-03-2015 09:54:17 6.5 C 64 %
531 07-03-2015 10:06:17 6.5 C 65 %
532 07-03-2015 10:18:17 6.5 C 65 %
533 07-03-2015 10:30:17 6.5 C 65 %
534 07-03-2015 10:42:17 6.5 C 65 %
535 07-03-2015 10:54:17 6.6 C 65 %
536 07-03-2015 11:06:17 6.6 C 66 %
537 07-03-2015 11:18:17 6.6 C 66 %
538 07-03-2015 11:30:17 6.6 C 66 %
539 07-03-2015 11:42:18 6.6 C 66 %
540 07-03-2015 11:54:17 6.7 C 66 %
541 07-03-2015 12:06:17 6.9 C 66 %
542 07-03-2015 12:18:17 7 C 66 %
543 07-03-2015 12:30:17 7 C 66 %
544 07-03-2015 12:42:17 7 C 66 %
545 07-03-2015 12:54:17 7.1 C 66 %
546 07-03-2015 13:06:17 7 C 66 %
547 07-03-2015 13:18:17 7 C 66 %
548 07-03-2015 13:30:17 7.1 C 66 %
549 07-03-2015 13:42:17 7.1 C 66 %
550 07-03-2015 13:54:17 7.1 C 66 %
Sensor: Nr:Datum:Temp:Feuchte:
G-T/H 551 07-03-2015 14:06:17 7.1 C 66 %
552 07-03-2015 14:18:17 7.1 C 66 %
553 07-03-2015 14:30:17 7.1 C 66 %
554 07-03-2015 14:42:17 7.2 C 66 %
555 07-03-2015 14:54:17 7.2 C 67 %
556 07-03-2015 15:06:17 7.3 C 67 %
557 07-03-2015 15:18:17 7.3 C 67 %
558 07-03-2015 15:30:17 7.3 C 67 %
559 07-03-2015 15:42:17 7.3 C 67 %
560 07-03-2015 15:54:17 7.4 C 67 %
561 07-03-2015 16:06:17 7.4 C 67 %
562 07-03-2015 16:18:17 7.4 C 67 %
563 07-03-2015 16:30:17 7.4 C 67 %
564 07-03-2015 16:42:17 7.5 C 67 %
565 07-03-2015 16:54:17 7.4 C 67 %
566 07-03-2015 17:06:17 7.5 C 67 %
567 07-03-2015 17:18:17 7.6 C 67 %
568 07-03-2015 17:30:17 7.6 C 67 %
569 07-03-2015 17:42:17 7.6 C 67 %
570 07-03-2015 17:54:17 7.6 C 67 %
571 07-03-2015 18:06:17 7.6 C 67 %
572 07-03-2015 18:18:17 7.6 C 67 %
573 07-03-2015 18:30:17 7.6 C 67 %
574 07-03-2015 18:42:17 7.6 C 67 %
575 07-03-2015 18:54:17 7.6 C 68 %
Sensor: Nr:Datum:Temp:Feuchte:
G-T/H 576 07-03-2015 19:06:17 7.6 C 68 %
577 07-03-2015 19:18:17 7.6 C 68 %
578 07-03-2015 19:30:17 7.7 C 68 %
579 07-03-2015 19:42:17 7.7 C 68 %
580 07-03-2015 19:54:17 7.7 C 68 %
581 07-03-2015 20:06:17 7.7 C 68 %
582 07-03-2015 20:18:17 7.8 C 68 %
583 07-03-2015 20:30:17 7.8 C 68 %
584 07-03-2015 20:42:18 7.8 C 68 %
585 07-03-2015 20:54:17 7.8 C 68 %
586 07-03-2015 21:06:17 7.8 C 68 %
587 07-03-2015 21:18:17 7.8 C 68 %
588 07-03-2015 21:30:17 7.8 C 68 %
589 07-03-2015 21:42:17 7.8 C 68 %
590 07-03-2015 21:54:17 7.8 C 69 %
591 07-03-2015 22:06:17 7.8 C 69 %
592 07-03-2015 22:18:17 7.8 C 69 %
593 07-03-2015 22:30:17 7.8 C 69 %
594 07-03-2015 22:42:17 7.8 C 69 %
595 07-03-2015 22:54:17 7.8 C 69 %
596 07-03-2015 23:06:17 7.8 C 69 %
597 07-03-2015 23:18:17 7.8 C 69 %
598 07-03-2015 23:30:17 7.8 C 69 %
599 07-03-2015 23:42:17 7.8 C 69 %
600 07-03-2015 23:54:17 7.8 C 69 %
Sensor: Nr:Datum:Temp:Feuchte:
G-T/H 601 08-03-2015 00:06:17 7.8 C 69 %
602 08-03-2015 00:18:17 7.8 C 69 %
603 08-03-2015 00:30:17 7.8 C 69 %
604 08-03-2015 00:42:17 7.8 C 69 %
605 08-03-2015 00:54:17 7.8 C 69 %
606 08-03-2015 01:06:17 7.8 C 69 %
607 08-03-2015 01:18:17 7.8 C 69 %
608 08-03-2015 01:30:17 7.7 C 69 %
609 08-03-2015 01:42:17 7.7 C 69 %
610 08-03-2015 01:54:17 7.7 C 69 %
611 08-03-2015 02:06:17 7.7 C 69 %
612 08-03-2015 02:18:16 7.7 C 69 %
613 08-03-2015 02:30:17 7.7 C 69 %
614 08-03-2015 02:42:17 7.7 C 69 %
615 08-03-2015 02:54:17 7.7 C 69 %
616 08-03-2015 03:06:17 7.7 C 69 %
617 08-03-2015 03:18:17 7.6 C 69 %
618 08-03-2015 03:30:17 7.6 C 69 %
619 08-03-2015 03:42:17 7.6 C 68 %
620 08-03-2015 03:54:17 7.6 C 68 %
621 08-03-2015 04:06:17 7.5 C 68 %
622 08-03-2015 04:18:17 7.6 C 68 %
623 08-03-2015 04:30:17 7.5 C 68 %
624 08-03-2015 04:42:17 7.5 C 68 %
625 08-03-2015 04:54:17 7.5 C 68 %
Sensor: Nr:Datum:Temp:Feuchte:
G-T/H 626 08-03-2015 05:06:17 7.5 C 68 %
627 08-03-2015 05:18:17 7.5 C 68 %
628 08-03-2015 05:30:17 7.4 C 68 %
629 08-03-2015 05:42:17 7.4 C 68 %
630 08-03-2015 05:54:17 7.4 C 68 %
631 08-03-2015 06:06:17 7.4 C 68 %
632 08-03-2015 06:18:17 7.3 C 68 %
633 08-03-2015 06:30:17 7.2 C 67 %
634 08-03-2015 06:42:17 7.1 C 67 %
635 08-03-2015 06:54:17 7 C 66 %
636 08-03-2015 07:06:17 7 C 66 %
637 08-03-2015 07:18:17 6.9 C 66 %
638 08-03-2015 07:30:17 6.9 C 66 %
639 08-03-2015 07:42:17 6.8 C 65 %
640 08-03-2015 07:54:17 6.8 C 65 %
641 08-03-2015 08:06:17 6.8 C 65 %
642 08-03-2015 08:18:17 6.7 C 65 %
643 08-03-2015 08:30:17 6.7 C 65 %
644 08-03-2015 08:42:17 6.7 C 65 %
645 08-03-2015 08:54:17 6.6 C 64 %
646 08-03-2015 09:06:17 6.6 C 64 %
647 08-03-2015 09:18:17 6.6 C 65 %
648 08-03-2015 09:30:17 6.7 C 65 %
649 08-03-2015 09:42:17 6.8 C 65 %
650 08-03-2015 09:54:17 6.8 C 66 %
Sensor: Nr:Datum:Temp:Feuchte:
G-T/H 651 08-03-2015 10:06:16 6.8 C 66 %
652 08-03-2015 10:18:17 6.8 C 66 %
653 08-03-2015 10:30:17 6.8 C 66 %
654 08-03-2015 10:42:17 6.8 C 67 %
655 08-03-2015 10:54:17 6.8 C 67 %
656 08-03-2015 11:06:17 6.9 C 67 %
657 08-03-2015 11:18:17 6.9 C 67 %
658 08-03-2015 11:30:17 6.9 C 68 %
659 08-03-2015 11:42:18 6.9 C 68 %
660 08-03-2015 11:54:17 6.9 C 68 %
661 08-03-2015 12:06:17 6.9 C 68 %
662 08-03-2015 12:18:18 6.9 C 68 %
663 08-03-2015 12:30:17 6.9 C 68 %
664 08-03-2015 12:42:17 7 C 68 %
665 08-03-2015 12:54:17 7 C 68 %
666 08-03-2015 13:06:17 7 C 68 %
667 08-03-2015 13:18:17 7.1 C 68 %
668 08-03-2015 13:30:17 7.1 C 68 %
669 08-03-2015 13:42:17 7.1 C 68 %
670 08-03-2015 13:54:17 7.2 C 68 %
671 08-03-2015 14:06:17 7.2 C 68 %
672 08-03-2015 14:18:17 7.3 C 68 %
673 08-03-2015 14:30:17 7.3 C 68 %
674 08-03-2015 14:42:17 7.3 C 68 %
675 08-03-2015 14:54:17 7.4 C 68 %
Sensor: Nr:Datum:Temp:Feuchte:
G-T/H 676 08-03-2015 15:06:18 7.4 C 68 %
677 08-03-2015 15:18:17 7.4 C 68 %
678 08-03-2015 15:30:17 7.5 C 68 %
679 08-03-2015 15:42:17 7.5 C 68 %
680 08-03-2015 15:54:17 7.6 C 68 %
681 08-03-2015 16:06:17 7.6 C 68 %
682 08-03-2015 16:18:17 7.6 C 69 %
683 08-03-2015 16:30:17 7.6 C 69 %
684 08-03-2015 16:42:17 7.6 C 69 %
685 08-03-2015 16:54:17 7.7 C 69 %
686 08-03-2015 17:06:17 7.7 C 69 %
687 08-03-2015 17:18:17 7.8 C 69 %
688 08-03-2015 17:30:17 7.8 C 69 %
689 08-03-2015 17:42:17 7.8 C 69 %
690 08-03-2015 17:54:17 7.8 C 69 %
691 08-03-2015 18:06:17 7.8 C 69 %
692 08-03-2015 18:18:17 7.8 C 69 %
693 08-03-2015 18:30:17 7.8 C 69 %
694 08-03-2015 18:42:17 7.8 C 69 %
695 08-03-2015 18:54:17 7.8 C 69 %
696 08-03-2015 19:06:17 7.9 C 69 %
697 08-03-2015 19:18:17 7.9 C 70 %
698 08-03-2015 19:30:17 7.9 C 70 %
699 08-03-2015 19:42:17 7.9 C 70 %
700 08-03-2015 19:54:17 7.9 C 70 %
Sensor: Nr:Datum:Temp:Feuchte:
G-T/H 701 08-03-2015 20:06:17 7.9 C 70 %
702 08-03-2015 20:18:17 7.9 C 70 %
703 08-03-2015 20:30:17 8 C 69 %
704 08-03-2015 20:42:17 8 C 69 %
705 08-03-2015 20:54:17 8 C 69 %
706 08-03-2015 21:06:17 8 C 69 %
707 08-03-2015 21:18:17 8 C 69 %
708 08-03-2015 21:30:17 8 C 69 %
709 08-03-2015 21:42:17 8 C 69 %
710 08-03-2015 21:54:17 8 C 69 %
711 08-03-2015 22:06:17 8 C 69 %
712 08-03-2015 22:18:16 8 C 69 %
713 08-03-2015 22:30:17 8.1 C 69 %
714 08-03-2015 22:42:17 8.1 C 69 %
715 08-03-2015 22:54:17 8.1 C 69 %
716 08-03-2015 23:06:17 8 C 69 %
717 08-03-2015 23:18:17 8.1 C 69 %
718 08-03-2015 23:30:16 8.1 C 69 %
719 08-03-2015 23:42:17 8.1 C 69 %
720 08-03-2015 23:54:17 8.1 C 69 %
721 09-03-2015 00:06:17 8.1 C 69 %
722 09-03-2015 00:18:17 8.1 C 69 %
723 09-03-2015 00:30:17 8.1 C 69 %
724 09-03-2015 00:42:17 8.1 C 69 %
725 09-03-2015 00:54:17 8.1 C 69 %
Sensor: Nr:Datum:Temp:Feuchte:
G-T/H 726 09-03-2015 01:06:17 8.1 C 69 %
727 09-03-2015 01:18:17 8 C 69 %
728 09-03-2015 01:30:17 8 C 69 %
729 09-03-2015 01:42:17 8 C 69 %
730 09-03-2015 01:54:17 8 C 69 %
731 09-03-2015 02:06:17 8 C 69 %
732 09-03-2015 02:18:17 8 C 69 %
733 09-03-2015 02:30:17 8 C 69 %
734 09-03-2015 02:42:17 8 C 69 %
735 09-03-2015 02:54:17 8 C 69 %
736 09-03-2015 03:06:17 8 C 69 %
737 09-03-2015 03:18:17 8 C 69 %
738 09-03-2015 03:30:17 7.9 C 70 %
739 09-03-2015 03:42:17 8 C 69 %
740 09-03-2015 03:54:17 8 C 69 %
741 09-03-2015 04:06:17 7.9 C 70 %
742 09-03-2015 04:18:17 7.9 C 70 %
743 09-03-2015 04:30:17 7.9 C 70 %
744 09-03-2015 04:42:17 7.9 C 70 %
745 09-03-2015 04:54:17 7.9 C 70 %
746 09-03-2015 05:06:17 7.9 C 70 %
747 09-03-2015 05:18:17 7.9 C 70 %
748 09-03-2015 05:30:17 7.9 C 70 %
749 09-03-2015 05:42:17 7.8 C 70 %
750 09-03-2015 05:54:17 7.8 C 70 %
Sensor: Nr:Datum:Temp:Feuchte:
G-T/H 751 09-03-2015 06:06:17 7.8 C 70 %
752 09-03-2015 06:18:17 7.9 C 70 %
753 09-03-2015 06:30:17 7.8 C 70 %
754 09-03-2015 06:42:17 7.8 C 70 %
755 09-03-2015 06:54:17 7.8 C 70 %
756 09-03-2015 07:06:17 7.8 C 70 %
757 09-03-2015 07:18:17 7.8 C 71 %
758 09-03-2015 07:30:17 7.8 C 71 %
759 09-03-2015 07:42:17 7.8 C 71 %
760 09-03-2015 07:54:17 7.8 C 71 %
761 09-03-2015 08:06:17 7.8 C 71 %
762 09-03-2015 08:18:17 7.8 C 71 %
763 09-03-2015 08:30:17 7.8 C 71 %
764 09-03-2015 08:42:17 7.8 C 71 %
765 09-03-2015 08:54:17 7.8 C 71 %
766 09-03-2015 09:06:17 7.8 C 71 %
767 09-03-2015 09:18:17 7.8 C 71 %
768 09-03-2015 09:30:17 7.8 C 71 %
769 09-03-2015 09:42:17 7.9 C 71 %
770 09-03-2015 09:54:17 7.9 C 71 %
771 09-03-2015 10:06:17 7.9 C 71 %
772 09-03-2015 10:18:17 7.9 C 71 %
773 09-03-2015 10:30:17 7.9 C 71 %
774 09-03-2015 10:42:17 7.9 C 71 %
775 09-03-2015 10:54:17 7.9 C 71 %
Sensor: Nr:Datum:Temp:Feuchte:
G-T/H 776 09-03-2015 11:06:17 8 C 70 %
777 09-03-2015 11:18:17 8 C 70 %
778 09-03-2015 11:30:18 8 C 70 %
779 09-03-2015 11:42:18 8 C 70 %
780 09-03-2015 11:54:17 8.1 C 70 %
781 09-03-2015 12:06:17 8.1 C 70 %
782 09-03-2015 12:18:17 8.1 C 70 %
783 09-03-2015 12:30:17 8.1 C 70 %
784 09-03-2015 12:42:17 8.2 C 70 %
785 09-03-2015 12:54:17 8.2 C 70 %
786 09-03-2015 13:06:17 8.2 C 70 %
787 09-03-2015 13:18:16 8.2 C 70 %
788 09-03-2015 13:30:17 8.2 C 71 %
789 09-03-2015 13:42:17 8.2 C 71 %
790 09-03-2015 13:54:16 8.3 C 71 %
791 09-03-2015 14:06:17 8.3 C 71 %
792 09-03-2015 14:18:17 8.3 C 71 %
793 09-03-2015 14:30:17 8.4 C 71 %
794 09-03-2015 14:42:17 8.4 C 71 %
795 09-03-2015 14:54:17 8.4 C 71 %
796 09-03-2015 15:06:17 8.4 C 71 %
797 09-03-2015 15:18:17 8.5 C 71 %
798 09-03-2015 15:30:17 8.5 C 71 %
799 09-03-2015 15:42:17 8.5 C 71 %
800 09-03-2015 15:54:17 8.5 C 71 %
Sensor: Nr:Datum:Temp:Feuchte:
G-T/H 801 09-03-2015 16:06:17 8.5 C 71 %
802 09-03-2015 16:18:17 8.6 C 71 %
803 09-03-2015 16:30:17 8.6 C 71 %
804 09-03-2015 16:42:17 8.6 C 71 %
805 09-03-2015 16:54:17 8.6 C 71 %
806 09-03-2015 17:06:17 8.6 C 71 %
807 09-03-2015 17:18:17 8.7 C 71 %
808 09-03-2015 17:30:17 8.7 C 71 %
809 09-03-2015 17:42:17 8.7 C 71 %
810 09-03-2015 17:54:17 8.7 C 71 %
811 09-03-2015 18:06:17 8.7 C 71 %
812 09-03-2015 18:18:17 8.7 C 71 %
813 09-03-2015 18:30:17 8.7 C 71 %
814 09-03-2015 18:42:17 8.7 C 71 %
815 09-03-2015 18:54:17 8.7 C 72 %
816 09-03-2015 19:06:17 8.7 C 72 %
817 09-03-2015 19:18:17 8.8 C 72 %
818 09-03-2015 19:30:17 8.8 C 72 %
819 09-03-2015 19:42:17 8.8 C 72 %
820 09-03-2015 19:54:17 8.8 C 72 %
821 09-03-2015 20:06:17 8.8 C 72 %
822 09-03-2015 20:18:17 8.8 C 72 %
823 09-03-2015 20:30:17 8.8 C 72 %
824 09-03-2015 20:42:17 8.8 C 72 %
825 09-03-2015 20:54:17 8.8 C 72 %
Sensor: Nr:Datum:Temp:Feuchte:
G-T/H 826 09-03-2015 21:06:17 8.8 C 72 %
827 09-03-2015 21:18:17 8.8 C 72 %
828 09-03-2015 21:30:17 8.8 C 72 %
829 09-03-2015 21:42:17 8.8 C 72 %
830 09-03-2015 21:54:17 8.8 C 72 %
831 09-03-2015 22:06:17 8.8 C 72 %
832 09-03-2015 22:18:17 8.8 C 72 %
833 09-03-2015 22:30:17 8.8 C 72 %
834 09-03-2015 22:42:17 8.8 C 72 %
835 09-03-2015 22:54:17 8.8 C 72 %
836 09-03-2015 23:06:17 8.8 C 72 %
837 09-03-2015 23:18:17 8.8 C 72 %
838 09-03-2015 23:30:17 8.8 C 72 %
839 09-03-2015 23:42:17 8.8 C 71 %
840 09-03-2015 23:54:17 8.8 C 71 %
841 10-03-2015 00:06:17 8.8 C 71 %
842 10-03-2015 00:18:17 8.8 C 71 %
843 10-03-2015 00:30:17 8.8 C 71 %
844 10-03-2015 00:42:17 8.8 C 71 %
845 10-03-2015 00:54:17 8.8 C 71 %
846 10-03-2015 01:06:17 8.8 C 71 %
847 10-03-2015 01:18:17 8.7 C 71 %
848 10-03-2015 01:30:17 8.7 C 71 %
849 10-03-2015 01:42:17 8.7 C 71 %
850 10-03-2015 01:54:17 8.7 C 71 %
Sensor: Nr:Datum:Temp:Feuchte:
G-T/H 851 10-03-2015 02:06:17 8.7 C 71 %
852 10-03-2015 02:18:17 8.7 C 71 %
853 10-03-2015 02:30:17 8.7 C 71 %
854 10-03-2015 02:42:17 8.7 C 71 %
855 10-03-2015 02:54:17 8.7 C 71 %
856 10-03-2015 03:06:17 8.6 C 71 %
857 10-03-2015 03:18:17 8.6 C 71 %
858 10-03-2015 03:30:17 8.6 C 71 %
859 10-03-2015 03:42:17 8.6 C 71 %
860 10-03-2015 03:54:17 8.6 C 71 %
861 10-03-2015 04:06:17 8.5 C 71 %
862 10-03-2015 04:18:17 8.6 C 71 %
863 10-03-2015 04:30:17 8.5 C 71 %
864 10-03-2015 04:42:17 8.5 C 71 %
865 10-03-2015 04:54:17 8.5 C 71 %
866 10-03-2015 05:06:17 8.5 C 71 %
867 10-03-2015 05:18:17 8.4 C 71 %
868 10-03-2015 05:30:17 8.4 C 71 %
869 10-03-2015 05:42:17 8.4 C 71 %
870 10-03-2015 05:54:17 8.4 C 71 %
871 10-03-2015 06:06:17 8.4 C 71 %
872 10-03-2015 06:18:17 8.2 C 70 %
873 10-03-2015 06:30:17 8.2 C 70 %
874 10-03-2015 06:42:17 8.2 C 70 %
875 10-03-2015 06:54:17 8.2 C 70 %
Sensor: Nr:Datum:Temp:Feuchte:
G-T/H 876 10-03-2015 07:06:17 8.2 C 70 %
877 10-03-2015 07:18:17 8.2 C 70 %
878 10-03-2015 07:30:17 8.2 C 70 %
879 10-03-2015 07:42:17 8.2 C 70 %
880 10-03-2015 07:54:17 8.2 C 70 %
881 10-03-2015 08:06:17 8.2 C 70 %
882 10-03-2015 08:18:17 8.2 C 70 %
883 10-03-2015 08:30:17 8.2 C 71 %
884 10-03-2015 08:42:17 8.2 C 71 %
885 10-03-2015 08:54:17 8.1 C 71 %
886 10-03-2015 09:06:17 8.1 C 71 %
887 10-03-2015 09:18:17 8.2 C 71 %
888 10-03-2015 09:30:17 8.1 C 71 %
889 10-03-2015 09:42:17 8.1 C 71 %
890 10-03-2015 09:54:17 8.1 C 71 %
891 10-03-2015 10:06:17 8.2 C 71 %
892 10-03-2015 10:18:17 8.1 C 71 %
893 10-03-2015 10:30:17 8.2 C 71 %
894 10-03-2015 10:42:17 8.1 C 71 %
895 10-03-2015 10:54:17 8.2 C 71 %
896 10-03-2015 11:06:17 8.1 C 71 %
897 10-03-2015 11:18:17 8.2 C 71 %
898 10-03-2015 11:30:17 8.1 C 71 %
899 10-03-2015 11:42:17 8.1 C 71 %
900 10-03-2015 11:54:17 8.1 C 71 %
Sensor: Nr:Datum:Temp:Feuchte:
G-T/H 901 10-03-2015 12:06:17 8.1 C 71 %
902 10-03-2015 12:18:17 8.2 C 71 %
903 10-03-2015 12:30:17 8.1 C 72 %
904 10-03-2015 12:42:17 8.1 C 72 %
905 10-03-2015 12:54:17 8.2 C 72 %
906 10-03-2015 13:06:17 8.2 C 72 %
907 10-03-2015 13:18:17 8.2 C 72 %
908 10-03-2015 13:30:17 8.2 C 72 %
909 10-03-2015 13:42:18 8.2 C 72 %
910 10-03-2015 13:54:17 8.3 C 72 %
911 10-03-2015 14:06:17 8.3 C 72 %
912 10-03-2015 14:18:17 8.3 C 72 %
913 10-03-2015 14:30:17 8.3 C 72 %
914 10-03-2015 14:42:17 8.3 C 72 %
915 10-03-2015 14:54:17 8.3 C 72 %
916 10-03-2015 15:06:17 8.3 C 72 %
917 10-03-2015 15:18:17 8.3 C 72 %
918 10-03-2015 15:30:17 8.4 C 72 %
919 10-03-2015 15:42:17 8.4 C 72 %
920 10-03-2015 15:54:17 8.4 C 72 %
921 10-03-2015 16:06:17 8.4 C 72 %
922 10-03-2015 16:18:17 8.4 C 72 %
923 10-03-2015 16:30:17 8.4 C 72 %
924 10-03-2015 16:42:17 8.4 C 72 %
925 10-03-2015 16:54:17 8.5 C 72 %
Sensor: Nr:Datum:Temp:Feuchte:
G-T/H 926 10-03-2015 17:06:17 8.5 C 72 %
927 10-03-2015 17:18:17 8.5 C 72 %
928 10-03-2015 17:30:17 8.5 C 72 %
929 10-03-2015 17:42:17 8.5 C 72 %
930 10-03-2015 17:54:17 8.5 C 72 %
931 10-03-2015 18:06:17 8.6 C 72 %
932 10-03-2015 18:18:17 8.5 C 72 %
933 10-03-2015 18:30:17 8.6 C 72 %
934 10-03-2015 18:42:17 8.6 C 73 %
935 10-03-2015 18:54:17 8.5 C 73 %
936 10-03-2015 19:06:17 8.6 C 73 %
937 10-03-2015 19:18:17 8.6 C 73 %
938 10-03-2015 19:30:17 8.6 C 73 %
939 10-03-2015 19:42:17 8.6 C 73 %
940 10-03-2015 19:54:17 8.6 C 73 %
941 10-03-2015 20:06:17 8.6 C 73 %
942 10-03-2015 20:18:17 8.6 C 73 %
943 10-03-2015 20:30:17 8.6 C 73 %
944 10-03-2015 20:42:17 8.6 C 73 %
945 10-03-2015 20:54:17 8.6 C 73 %
946 10-03-2015 21:06:17 8.6 C 73 %
947 10-03-2015 21:18:16 8.6 C 73 %
948 10-03-2015 21:30:17 8.6 C 73 %
949 10-03-2015 21:42:17 8.6 C 73 %
950 10-03-2015 21:54:17 8.6 C 73 %
Sensor: Nr:Datum:Temp:Feuchte:
G-T/H 951 10-03-2015 22:06:17 8.6 C 73 %
952 10-03-2015 22:18:17 8.6 C 73 %
953 10-03-2015 22:30:17 8.6 C 73 %
954 10-03-2015 22:42:17 8.6 C 73 %
955 10-03-2015 22:54:17 8.6 C 73 %
956 10-03-2015 23:06:17 8.6 C 73 %
957 10-03-2015 23:18:17 8.6 C 73 %
958 10-03-2015 23:30:17 8.6 C 73 %
959 10-03-2015 23:42:17 8.6 C 73 %
960 10-03-2015 23:54:17 8.6 C 73 %
961 11-03-2015 00:06:17 8.6 C 73 %
962 11-03-2015 00:18:17 8.6 C 73 %
963 11-03-2015 00:30:17 8.6 C 73 %
964 11-03-2015 00:42:17 8.6 C 73 %
965 11-03-2015 00:54:17 8.6 C 73 %
966 11-03-2015 01:06:17 8.6 C 73 %
967 11-03-2015 01:18:17 8.6 C 73 %
968 11-03-2015 01:30:17 8.6 C 73 %
969 11-03-2015 01:42:17 8.6 C 73 %
970 11-03-2015 01:54:17 8.6 C 72 %
971 11-03-2015 02:06:17 8.6 C 72 %
972 11-03-2015 02:18:17 8.5 C 72 %
973 11-03-2015 02:30:17 8.5 C 72 %
974 11-03-2015 02:42:17 8.5 C 72 %
975 11-03-2015 02:54:17 8.5 C 72 %
Sensor: Nr:Datum:Temp:Feuchte:
G-T/H 976 11-03-2015 03:06:17 8.5 C 72 %
977 11-03-2015 03:18:17 8.5 C 72 %
978 11-03-2015 03:30:17 8.5 C 72 %
979 11-03-2015 03:42:17 8.4 C 72 %
980 11-03-2015 03:54:17 8.4 C 72 %
981 11-03-2015 04:06:17 8.4 C 72 %
982 11-03-2015 04:18:17 8.4 C 72 %
983 11-03-2015 04:30:17 8.4 C 72 %
984 11-03-2015 04:42:17 8.4 C 72 %
985 11-03-2015 04:54:17 8.4 C 72 %
986 11-03-2015 05:06:17 8.3 C 72 %
987 11-03-2015 05:18:17 8.3 C 71 %
988 11-03-2015 05:30:17 8.3 C 71 %
989 11-03-2015 05:42:17 8.3 C 71 %
990 11-03-2015 05:54:17 8.3 C 71 %
991 11-03-2015 06:06:17 8.2 C 71 %
992 11-03-2015 06:18:17 8.1 C 71 %
993 11-03-2015 06:30:17 8 C 71 %
994 11-03-2015 06:42:17 8 C 70 %
995 11-03-2015 06:54:17 7.9 C 71 %
996 11-03-2015 07:06:17 7.9 C 71 %
997 11-03-2015 07:18:17 7.8 C 70 %
998 11-03-2015 07:30:17 7.8 C 70 %
999 11-03-2015 07:42:17 7.8 C 70 %
1000 11-03-2015 07:54:17 7.9 C 70 %
Sensor: Nr:Datum:Temp:Feuchte:
G-T/H 1001 11-03-2015 08:06:17 7.9 C 70 %
1002 11-03-2015 08:18:17 7.9 C 71 %
1003 11-03-2015 08:30:17 7.9 C 71 %
1004 11-03-2015 08:42:17 7.9 C 71 %
1005 11-03-2015 08:54:17 8 C 70 %
1006 11-03-2015 09:06:17 8 C 70 %
1007 11-03-2015 09:18:17 8 C 70 %
1008 11-03-2015 09:30:17 8 C 70 %
1009 11-03-2015 09:42:17 7.9 C 71 %
1010 11-03-2015 09:54:17 7.9 C 71 %
1011 11-03-2015 10:06:17 8 C 70 %
1012 11-03-2015 10:18:17 7.9 C 71 %
1013 11-03-2015 10:30:17 8 C 71 %
1014 11-03-2015 10:42:17 8 C 71 %
1015 11-03-2015 10:54:17 8 C 71 %
1016 11-03-2015 11:06:17 8 C 71 %
1017 11-03-2015 11:18:17 8 C 71 %
1018 11-03-2015 11:30:17 8 C 71 %
1019 11-03-2015 11:42:17 8 C 71 %
1020 11-03-2015 11:54:17 8 C 71 %
1021 11-03-2015 12:06:17 8 C 71 %
1022 11-03-2015 12:18:17 8 C 71 %
1023 11-03-2015 12:30:17 8 C 71 %
1024 11-03-2015 12:42:17 8 C 71 %
1025 11-03-2015 12:54:17 8 C 71 %
Sensor: Nr:Datum:Temp:Feuchte:
G-T/H 1026 11-03-2015 13:06:17 8 C 71 %
1027 11-03-2015 13:18:17 8 C 71 %
1028 11-03-2015 13:30:17 8 C 71 %
1029 11-03-2015 13:42:17 8 C 71 %
1030 11-03-2015 13:54:17 8 C 71 %
1031 11-03-2015 14:06:17 8 C 71 %
1032 11-03-2015 14:18:17 8.1 C 71 %
1033 11-03-2015 14:30:18 8.1 C 71 %
1034 11-03-2015 14:42:18 8.1 C 71 %
1035 11-03-2015 14:54:17 8.1 C 71 %
1036 11-03-2015 15:06:17 8.1 C 71 %
1037 11-03-2015 15:18:17 8.1 C 71 %
1038 11-03-2015 15:30:17 8.1 C 71 %
1039 11-03-2015 15:42:17 8.1 C 71 %
1040 11-03-2015 15:54:17 8.1 C 71 %
1041 11-03-2015 16:06:17 8.1 C 71 %
1042 11-03-2015 16:18:17 8.1 C 71 %
1043 11-03-2015 16:30:17 8.1 C 71 %
1044 11-03-2015 16:42:17 8.1 C 70 %
1045 11-03-2015 16:54:17 8.1 C 69 %
1046 11-03-2015 17:06:17 8.1 C 68 %
1047 11-03-2015 17:18:17 8.1 C 68 %
1048 11-03-2015 17:30:17 8.1 C 68 %
1049 11-03-2015 17:42:17 8.1 C 68 %
1050 11-03-2015 17:54:17 8.1 C 68 %
Sensor: Nr:Datum:Temp:Feuchte:
G-T/H 1051 11-03-2015 18:06:17 8.2 C 69 %
1052 11-03-2015 18:18:17 8.2 C 69 %
1053 11-03-2015 18:30:17 8.2 C 69 %
1054 11-03-2015 18:42:17 8.2 C 69 %
1055 11-03-2015 18:54:17 8.2 C 69 %
1056 11-03-2015 19:06:17 8.2 C 70 %
1057 11-03-2015 19:18:17 8.1 C 70 %
1058 11-03-2015 19:30:17 8.1 C 69 %
1059 11-03-2015 19:42:17 8.2 C 69 %
1060 11-03-2015 19:54:17 8.5 C 70 %
1061 11-03-2015 20:06:17 8.6 C 70 %
1062 11-03-2015 20:18:17 8.7 C 70 %
1063 11-03-2015 20:30:17 8.7 C 69 %
1064 11-03-2015 20:42:17 8.6 C 68 %
1065 11-03-2015 20:54:17 8.6 C 68 %
1066 11-03-2015 21:06:18 8.6 C 67 %
1067 11-03-2015 21:18:17 8.6 C 67 %
1068 11-03-2015 21:30:17 8.6 C 66 %
1069 11-03-2015 21:42:17 8.5 C 66 %
1070 11-03-2015 21:54:17 8.5 C 65 %
1071 11-03-2015 22:06:17 8.4 C 65 %
1072 11-03-2015 22:18:17 8.5 C 65 %
1073 11-03-2015 22:30:17 8.4 C 64 %
1074 11-03-2015 22:42:17 8.3 C 64 %
1075 11-03-2015 22:54:17 8.3 C 64 %
Sensor: Nr:Datum:Temp:Feuchte:
G-T/H 1076 11-03-2015 23:06:17 8.2 C 63 %
1077 11-03-2015 23:18:17 8.3 C 63 %
1078 11-03-2015 23:30:17 8.2 C 63 %
1079 11-03-2015 23:42:17 8.2 C 63 %
1080 11-03-2015 23:54:16 8.1 C 63 %
1081 12-03-2015 00:06:17 8 C 62 %
1082 12-03-2015 00:18:17 8 C 62 %
1083 12-03-2015 00:30:17 7.9 C 63 %
1084 12-03-2015 00:42:17 7.9 C 63 %
1085 12-03-2015 00:54:17 7.9 C 63 %
1086 12-03-2015 01:06:18 7.8 C 62 %
1087 12-03-2015 01:18:17 7.8 C 62 %
1088 12-03-2015 01:30:17 7.7 C 62 %
1089 12-03-2015 01:42:17 7.7 C 62 %
1090 12-03-2015 01:54:17 7.7 C 62 %
1091 12-03-2015 02:06:17 7.6 C 62 %
1092 12-03-2015 02:18:17 7.6 C 62 %
1093 12-03-2015 02:30:17 7.5 C 62 %
1094 12-03-2015 02:42:18 7.5 C 61 %
1095 12-03-2015 02:54:17 7.5 C 61 %
1096 12-03-2015 03:06:17 7.4 C 61 %
1097 12-03-2015 03:18:17 7.4 C 61 %
1098 12-03-2015 03:30:17 7.3 C 61 %
1099 12-03-2015 03:42:17 7.3 C 61 %
1100 12-03-2015 03:54:17 7.3 C 61 %
Sensor: Nr:Datum:Temp:Feuchte:
G-T/H 1101 12-03-2015 04:06:17 7.2 C 61 %
1102 12-03-2015 04:18:17 7.2 C 61 %
1103 12-03-2015 04:30:17 7.2 C 61 %
1104 12-03-2015 04:42:17 7.1 C 61 %
1105 12-03-2015 04:54:17 7.1 C 61 %
1106 12-03-2015 05:06:17 7.1 C 60 %
1107 12-03-2015 05:18:17 7.1 C 60 %
1108 12-03-2015 05:30:17 7 C 60 %
1109 12-03-2015 05:42:17 7 C 60 %
1110 12-03-2015 05:54:17 7 C 60 %
1111 12-03-2015 06:06:17 6.9 C 61 %
1112 12-03-2015 06:18:17 7 C 61 %
1113 12-03-2015 06:30:17 7 C 60 %
1114 12-03-2015 06:42:17 6.9 C 61 %
1115 12-03-2015 06:54:17 6.9 C 61 %
1116 12-03-2015 07:06:17 6.8 C 61 %
1117 12-03-2015 07:18:17 6.8 C 61 %
1118 12-03-2015 07:30:17 6.8 C 61 %
1119 12-03-2015 07:42:17 6.7 C 61 %
1120 12-03-2015 07:54:17 6.5 C 60 %
1121 12-03-2015 08:06:17 6.5 C 60 %
1122 12-03-2015 08:18:17 6.4 C 60 %
1123 12-03-2015 08:30:17 6.4 C 60 %
1124 12-03-2015 08:42:17 6.5 C 61 %
1125 12-03-2015 08:54:17 6.5 C 61 %
Sensor: Nr:Datum:Temp:Feuchte:
G-T/H 1126 12-03-2015 09:06:17 6.6 C 62 %
1127 12-03-2015 09:18:17 6.6 C 62 %
1128 12-03-2015 09:30:17 6.5 C 62 %
1129 12-03-2015 09:42:17 6.5 C 62 %
1130 12-03-2015 09:54:17 6.4 C 62 %
1131 12-03-2015 10:06:17 6.4 C 62 %
1132 12-03-2015 10:18:17 6.5 C 63 %
1133 12-03-2015 10:30:17 6.5 C 63 %
1134 12-03-2015 10:42:17 6.6 C 64 %
1135 12-03-2015 10:54:17 6.6 C 64 %
1136 12-03-2015 11:06:17 6.6 C 64 %
1137 12-03-2015 11:18:17 6.6 C 65 %
1138 12-03-2015 11:30:17 6.6 C 65 %
1139 12-03-2015 11:42:17 6.6 C 65 %
1140 12-03-2015 11:54:16 6.6 C 65 %
1141 12-03-2015 12:06:17 6.7 C 66 %
1142 12-03-2015 12:18:17 6.7 C 66 %
1143 12-03-2015 12:30:17 6.7 C 66 %
1144 12-03-2015 12:42:17 6.7 C 66 %
1145 12-03-2015 12:54:17 6.8 C 66 %
1146 12-03-2015 13:06:18 6.8 C 66 %
1147 12-03-2015 13:18:17 6.8 C 67 %
1148 12-03-2015 13:30:17 6.9 C 67 %
1149 12-03-2015 13:42:17 6.9 C 67 %
1150 12-03-2015 13:54:17 6.9 C 67 %
Sensor: Nr:Datum:Temp:Feuchte:
G-T/H 1151 12-03-2015 14:06:17 6.9 C 67 %
1152 12-03-2015 14:18:17 7 C 66 %
1153 12-03-2015 14:30:17 7 C 66 %
1154 12-03-2015 14:42:17 7 C 66 %
1155 12-03-2015 14:54:17 7 C 66 %
1156 12-03-2015 15:06:17 7 C 66 %
1157 12-03-2015 15:18:17 7.1 C 66 %
1158 12-03-2015 15:30:17 7.1 C 66 %
1159 12-03-2015 15:42:17 7.1 C 66 %
1160 12-03-2015 15:54:17 7.1 C 67 %
1161 12-03-2015 16:06:17 7.1 C 67 %
1162 12-03-2015 16:18:17 7.2 C 67 %
1163 12-03-2015 16:30:17 7.1 C 67 %
1164 12-03-2015 16:42:17 7.3 C 67 %
1165 12-03-2015 16:54:17 7.2 C 67 %
1166 12-03-2015 17:06:17 7.3 C 67 %
1167 12-03-2015 17:18:16 7.3 C 67 %
1168 12-03-2015 17:30:17 7.3 C 67 %
1169 12-03-2015 17:42:17 7.3 C 67 %
1170 12-03-2015 17:54:17 7.4 C 67 %
1171 12-03-2015 18:06:17 7.4 C 67 %
1172 12-03-2015 18:18:17 7.4 C 67 %
1173 12-03-2015 18:30:17 7.4 C 67 %
1174 12-03-2015 18:42:17 7.4 C 67 %
1175 12-03-2015 18:54:17 7.4 C 68 %
Sensor: Nr:Datum:Temp:Feuchte:
G-T/H 1176 12-03-2015 19:06:17 7.4 C 68 %
1177 12-03-2015 19:18:17 7.4 C 68 %
1178 12-03-2015 19:30:17 7.4 C 68 %
1179 12-03-2015 19:42:17 7.4 C 68 %
1180 12-03-2015 19:54:17 7.5 C 68 %
1181 12-03-2015 20:06:17 7.5 C 68 %
1182 12-03-2015 20:18:17 7.7 C 68 %
1183 12-03-2015 20:30:17 8 C 67 %
1184 12-03-2015 20:42:17 8.3 C 67 %
1185 12-03-2015 20:54:17 8.4 C 67 %
1186 12-03-2015 21:06:17 8.5 C 67 %
1187 12-03-2015 21:18:17 8.5 C 67 %
1188 12-03-2015 21:30:17 8.5 C 67 %
1189 12-03-2015 21:42:17 8.4 C 66 %
1190 12-03-2015 21:54:17 8.4 C 66 %
1191 12-03-2015 22:06:17 8.3 C 65 %
1192 12-03-2015 22:18:17 8.3 C 65 %
1193 12-03-2015 22:30:17 8.3 C 64 %
1194 12-03-2015 22:42:17 8.3 C 64 %
1195 12-03-2015 22:54:17 8.3 C 64 %
1196 12-03-2015 23:06:17 8.3 C 64 %
1197 12-03-2015 23:18:17 8.3 C 64 %
1198 12-03-2015 23:30:17 8.2 C 64 %
1199 12-03-2015 23:42:17 8.2 C 63 %
1200 12-03-2015 23:54:17 8.1 C 62 %
Sensor: Nr:Datum:Temp:Feuchte:
G-T/H 1201 13-03-2015 00:06:17 8.1 C 62 %
1202 13-03-2015 00:18:17 8 C 62 %
1203 13-03-2015 00:30:17 8 C 61 %
1204 13-03-2015 00:42:17 7.9 C 62 %
1205 13-03-2015 00:54:16 7.9 C 61 %
1206 13-03-2015 01:06:17 7.9 C 61 %
1207 13-03-2015 01:18:17 7.8 C 61 %
1208 13-03-2015 01:30:17 7.8 C 61 %
1209 13-03-2015 01:42:17 7.8 C 61 %
1210<